Provisional Data: Apalachin Creek near Apalachin, NY


Please select a monitoring station.
Please select start date.
Please select start date.

Toggle Unit: C/F Toggle Unit: C/F
Sample Time Temperature (C) Temperature (F) Specific Conductivity (mS/cm) pH   Turbidity (NTU+) DO (mg/L)
12/23/2022 12:00:00 AM 1.74 35.132 0.146 7.3 3.2 13.71
12/23/2022 12:15:00 AM 1.71 35.078 0.147 7.3 3.66 13.71
12/23/2022 12:30:00 AM 1.68 35.024 0.148 7.31 4.31 13.73
12/23/2022 12:45:00 AM 1.61 34.898 0.15 7.31 6.43 13.75
12/23/2022 1:00:00 AM 1.49 34.682 0.153 7.32 10.95 13.79
12/23/2022 1:15:00 AM 1.31 34.358 0.158 7.32 20.86 13.84
12/23/2022 1:30:00 AM 1.08 33.944 0.163 7.3 51.35 13.92
12/23/2022 1:45:00 AM 0.7 33.26 0.168 7.27 70.45 14.03
12/23/2022 2:00:00 AM 0.45 32.81 0.167 7.27 113.79 14.16
12/23/2022 2:15:00 AM 0.36 32.648 0.159 7.23 155.68 14.21
12/23/2022 2:30:00 AM 0.3 32.54 0.151 7.21 179.57 14.25
12/23/2022 2:45:00 AM 0.28 32.504 0.146 7.19 194.22 14.3
12/23/2022 3:00:00 AM 0.29 32.522 0.142 7.17 205.64 14.32
12/23/2022 3:15:00 AM 0.3 32.54 0.137 7.15 218.62 14.32
12/23/2022 3:30:00 AM 0.32 32.576 0.13 7.11 229.62 14.3
12/23/2022 3:45:00 AM 0.36 32.648 0.125 7.08 251.34 14.28
12/23/2022 4:00:00 AM 0.36 32.648 0.121 7.06 278.41 14.28
12/23/2022 4:15:00 AM 0.38 32.684 0.117 7.05 306.24 14.27
12/23/2022 4:30:00 AM 0.42 32.756 0.113 7.04 350.29 14.25
12/23/2022 4:45:00 AM 0.47 32.846 0.109 7.03 386.54 14.24
12/23/2022 5:00:00 AM 0.54 32.972 0.105 7.01 403.63 14.22
12/23/2022 5:15:00 AM 0.62 33.116 0.102 7 433.94 14.19
12/23/2022 5:30:00 AM 0.67 33.206 0.099 6.98 430.76 14.15
12/23/2022 5:45:00 AM 0.73 33.314 0.097 6.97 429.22 14.12
12/23/2022 6:00:00 AM 0.8 33.44 0.095 6.92 417.2 14.1
12/23/2022 6:15:00 AM 0.88 33.584 0.093 6.9 398.14 14.07
12/23/2022 6:30:00 AM 0.96 33.728 0.092 6.95 383.81 14.05
12/23/2022 6:45:00 AM 1.03 33.854 0.09 6.93 358.29 14.03
12/23/2022 7:00:00 AM 1.09 33.962 0.089 6.94 334.99 14.01
12/23/2022 7:15:00 AM 1.14 34.052 0.088 6.93 315.52 13.99
12/23/2022 7:30:00 AM 1.19 34.142 0.087 6.91 298.39 13.97
12/23/2022 7:45:00 AM 1.23 34.214 0.086 6.93 286.53 13.94
12/23/2022 8:00:00 AM 1.28 34.304 0.085 6.92 277.39 13.91
12/23/2022 8:15:00 AM 1.33 34.394 0.085 6.92 254.82 13.88
12/23/2022 8:30:00 AM 1.39 34.502 0.084 6.92 253.21 13.85
12/23/2022 8:45:00 AM 1.45 34.61 0.083 6.92 232.73 13.82
12/23/2022 9:00:00 AM 1.52 34.736 0.083 6.92 217.45 13.79
12/23/2022 9:15:00 AM 1.59 34.862 0.083 6.94 204.11 13.76
12/23/2022 9:30:00 AM 1.66 34.988 0.083 6.93 190.61 13.74
12/23/2022 9:45:00 AM 1.73 35.114 0.083 6.95 177.8 13.71
12/23/2022 10:00:00 AM 1.78 35.204 0.082 6.94 171.58 13.68
12/23/2022 10:15:00 AM 1.84 35.312 0.083 6.93 163.58 13.65
12/23/2022 10:30:00 AM 1.89 35.402 0.083 6.87 158.12 13.63
12/23/2022 10:45:00 AM 1.94 35.492 0.084 6.93 158.31 13.6
12/23/2022 11:00:00 AM 1.99 35.582 0.085 6.93 147.27 13.58
12/23/2022 11:15:00 AM 2.02 35.636 0.086 6.92 140.81 13.57
12/23/2022 11:30:00 AM 2 35.6 0.086 6.91 146.58 13.57
12/23/2022 11:45:00 AM 1.87 35.366 0.085 6.84 153.87 13.58
12/23/2022 12:00:00 PM 1.86 35.348 0.084 6.89 150.05 13.61
12/23/2022 12:15:00 PM 1.81 35.258 0.083 6.89 173.67 13.64
12/23/2022 12:30:00 PM 1.79 35.222 0.082 6.88 169.35 13.67
12/23/2022 12:45:00 PM 1.76 35.168 0.082 6.88 163.27 13.7
12/23/2022 1:00:00 PM 1.75 35.15 0.082 6.87 159.23 13.71
12/23/2022 1:15:00 PM 1.72 35.096 0.081 6.87 154.15 13.73
12/23/2022 1:30:00 PM 1.68 35.024 0.081 6.87 145.75 13.74
12/23/2022 1:45:00 PM 1.64 34.952 0.081 6.86 139.71 13.75
12/23/2022 2:00:00 PM 1.6 34.88 0.082 6.85 138.02 13.76
12/23/2022 2:15:00 PM 1.58 34.844 0.082 6.85 126.24 13.77
12/23/2022 2:30:00 PM 1.53 34.754 0.082 6.86 124.39 13.78
12/23/2022 2:45:00 PM 1.47 34.646 0.083 6.85 115.76 13.81
12/23/2022 3:00:00 PM 1.41 34.538 0.083 6.84 114.32 13.84
12/23/2022 3:15:00 PM 1.35 34.43 0.083 6.8 108.72 13.85
12/23/2022 3:30:00 PM 1.27 34.286 0.083 6.84 102.64 13.89
12/23/2022 3:45:00 PM 1.22 34.196 0.084 6.85 101.83 13.92
12/23/2022 4:00:00 PM 1.14 34.052 0.084 6.84 93.3 13.95
12/23/2022 4:15:00 PM 1.08 33.944 0.085 6.85 86.75 13.97
12/23/2022 4:30:00 PM 1.02 33.836 0.085 6.85 83.69 14
12/23/2022 4:45:00 PM 0.93 33.674 0.086 6.85 78.82 14.02
12/23/2022 5:00:00 PM 0.85 33.53 0.086 6.85 75.99 14.05
12/23/2022 5:15:00 PM 0.77 33.386 0.087 6.86 70.1 14.08
12/23/2022 5:30:00 PM 0.71 33.278 0.087 6.87 69.35 14.1
12/23/2022 5:45:00 PM 0.64 33.152 0.087 6.87 67.4 14.14
12/23/2022 6:00:00 PM 0.56 33.008 0.088 6.87 64.41 14.17
12/23/2022 6:15:00 PM 0.48 32.864 0.088 6.89 60.2 14.2
12/23/2022 6:30:00 PM 0.41 32.738 0.089 6.89 60.52 14.23
12/23/2022 6:45:00 PM 0.33 32.594 0.089 6.91 57.57 14.26
12/23/2022 7:00:00 PM 0.26 32.468 0.09 6.91 55.85 14.29
12/23/2022 7:15:00 PM 0.22 32.396 0.09 6.92 52.71 14.31
12/23/2022 7:30:00 PM 0.17 32.306 0.091 6.94 52.19 14.33
12/23/2022 7:45:00 PM 0.11 32.198 0.092 6.94 46 14.35
12/23/2022 8:00:00 PM 0.06 32.108 0.092 6.94 45.87 14.37
12/23/2022 8:15:00 PM 0.01 32.018 0.093 6.96 52.24 14.39
12/23/2022 8:30:00 PM -0.03 31.946 0.093 6.96 42.32 14.41
12/23/2022 8:45:00 PM -0.04 31.928 0.094 6.97 40.26 14.43
12/23/2022 9:00:00 PM -0.04 31.928 0.094 6.93 39.79 14.44
12/23/2022 9:15:00 PM -0.05 31.91 0.095 6.98 38.56 14.45
12/23/2022 9:30:00 PM -0.05 31.91 0.095 6.99 36.01 14.47
12/23/2022 9:45:00 PM -0.05 31.91 0.096 7 36.54 14.48
12/23/2022 10:00:00 PM -0.05 31.91 0.096 7.01 35.82 14.48
12/23/2022 10:15:00 PM -0.05 31.91 0.097 7.02 38.32 14.48
12/23/2022 10:30:00 PM -0.04 31.928 0.097 7.03 32.61 14.49
12/23/2022 10:45:00 PM -0.04 31.928 0.097 6.96 26.79 14.5
12/23/2022 11:00:00 PM -0.05 31.91 0.098 7.05 25.69 14.5
12/23/2022 11:15:00 PM -0.05 31.91 0.098 7.04 25.26 14.5
12/23/2022 11:30:00 PM -0.05 31.91 0.099 7.04 25.54 14.51
12/23/2022 11:45:00 PM -0.05 31.91 0.099 7.05 25 14.52
12/24/2022 12:00:00 AM -0.05 31.91 0.099 7.05 23.29 14.51
12/24/2022 12:15:00 AM -0.05 31.91 0.1 7.06 23.36 14.52
12/24/2022 12:30:00 AM -0.05 31.91 0.1 7.04 22.57 14.52
12/24/2022 12:45:00 AM -0.05 31.91 0.101 7.07 21.27 14.52
12/24/2022 1:00:00 AM -0.05 31.91 0.101 7.04 20.84 14.53
12/24/2022 1:15:00 AM -0.05 31.91 0.101 6.9 22.48 14.53
12/24/2022 1:30:00 AM -0.05 31.91 0.102 7.02 19.79 14.53
12/24/2022 1:45:00 AM -0.05 31.91 0.102 7.01 18.45 14.53
12/24/2022 2:00:00 AM -0.05 31.91 0.102 6.98 17.21 14.52
12/24/2022 2:15:00 AM -0.05 31.91 0.102 7.06 19.68 14.51
12/24/2022 2:30:00 AM -0.05 31.91 0.1 7.04 25.08 14.45
12/24/2022 2:45:00 AM -0.05 31.91 0.102 6.81 22.31 14.41
12/24/2022 3:00:00 AM -0.05 31.91 0.1 7.05 40.18 14.38
12/24/2022 3:15:00 AM -0.05 31.91 0.103 7.08 35.27 14.37
12/24/2022 3:30:00 AM -0.05 31.91 0.103 7.08 33.56 14.4
12/24/2022 3:45:00 AM -0.05 31.91 0.099 7.09 35.04 14.39
12/24/2022 4:00:00 AM -0.05 31.91 0.1 7.08 23.49 14.4
12/24/2022 4:15:00 AM -0.05 31.91 0.101 6.87 24.3 14.39
12/24/2022 4:30:00 AM -0.05 31.91 0.101 6.96 21.7 14.38
12/24/2022 4:45:00 AM -0.05 31.91 0.103 6.96 22.27 14.37
12/24/2022 5:00:00 AM -0.05 31.91 0.087 7.09 26.97 14.37
12/24/2022 5:15:00 AM -0.05 31.91 0.105 7.09 24.22 14.37
12/24/2022 5:30:00 AM -0.05 31.91 0.105 7.07 24.35 14.37
12/24/2022 5:45:00 AM -0.05 31.91 0.105 7.09 25.04 14.37
12/24/2022 6:00:00 AM -0.05 31.91 0.105 7.07 24.65 14.37
12/24/2022 6:15:00 AM -0.05 31.91 0.104 7.06 24.62 14.37
12/24/2022 6:30:00 AM -0.05 31.91 0.106 7.07 24.93 14.36
12/24/2022 6:45:00 AM -0.05 31.91 0.105 7.06 28 14.36
12/24/2022 7:00:00 AM -0.05 31.91 0.099 7.07 28.73 14.34
12/24/2022 7:15:00 AM -0.05 31.91 0.106 7.07 28.65 14.36
12/24/2022 7:30:00 AM -0.05 31.91 0.105 7.06 29.83 14.35
12/24/2022 7:45:00 AM -0.05 31.91 0.108 7.06 30.01 14.35
12/24/2022 8:00:00 AM -0.05 31.91 0.107 7.06 29.86 14.36
12/24/2022 8:15:00 AM -0.05 31.91 0.109 7.04 29.96 14.35
12/24/2022 8:30:00 AM -0.05 31.91 0.108 6.95 31.38 14.38
12/24/2022 8:45:00 AM -0.05 31.91 0.109 6.98 31.64 14.38
12/24/2022 9:00:00 AM -0.05 31.91 0.107 7.07 31.56 14.38
12/24/2022 9:15:00 AM -0.04 31.928 0.107 7.07 32.56 14.37
12/24/2022 9:30:00 AM -0.04 31.928 0.104 6.93 32.82 14.36
12/24/2022 9:45:00 AM -0.04 31.928 0.11 7.07 33.12 14.34
12/24/2022 10:00:00 AM -0.04 31.928 0.11 7.06 34.18 14.33
12/24/2022 10:15:00 AM -0.04 31.928 0.11 7.06 35.13 14.32
12/24/2022 10:30:00 AM -0.04 31.928 0.111 7.06 35.22 14.32
12/24/2022 10:45:00 AM -0.04 31.928 0.111 7.07 36.08 14.31
12/24/2022 11:00:00 AM -0.03 31.946 0.112 7.08 36.5 14.31
12/24/2022 11:15:00 AM -0.02 31.964 0.112 7.09 36.62 14.25
12/24/2022 11:30:00 AM -0.02 31.964 0.112 7.09 34.43 14.29
12/24/2022 11:45:00 AM -0.01 31.982 0.112 7.11 36.21 14.32
12/24/2022 12:00:00 PM -0.01 31.982 0.112 7.09 36.72 14.45
12/24/2022 12:15:00 PM -0.01 31.982 0.112 7.09 10.86 14.48
12/24/2022 12:30:00 PM 0 32 0.112 7.1 11.35 14.48
12/24/2022 12:45:00 PM 0 32 0.113 7.09 11.49 14.49
12/24/2022 1:00:00 PM 0 32 0.113 7.09 10.72 14.49
12/24/2022 1:15:00 PM 0.01 32.018 0.113 7.09 10.43 14.49
12/24/2022 1:30:00 PM 0.01 32.018 0.113 7.09 10.91 14.48
12/24/2022 1:45:00 PM 0.01 32.018 0.113 7.09 10.63 14.5
12/24/2022 2:00:00 PM 0.02 32.036 0.113 7.1 10.53 14.48
12/24/2022 2:15:00 PM 0.01 32.018 0.113 7.1 9.97 14.48
12/24/2022 2:30:00 PM 0.01 32.018 0.113 7.1 11.39 14.49
12/24/2022 2:45:00 PM 0.01 32.018 0.113 7.1 10.44 14.49
12/24/2022 3:00:00 PM -0.01 31.982 0.113 7.1 11.65 14.51
12/24/2022 3:15:00 PM -0.01 31.982 0.113 7.1 12.23 14.51
12/24/2022 3:30:00 PM -0.02 31.964 0.113 7.1 10.02 14.51
12/24/2022 3:45:00 PM -0.03 31.946 0.113 7.07 10.08 14.51
12/24/2022 4:00:00 PM -0.03 31.946 0.113 7.1 9.91 14.52
12/24/2022 4:15:00 PM -0.03 31.946 0.113 7.1 9.24 14.52
12/24/2022 4:30:00 PM -0.04 31.928 0.113 7.1 9.55 14.53
12/24/2022 4:45:00 PM -0.04 31.928 0.114 7.1 9.33 14.52
12/24/2022 5:00:00 PM -0.04 31.928 0.114 7.09 9.75 14.52
12/24/2022 5:15:00 PM -0.05 31.91 0.114 7.03 9.49 14.53
12/24/2022 5:30:00 PM -0.04 31.928 0.114 7.1 9.16 14.52
12/24/2022 5:45:00 PM -0.04 31.928 0.114 7.1 8.98 14.52
12/24/2022 6:00:00 PM -0.04 31.928 0.114 7.09 9.58 14.51
12/24/2022 6:15:00 PM -0.04 31.928 0.115 7.1 9.38 14.51
12/24/2022 6:30:00 PM -0.04 31.928 0.115 7.09 9.83 14.51
12/24/2022 6:45:00 PM -0.04 31.928 0.115 7.1 9.44 14.51
12/24/2022 7:00:00 PM -0.03 31.946 0.115 7.1 8.53 14.5
12/24/2022 7:15:00 PM -0.03 31.946 0.115 7.1 8.86 14.5
12/24/2022 7:30:00 PM -0.03 31.946 0.115 7.09 8.41 14.5
12/24/2022 7:45:00 PM -0.02 31.964 0.116 7.1 8.58 14.5
12/24/2022 8:00:00 PM -0.02 31.964 0.116 7.09 8.28 14.49
12/24/2022 8:15:00 PM -0.01 31.982 0.116 7.1 8.23 14.49
12/24/2022 8:30:00 PM -0.01 31.982 0.116 7.1 8.21 14.49
12/24/2022 8:45:00 PM -0.02 31.964 0.116 7.1 8.6 14.48
12/24/2022 9:00:00 PM -0.01 31.982 0.117 7.1 8.65 14.48
12/24/2022 9:15:00 PM -0.02 31.964 0.117 7.1 8.45 14.48
12/24/2022 9:30:00 PM -0.02 31.964 0.117 7.1 8.35 14.48
12/24/2022 9:45:00 PM -0.02 31.964 0.117 7.1 8.04 14.48
12/24/2022 10:00:00 PM -0.02 31.964 0.117 7.1 8.02 14.49
12/24/2022 10:15:00 PM -0.02 31.964 0.118 7.1 7.64 14.48
12/24/2022 10:30:00 PM -0.02 31.964 0.118 7.1 7.72 14.48
12/24/2022 10:45:00 PM -0.01 31.982 0.118 7.11 8.14 14.48
12/24/2022 11:00:00 PM -0.02 31.964 0.118 7.1 8.22 14.48
12/24/2022 11:15:00 PM -0.02 31.964 0.118 7.11 7.86 14.49
12/24/2022 11:30:00 PM -0.03 31.946 0.118 7.1 7.6 14.49
12/24/2022 11:45:00 PM -0.03 31.946 0.119 7.1 7.69 14.49
12/25/2022 12:00:00 AM -0.03 31.946 0.119 7.06 7.71 14.49
12/25/2022 12:15:00 AM -0.02 31.964 0.119 7.09 7.57 14.48
12/25/2022 12:30:00 AM -0.02 31.964 0.119 7.11 7.87 14.48
12/25/2022 12:45:00 AM -0.02 31.964 0.12 7.11 7.53 14.48
12/25/2022 1:00:00 AM -0.01 31.982 0.12 7.11 6.95 14.47
12/25/2022 1:15:00 AM -0.01 31.982 0.12 7.11 7.47 14.46
12/25/2022 1:30:00 AM -0.01 31.982 0.12 7.11 6.94 14.46
12/25/2022 1:45:00 AM -0.01 31.982 0.121 7.02 7.33 14.46
12/25/2022 2:00:00 AM -0.01 31.982 0.121 7.11 6.89 14.46
12/25/2022 2:15:00 AM -0.01 31.982 0.121 7.11 6.93 14.46
12/25/2022 2:30:00 AM -0.01 31.982 0.121 7.11 7.3 14.46
12/25/2022 2:45:00 AM -0.01 31.982 0.121 7.11 6.39 14.45
12/25/2022 3:00:00 AM -0.01 31.982 0.122 7.11 6.49 14.45
12/25/2022 3:15:00 AM -0.02 31.964 0.122 7.11 6.83 14.45
12/25/2022 3:30:00 AM -0.02 31.964 0.122 7.11 6.35 14.46
12/25/2022 3:45:00 AM -0.02 31.964 0.122 7.11 6.73 14.45
12/25/2022 4:00:00 AM -0.02 31.964 0.123 7.11 6.69 14.44
12/25/2022 4:15:00 AM -0.01 31.982 0.123 7.11 6.36 14.44
12/25/2022 4:30:00 AM -0.01 31.982 0.123 7.11 6.78 14.44
12/25/2022 4:45:00 AM 0 32 0.123 7.11 6.69 14.44
12/25/2022 5:00:00 AM 0 32 0.124 7.11 6.54 14.43
12/25/2022 5:15:00 AM 0.01 32.018 0.124 7.11 6.23 14.42
12/25/2022 5:30:00 AM 0.01 32.018 0.124 7.11 6.37 14.42
12/25/2022 5:45:00 AM 0.02 32.036 0.124 7.11 6.5 14.43
12/25/2022 6:00:00 AM 0.02 32.036 0.124 7.11 6.62 14.42
12/25/2022 6:15:00 AM 0.01 32.018 0.124 7.12 6.39 14.42
12/25/2022 6:30:00 AM 0.01 32.018 0.124 7.11 6.11 14.42
12/25/2022 6:45:00 AM 0.02 32.036 0.124 7.11 6.27 14.42
12/25/2022 7:00:00 AM 0.03 32.054 0.124 7.11 6.6 14.41
12/25/2022 7:15:00 AM 0.03 32.054 0.124 7.11 5.91 14.42
12/25/2022 7:30:00 AM 0.02 32.036 0.124 7.11 6.47 14.42
12/25/2022 7:45:00 AM 0.02 32.036 0.125 7.11 6.21 14.42
12/25/2022 8:00:00 AM 0.03 32.054 0.125 7.11 5.93 14.42
12/25/2022 8:15:00 AM 0.03 32.054 0.125 7.11 6.6 14.42
12/25/2022 8:30:00 AM 0.04 32.072 0.125 7.11 6.05 14.42
12/25/2022 8:45:00 AM 0.05 32.09 0.125 7.02 5.96 14.43
12/25/2022 9:00:00 AM 0.05 32.09 0.125 7.08 6.06 14.43
12/25/2022 9:15:00 AM 0.05 32.09 0.125 7.12 5.93 14.43
12/25/2022 9:30:00 AM 0.07 32.126 0.125 7.12 6.31 14.43
12/25/2022 9:45:00 AM 0.07 32.126 0.125 7.12 5.89 14.42
12/25/2022 10:00:00 AM 0.07 32.126 0.125 7.12 6.53 14.43
12/25/2022 10:15:00 AM 0.09 32.162 0.125 7.11 9.29 14.42
12/25/2022 10:30:00 AM 0.1 32.18 0.125 7.12 8.04 14.42
12/25/2022 10:45:00 AM 0.11 32.198 0.125 7.12 6.82 14.42
12/25/2022 11:00:00 AM 0.13 32.234 0.125 7.12 7.07 14.43
12/25/2022 11:15:00 AM 0.13 32.234 0.124 7.12 7.27 14.41
12/25/2022 11:30:00 AM 0.12 32.216 0.124 7.12 6.73 14.41
12/25/2022 11:45:00 AM 0.16 32.288 0.124 7.11 6.88 14.41
12/25/2022 12:00:00 PM 0.17 32.306 0.124 7.12 6.48 14.4
12/25/2022 12:15:00 PM 0.12 32.216 0.123 7.12 7.16 14.41
12/25/2022 12:30:00 PM 0.08 32.144 0.123 7.12 8.08 14.41
12/25/2022 12:45:00 PM 0.11 32.198 0.122 7.11 10.83 14.4
12/25/2022 1:00:00 PM 0.11 32.198 0.122 7.12 19.5 14.41
12/25/2022 1:15:00 PM 0.07 32.126 0.122 7.12 14.99 14.41
12/25/2022 1:30:00 PM 0.07 32.126 0.121 7.12 14.66 14.42
12/25/2022 1:45:00 PM 0.06 32.108 0.121 7.11 11.51 14.42
12/25/2022 2:00:00 PM 0.09 32.162 0.121 7.11 11.6 14.42
12/25/2022 2:15:00 PM 0.1 32.18 0.121 7.12 10.42 14.43
12/25/2022 2:30:00 PM 0.1 32.18 0.121 7.11 11.46 14.43
12/25/2022 2:45:00 PM 0.07 32.126 0.121 7.02 12.74 14.43
12/25/2022 3:00:00 PM 0.07 32.126 0.121 7.12 11.57 14.44
12/25/2022 3:15:00 PM 0.07 32.126 0.121 7.11 10.36 14.44
12/25/2022 3:30:00 PM 0.06 32.108 0.121 7.03 10.19 14.44
12/25/2022 3:45:00 PM 0.06 32.108 0.121 7.11 8.74 14.44
12/25/2022 4:00:00 PM 0.05 32.09 0.121 7.11 8.73 14.45
12/25/2022 4:15:00 PM 0.05 32.09 0.121 7.11 8.88 14.45
12/25/2022 4:30:00 PM 0.04 32.072 0.121 7.1 9.49 14.45
12/25/2022 4:45:00 PM 0.03 32.054 0.122 7.06 8.99 14.45
12/25/2022 5:00:00 PM 0.02 32.036 0.122 7.1 8.6 14.45
12/25/2022 5:15:00 PM 0.02 32.036 0.122 7.11 9.9 14.45
12/25/2022 5:30:00 PM 0.02 32.036 0.122 7.03 9.71 14.45
12/25/2022 5:45:00 PM 0.02 32.036 0.122 7.11 9.5 14.45
12/25/2022 6:00:00 PM 0.03 32.054 0.122 7.1 8.26 14.45
12/25/2022 6:15:00 PM 0.03 32.054 0.122 7.11 8.19 14.45
12/25/2022 6:30:00 PM 0.02 32.036 0.122 7.08 7.75 14.46
12/25/2022 6:45:00 PM 0.02 32.036 0.123 7.1 7.88 14.45
12/25/2022 7:00:00 PM 0.01 32.018 0.123 7.1 7.02 14.45
12/25/2022 7:15:00 PM 0.02 32.036 0.123 7.1 7.22 14.45
12/25/2022 7:30:00 PM 0.02 32.036 0.123 7.1 7.05 14.45
12/25/2022 7:45:00 PM 0.02 32.036 0.123 7.11 7.05 14.45
12/25/2022 8:00:00 PM 0.01 32.018 0.123 7.02 6.68 14.45
12/25/2022 8:15:00 PM 0.02 32.036 0.124 7.11 6.65 14.45
12/25/2022 8:30:00 PM 0.03 32.054 0.124 7.11 6.6 14.45
12/25/2022 8:45:00 PM 0.03 32.054 0.124 7.11 6.77 14.45
12/25/2022 9:00:00 PM 0.04 32.072 0.124 7.1 6.81 14.45
12/25/2022 9:15:00 PM 0.05 32.09 0.124 7.03 5.96 14.44
12/25/2022 9:30:00 PM 0.04 32.072 0.124 7.11 6.74 14.44
12/25/2022 9:45:00 PM 0.02 32.036 0.124 7.11 6.35 14.45
12/25/2022 10:00:00 PM 0.02 32.036 0.124 7.1 6.57 14.46
12/25/2022 10:15:00 PM 0.02 32.036 0.125 7.1 6.43 14.45
12/25/2022 10:30:00 PM 0.04 32.072 0.125 7.1 6.9 14.46
12/25/2022 10:45:00 PM 0.05 32.09 0.125 7.06 6.32 14.45
12/25/2022 11:00:00 PM 0.04 32.072 0.125 7.11 6.6 14.45
12/25/2022 11:15:00 PM 0.03 32.054 0.125 7.1 7.02 14.44
12/25/2022 11:30:00 PM 0.03 32.054 0.125 7.1 6.56 14.45
12/25/2022 11:45:00 PM 0.03 32.054 0.125 7.1 6.28 14.46
12/26/2022 12:00:00 AM 0.03 32.054 0.126 7.1 6.23 14.46
12/26/2022 12:15:00 AM 0.03 32.054 0.126 7.1 5.94 14.46
12/26/2022 12:30:00 AM 0.02 32.036 0.126 7.1 6.11 14.45
12/26/2022 12:45:00 AM 0.02 32.036 0.126 7.1 6.38 14.46
12/26/2022 1:00:00 AM 0.02 32.036 0.126 7.1 5.47 14.45
12/26/2022 1:15:00 AM 0.02 32.036 0.127 7.1 6.14 14.47
12/26/2022 1:30:00 AM 0.02 32.036 0.127 7.1 5.81 14.46
12/26/2022 1:45:00 AM 0.02 32.036 0.127 7.09 5.81 14.46
12/26/2022 2:00:00 AM 0.02 32.036 0.127 7.1 5.88 14.45
12/26/2022 2:15:00 AM 0.01 32.018 0.127 7.1 5.69 14.46
12/26/2022 2:30:00 AM 0.01 32.018 0.128 7.1 6.02 14.47
12/26/2022 2:45:00 AM 0.01 32.018 0.128 7.1 5.4 14.47
12/26/2022 3:00:00 AM 0.01 32.018 0.128 7.1 5.16 14.47
12/26/2022 3:15:00 AM 0.01 32.018 0.128 7.1 5.29 14.47
12/26/2022 3:30:00 AM 0.01 32.018 0.128 7.1 5.23 14.47
12/26/2022 3:45:00 AM 0.01 32.018 0.129 7.02 5.31 14.47
12/26/2022 4:00:00 AM 0.01 32.018 0.129 7.11 5 14.47
12/26/2022 4:15:00 AM 0.01 32.018 0.129 7.1 5.3 14.48
12/26/2022 4:30:00 AM 0.01 32.018 0.129 7.1 4.9 14.47
12/26/2022 4:45:00 AM 0.01 32.018 0.129 7.1 4.69 14.48
12/26/2022 5:00:00 AM 0.01 32.018 0.13 7.1 5.27 14.47
12/26/2022 5:15:00 AM 0.02 32.036 0.13 7.1 4.88 14.47
12/26/2022 5:30:00 AM 0.01 32.018 0.13 7.1 5.22 14.48
12/26/2022 5:45:00 AM 0.01 32.018 0.13 7.1 4.91 14.48
12/26/2022 6:00:00 AM 0.01 32.018 0.131 7.1 4.84 14.48
12/26/2022 6:15:00 AM 0.02 32.036 0.131 7.1 4.76 14.48
12/26/2022 6:30:00 AM 0.02 32.036 0.131 7.1 4.91 14.48
12/26/2022 6:45:00 AM 0.02 32.036 0.131 7.1 4.75 14.48
12/26/2022 7:00:00 AM 0.02 32.036 0.132 7.1 4.61 14.48
12/26/2022 7:15:00 AM 0.02 32.036 0.132 7.1 4.65 14.49
12/26/2022 7:30:00 AM 0.02 32.036 0.132 7.1 4.71 14.48
12/26/2022 7:45:00 AM 0.02 32.036 0.132 7.1 4.66 14.49
12/26/2022 8:00:00 AM 0.03 32.054 0.132 7.1 4.61 14.49
12/26/2022 8:15:00 AM 0.04 32.072 0.133 7.02 5.11 14.49
12/26/2022 8:30:00 AM 0.06 32.108 0.133 7.07 4.44 14.49
12/26/2022 8:45:00 AM 0.1 32.18 0.133 7.11 4.89 14.49
12/26/2022 9:00:00 AM 0.12 32.216 0.133 7.11 4.33 14.49
12/26/2022 9:15:00 AM 0.14 32.252 0.133 7.11 4.6 14.49
12/26/2022 9:30:00 AM 0.16 32.288 0.133 7.11 4.78 14.48
12/26/2022 9:45:00 AM 0.16 32.288 0.133 7.12 4.9 14.48
12/26/2022 10:00:00 AM 0.2 32.36 0.133 7.11 4.82 14.48
12/26/2022 10:15:00 AM 0.21 32.378 0.133 7.08 4.79 14.47
12/26/2022 10:30:00 AM 0.23 32.414 0.133 7.12 4.92 14.48
12/26/2022 10:45:00 AM 0.24 32.432 0.133 7.12 4.76 14.47
12/26/2022 11:00:00 AM 0.25 32.45 0.133 7.12 4.56 14.47
12/26/2022 11:15:00 AM 0.27 32.486 0.133 7.12 4.49 14.47
12/26/2022 11:30:00 AM 0.29 32.522 0.133 7.12 4.93 14.47
12/26/2022 11:45:00 AM 0.33 32.594 0.132 7.13 5.72 14.47
12/26/2022 12:00:00 PM 0.33 32.594 0.131 7.05 6.59 14.46
12/26/2022 12:15:00 PM 0.31 32.558 0.131 7.13 7.14 14.45
12/26/2022 12:30:00 PM 0.3 32.54 0.13 7.13 7.46 14.46
12/26/2022 12:45:00 PM 0.28 32.504 0.13 7.13 7.44 14.46
12/26/2022 1:00:00 PM 0.29 32.522 0.129 7.13 8.16 14.46
12/26/2022 1:15:00 PM 0.31 32.558 0.129 7.13 7.18 14.46
12/26/2022 1:30:00 PM 0.31 32.558 0.128 7.04 7.14 14.46
12/26/2022 1:45:00 PM 0.3 32.54 0.128 7.13 8.48 14.47
12/26/2022 2:00:00 PM 0.31 32.558 0.127 7.13 7.68 14.47
12/26/2022 2:15:00 PM 0.29 32.522 0.127 7.13 7.67 14.47
12/26/2022 2:30:00 PM 0.27 32.486 0.127 7.13 7.14 14.47
12/26/2022 2:45:00 PM 0.25 32.45 0.127 7.12 7.73 14.48
12/26/2022 3:00:00 PM 0.23 32.414 0.127 7.12 7.08 14.48
12/26/2022 3:15:00 PM 0.21 32.378 0.127 7.12 6.88 14.48
12/26/2022 3:30:00 PM 0.19 32.342 0.127 7.12 6.53 14.48
12/26/2022 3:45:00 PM 0.19 32.342 0.127 7.12 6.5 14.49
12/26/2022 4:00:00 PM 0.17 32.306 0.127 7.12 6.76 14.49
12/26/2022 4:15:00 PM 0.16 32.288 0.127 7.12 6.26 14.49
12/26/2022 4:30:00 PM 0.14 32.252 0.128 7.11 6.43 14.49
12/26/2022 4:45:00 PM 0.13 32.234 0.128 7.11 5.8 14.49
12/26/2022 5:00:00 PM 0.13 32.234 0.128 7.12 6.12 14.49
12/26/2022 5:15:00 PM 0.12 32.216 0.128 7.11 6.16 14.48
12/26/2022 5:30:00 PM 0.12 32.216 0.128 7.11 5.94 14.48
12/26/2022 5:45:00 PM 0.12 32.216 0.129 7.11 5.84 14.48
12/26/2022 6:00:00 PM 0.13 32.234 0.129 7.11 5.54 14.48
12/26/2022 6:15:00 PM 0.14 32.252 0.129 7.11 5.28 14.47
12/26/2022 6:30:00 PM 0.14 32.252 0.129 7.11 5.42 14.47
12/26/2022 6:45:00 PM 0.14 32.252 0.129 7.11 5.91 14.47
12/26/2022 7:00:00 PM 0.14 32.252 0.129 7.11 5.23 14.47
12/26/2022 7:15:00 PM 0.13 32.234 0.129 7.12 5.17 14.47
12/26/2022 7:30:00 PM 0.13 32.234 0.129 7.12 5.62 14.47
12/26/2022 7:45:00 PM 0.13 32.234 0.13 7.11 5.54 14.47
12/26/2022 8:00:00 PM 0.14 32.252 0.13 7.12 5.73 14.47
12/26/2022 8:15:00 PM 0.14 32.252 0.13 7.11 5.64 14.47
12/26/2022 8:30:00 PM 0.13 32.234 0.13 7.12 5.54 14.46
12/26/2022 8:45:00 PM 0.12 32.216 0.13 7.11 5.62 14.47
12/26/2022 9:00:00 PM 0.11 32.198 0.13 7.11 5.35 14.47
12/26/2022 9:15:00 PM 0.11 32.198 0.13 7.12 5.44 14.47
12/26/2022 9:30:00 PM 0.1 32.18 0.13 7.11 5.34 14.47
12/26/2022 9:45:00 PM 0.1 32.18 0.13 7.11 5.36 14.48
12/26/2022 10:00:00 PM 0.1 32.18 0.13 7.12 5.28 14.48
12/26/2022 10:15:00 PM 0.11 32.198 0.13 7.11 4.98 14.48
12/26/2022 10:30:00 PM 0.12 32.216 0.13 7.11 5.1 14.48
12/26/2022 10:45:00 PM 0.12 32.216 0.13 7.11 4.82 14.47
12/26/2022 11:00:00 PM 0.13 32.234 0.13 7.12 4.81 14.47
12/26/2022 11:15:00 PM 0.14 32.252 0.13 7.12 5.26 14.47
12/26/2022 11:30:00 PM 0.15 32.27 0.13 7.12 4.87 14.46
12/26/2022 11:45:00 PM 0.16 32.288 0.13 7.12 4.78 14.46
12/27/2022 12:00:00 AM 0.16 32.288 0.131 7.12 4.5 14.45
12/27/2022 12:15:00 AM 0.16 32.288 0.131 7.12 4.86 14.45
12/27/2022 12:30:00 AM 0.16 32.288 0.131 7.12 4.92 14.45
12/27/2022 12:45:00 AM 0.17 32.306 0.131 7.12 4.62 14.45
12/27/2022 1:00:00 AM 0.17 32.306 0.131 7.12 5.45 14.45
12/27/2022 1:15:00 AM 0.17 32.306 0.131 7.12 4.91 14.44
12/27/2022 1:30:00 AM 0.17 32.306 0.131 7.12 4.46 14.44
12/27/2022 1:45:00 AM 0.17 32.306 0.131 7.12 4.91 14.44
12/27/2022 2:00:00 AM 0.18 32.324 0.131 7.13 4.73 14.44
12/27/2022 2:15:00 AM 0.18 32.324 0.131 7.13 4.8 14.44
12/27/2022 2:30:00 AM 0.18 32.324 0.131 7.12 4.81 14.44
12/27/2022 2:45:00 AM 0.18 32.324 0.131 7.12 4.54 14.44
12/27/2022 3:00:00 AM 0.18 32.324 0.131 7.12 4.69 14.44
12/27/2022 3:15:00 AM 0.18 32.324 0.131 7.12 4.82 14.44
12/27/2022 3:30:00 AM 0.17 32.306 0.131 7.13 4.63 14.43
12/27/2022 3:45:00 AM 0.18 32.324 0.131 7.13 4.59 14.43
12/27/2022 4:00:00 AM 0.18 32.324 0.132 7.13 4.66 14.44
12/27/2022 4:15:00 AM 0.18 32.324 0.132 7.12 4.58 14.44
12/27/2022 4:30:00 AM 0.18 32.324 0.132 7.12 4.39 14.44
12/27/2022 4:45:00 AM 0.18 32.324 0.132 7.08 4.81 14.44
12/27/2022 5:00:00 AM 0.18 32.324 0.132 7.13 4.3 14.44
12/27/2022 5:15:00 AM 0.18 32.324 0.132 7.13 4.56 14.44
12/27/2022 5:30:00 AM 0.18 32.324 0.132 7.12 4.61 14.44
12/27/2022 5:45:00 AM 0.19 32.342 0.132 7.13 4.19 14.44
12/27/2022 6:00:00 AM 0.19 32.342 0.132 7.13 4.25 14.44
12/27/2022 6:15:00 AM 0.19 32.342 0.132 7.13 4.3 14.44
12/27/2022 6:30:00 AM 0.19 32.342 0.132 7.13 4.12 14.44
12/27/2022 6:45:00 AM 0.19 32.342 0.132 7.13 4.45 14.44
12/27/2022 7:00:00 AM 0.19 32.342 0.132 7.13 4.05 14.44
12/27/2022 7:15:00 AM 0.19 32.342 0.132 7.13 4.01 14.44
12/27/2022 7:30:00 AM 0.2 32.36 0.132 7.13 4.87 14.44
12/27/2022 7:45:00 AM 0.2 32.36 0.133 7.13 4.21 14.44
12/27/2022 8:00:00 AM 0.21 32.378 0.133 7.13 3.88 14.45
12/27/2022 8:15:00 AM 0.21 32.378 0.133 7.13 4.04 14.45
12/27/2022 8:30:00 AM 0.22 32.396 0.133 7.13 3.94 14.44
12/27/2022 8:45:00 AM 0.23 32.414 0.133 7.13 3.98 14.45
12/27/2022 9:00:00 AM 0.24 32.432 0.133 7.13 3.83 14.45
12/27/2022 9:15:00 AM 0.25 32.45 0.133 7.12 4.22 14.45
12/27/2022 9:30:00 AM 0.27 32.486 0.133 7.14 3.99 14.46
12/27/2022 9:45:00 AM 0.29 32.522 0.133 7.13 4.18 14.45
12/27/2022 10:00:00 AM 0.31 32.558 0.133 7.14 3.82 14.46
12/27/2022 10:15:00 AM 0.32 32.576 0.133 7.14 3.85 14.46
12/27/2022 10:30:00 AM 0.34 32.612 0.133 7.14 3.84 14.45
12/27/2022 10:45:00 AM 0.35 32.63 0.133 7.14 3.88 14.45
12/27/2022 11:00:00 AM 0.36 32.648 0.133 7.14 3.99 14.45
12/27/2022 11:15:00 AM 0.37 32.666 0.133 7.14 3.82 14.45
12/27/2022 11:30:00 AM 0.37 32.666 0.133 7.15 3.83 14.45
12/27/2022 11:45:00 AM 0.39 32.702 0.133 7.14 3.84 14.45
12/27/2022 12:00:00 PM 0.4 32.72 0.133 7.15 4 14.45
12/27/2022 12:15:00 PM 0.41 32.738 0.132 7.15 3.82 14.45
12/27/2022 12:30:00 PM 0.42 32.756 0.132 7.15 4.36 14.44
12/27/2022 12:45:00 PM 0.43 32.774 0.132 7.15 4.25 14.44
12/27/2022 1:00:00 PM 0.43 32.774 0.133 7.15 4.2 14.44
12/27/2022 1:15:00 PM 0.42 32.756 0.132 7.15 3.86 14.44
12/27/2022 1:30:00 PM 0.41 32.738 0.132 7.15 4 14.44
12/27/2022 1:45:00 PM 0.41 32.738 0.132 7.1 4.2 14.44
12/27/2022 2:00:00 PM 0.4 32.72 0.132 7.15 3.99 14.44
12/27/2022 2:15:00 PM 0.39 32.702 0.132 7.15 3.81 14.44
12/27/2022 2:30:00 PM 0.4 32.72 0.132 7.15 3.95 14.44
12/27/2022 2:45:00 PM 0.4 32.72 0.132 7.15 4.29 14.44
12/27/2022 3:00:00 PM 0.4 32.72 0.132 7.15 4.28 14.44
12/27/2022 3:15:00 PM 0.4 32.72 0.132 7.15 3.91 14.44
12/27/2022 3:30:00 PM 0.41 32.738 0.132 7.15 4.11 14.44
12/27/2022 3:45:00 PM 0.4 32.72 0.132 7.15 4.16 14.43
12/27/2022 4:00:00 PM 0.4 32.72 0.132 7.15 4 14.43
12/27/2022 4:15:00 PM 0.38 32.684 0.132 7.14 3.81 14.43
12/27/2022 4:30:00 PM 0.37 32.666 0.132 7.15 4.33 14.43
12/27/2022 4:45:00 PM 0.36 32.648 0.132 7.14 4.02 14.43
12/27/2022 5:00:00 PM 0.34 32.612 0.132 7.14 4.06 14.42
12/27/2022 5:15:00 PM 0.33 32.594 0.132 7.14 4.19 14.42
12/27/2022 5:30:00 PM 0.32 32.576 0.132 7.14 4.38 14.42
12/27/2022 5:45:00 PM 0.31 32.558 0.132 7.14 4.45 14.42
12/27/2022 6:00:00 PM 0.29 32.522 0.132 7.14 4.33 14.43
12/27/2022 6:15:00 PM 0.29 32.522 0.132 7.14 4.18 14.42
12/27/2022 6:30:00 PM 0.29 32.522 0.132 7.14 3.9 14.43
12/27/2022 6:45:00 PM 0.29 32.522 0.132 7.13 4.07 14.42
12/27/2022 7:00:00 PM 0.29 32.522 0.133 7.14 4.09 14.42
12/27/2022 7:15:00 PM 0.28 32.504 0.133 7.14 3.97 14.42
12/27/2022 7:30:00 PM 0.27 32.486 0.133 7.13 4.03 14.42
12/27/2022 7:45:00 PM 0.26 32.468 0.133 7.13 4.11 14.42
12/27/2022 8:00:00 PM 0.25 32.45 0.133 7.14 4.14 14.42
12/27/2022 8:15:00 PM 0.25 32.45 0.133 7.13 4.02 14.43
12/27/2022 8:30:00 PM 0.25 32.45 0.133 7.13 4.37 14.43
12/27/2022 8:45:00 PM 0.24 32.432 0.133 7.13 4.13 14.42
12/27/2022 9:00:00 PM 0.24 32.432 0.133 7.13 3.84 14.43
12/27/2022 9:15:00 PM 0.24 32.432 0.133 7.13 4.06 14.42
12/27/2022 9:30:00 PM 0.25 32.45 0.133 7.14 3.88 14.42
12/27/2022 9:45:00 PM 0.27 32.486 0.133 7.13 3.95 14.42
12/27/2022 10:00:00 PM 0.28 32.504 0.133 7.14 4.34 14.42
12/27/2022 10:15:00 PM 0.29 32.522 0.133 7.14 3.67 14.41
12/27/2022 10:30:00 PM 0.3 32.54 0.133 7.14 3.56 14.41
12/27/2022 10:45:00 PM 0.31 32.558 0.133 7.14 3.88 14.41
12/27/2022 11:00:00 PM 0.32 32.576 0.133 7.14 3.86 14.4
12/27/2022 11:15:00 PM 0.33 32.594 0.133 7.14 4.14 14.4
12/27/2022 11:30:00 PM 0.33 32.594 0.133 7.14 3.43 14.4
12/27/2022 11:45:00 PM 0.31 32.558 0.134 7.14 3.8 14.4
12/28/2022 12:00:00 AM 0.3 32.54 0.134 7.14 4.17 14.4
12/28/2022 12:15:00 AM 0.3 32.54 0.134 7.14 3.84 14.4
12/28/2022 12:30:00 AM 0.3 32.54 0.134 7.14 3.76 14.39
12/28/2022 12:45:00 AM 0.31 32.558 0.134 7.14 3.72 14.4
12/28/2022 1:00:00 AM 0.32 32.576 0.134 7.14 4.18 14.39
12/28/2022 1:15:00 AM 0.33 32.594 0.134 7.14 3.99 14.39
12/28/2022 1:30:00 AM 0.33 32.594 0.134 7.14 3.9 14.39
12/28/2022 1:45:00 AM 0.34 32.612 0.134 7.14 3.75 14.38
12/28/2022 2:00:00 AM 0.34 32.612 0.134 7.14 4.04 14.37
12/28/2022 2:15:00 AM 0.35 32.63 0.134 7.14 3.78 14.38
12/28/2022 2:30:00 AM 0.36 32.648 0.134 7.14 4.04 14.38
12/28/2022 2:45:00 AM 0.37 32.666 0.134 7.15 3.63 14.37
12/28/2022 3:00:00 AM 0.37 32.666 0.134 7.15 3.7 14.37
12/28/2022 3:15:00 AM 0.38 32.684 0.134 7.15 3.89 14.37
12/28/2022 3:30:00 AM 0.39 32.702 0.134 7.15 3.44 14.36
12/28/2022 3:45:00 AM 0.39 32.702 0.134 7.15 3.65 14.36
12/28/2022 4:00:00 AM 0.4 32.72 0.134 7.15 3.71 14.36
12/28/2022 4:15:00 AM 0.41 32.738 0.134 7.15 3.67 14.35
12/28/2022 4:30:00 AM 0.41 32.738 0.134 7.15 3.74 14.35
12/28/2022 4:45:00 AM 0.4 32.72 0.134 7.15 3.45 14.35
12/28/2022 5:00:00 AM 0.38 32.684 0.134 7.15 3.82 14.35
12/28/2022 5:15:00 AM 0.37 32.666 0.134 7.15 3.86 14.35
12/28/2022 5:30:00 AM 0.36 32.648 0.134 7.14 3.73 14.35
12/28/2022 5:45:00 AM 0.35 32.63 0.134 7.14 3.55 14.36
12/28/2022 6:00:00 AM 0.34 32.612 0.134 7.14 3.83 14.36
12/28/2022 6:15:00 AM 0.34 32.612 0.134 7.14 3.53 14.36
12/28/2022 6:30:00 AM 0.34 32.612 0.135 7.15 3.78 14.36
12/28/2022 6:45:00 AM 0.34 32.612 0.135 7.15 3.65 14.36
12/28/2022 7:00:00 AM 0.33 32.594 0.135 7.14 3.78 14.36
12/28/2022 7:15:00 AM 0.32 32.576 0.135 7.14 3.87 14.37
12/28/2022 7:30:00 AM 0.31 32.558 0.135 7.15 3.47 14.37
12/28/2022 7:45:00 AM 0.31 32.558 0.135 7.14 3.66 14.37
12/28/2022 8:00:00 AM 0.31 32.558 0.135 7.14 3.74 14.38
12/28/2022 8:15:00 AM 0.33 32.594 0.135 7.15 3.4 14.38
12/28/2022 8:30:00 AM 0.36 32.648 0.135 7.15 3.47 14.39
12/28/2022 8:45:00 AM 0.4 32.72 0.135 7.15 3.47 14.38
12/28/2022 9:00:00 AM 0.44 32.792 0.135 7.15 3.62 14.38
12/28/2022 9:15:00 AM 0.52 32.936 0.135 7.16 3.25 14.37
12/28/2022 9:30:00 AM 0.6 33.08 0.135 7.16 3.58 14.35
12/28/2022 9:45:00 AM 0.65 33.17 0.135 7.17 3.39 14.34
12/28/2022 10:00:00 AM 0.72 33.296 0.135 7.17 3.29 14.32
12/28/2022 10:15:00 AM 0.81 33.458 0.135 7.17 3.43 14.3
12/28/2022 10:30:00 AM 0.88 33.584 0.135 7.17 3.31 14.28
12/28/2022 10:45:00 AM 0.92 33.656 0.135 7.17 3.42 14.26
12/28/2022 11:00:00 AM 0.96 33.728 0.135 7.17 3.32 14.25
12/28/2022 11:15:00 AM 1.02 33.836 0.134 7.18 3.3 14.24
12/28/2022 11:30:00 AM 1.1 33.98 0.135 7.18 3.36 14.21
12/28/2022 11:45:00 AM 1.2 34.16 0.134 7.18 3.6 14.18
12/28/2022 12:00:00 PM 1.27 34.286 0.134 7.18 3.33 14.14
12/28/2022 12:15:00 PM 1.34 34.412 0.134 7.18 3.41 14.11
12/28/2022 12:30:00 PM 1.39 34.502 0.134 7.19 3.44 14.09
12/28/2022 12:45:00 PM 1.46 34.628 0.134 7.18 3.5 14.07
12/28/2022 1:00:00 PM 1.51 34.718 0.134 7.18 3.31 14.04
12/28/2022 1:15:00 PM 1.56 34.808 0.134 7.18 3.23 14.02
12/28/2022 1:30:00 PM 1.6 34.88 0.134 7.19 3.52 14
12/28/2022 1:45:00 PM 1.63 34.934 0.134 7.15 3.29 13.98
12/28/2022 2:00:00 PM 1.67 35.006 0.134 7.19 3.37 13.96
12/28/2022 2:15:00 PM 1.73 35.114 0.134 7.19 3.5 13.95
12/28/2022 2:30:00 PM 1.76 35.168 0.133 7.19 3.75 13.92
12/28/2022 2:45:00 PM 1.77 35.186 0.134 7.19 3.29 13.91
12/28/2022 3:00:00 PM 1.77 35.186 0.133 7.19 3.46 13.9
12/28/2022 3:15:00 PM 1.78 35.204 0.133 7.19 3.49 13.9
12/28/2022 3:30:00 PM 1.77 35.186 0.133 7.15 3.35 13.89
12/28/2022 3:45:00 PM 1.74 35.132 0.133 7.15 3.37 13.89
12/28/2022 4:00:00 PM 1.7 35.06 0.133 7.19 3.4 13.89
12/28/2022 4:15:00 PM 1.68 35.024 0.133 7.19 3.58 13.88
12/28/2022 4:30:00 PM 1.65 34.97 0.134 7.19 3.42 13.88
12/28/2022 4:45:00 PM 1.61 34.898 0.134 7.19 4.14 13.88
12/28/2022 5:00:00 PM 1.57 34.826 0.134 7.19 3.97 13.88
12/28/2022 5:15:00 PM 1.53 34.754 0.134 7.18 3.81 13.88
12/28/2022 5:30:00 PM 1.5 34.7 0.134 7.18 3.75 13.89
12/28/2022 5:45:00 PM 1.48 34.664 0.134 7.18 3.72 13.9
12/28/2022 6:00:00 PM 1.46 34.628 0.134 7.18 3.84 13.9
12/28/2022 6:15:00 PM 1.44 34.592 0.134 7.18 3.78 13.9
12/28/2022 6:30:00 PM 1.43 34.574 0.134 7.17 3.78 13.91
12/28/2022 6:45:00 PM 1.42 34.556 0.134 7.17 4.04 13.91
12/28/2022 7:00:00 PM 1.41 34.538 0.134 7.17 3.76 13.91
12/28/2022 7:15:00 PM 1.4 34.52 0.134 7.17 3.75 13.92
12/28/2022 7:30:00 PM 1.39 34.502 0.134 7.17 4.19 13.93
12/28/2022 7:45:00 PM 1.38 34.484 0.134 7.16 3.87 13.93
12/28/2022 8:00:00 PM 1.36 34.448 0.134 7.16 3.83 13.94
12/28/2022 8:15:00 PM 1.34 34.412 0.134 7.16 3.86 13.95
12/28/2022 8:30:00 PM 1.32 34.376 0.134 7.16 4.3 13.96
12/28/2022 8:45:00 PM 1.3 34.34 0.134 7.16 4.15 13.96
12/28/2022 9:00:00 PM 1.27 34.286 0.134 7.15 4.43 13.97
12/28/2022 9:15:00 PM 1.25 34.25 0.134 7.15 4.42 13.98
12/28/2022 9:30:00 PM 1.23 34.214 0.134 7.15 4.22 13.99
12/28/2022 9:45:00 PM 1.21 34.178 0.134 7.15 4.24 14
12/28/2022 10:00:00 PM 1.18 34.124 0.134 7.15 4.17 14.01
12/28/2022 10:15:00 PM 1.16 34.088 0.134 7.15 4.48 14.02
12/28/2022 10:30:00 PM 1.14 34.052 0.135 7.1 4.89 14.03
12/28/2022 10:45:00 PM 1.12 34.016 0.135 7.15 4.66 14.03
12/28/2022 11:00:00 PM 1.09 33.962 0.135 7.14 3.87 14.05
12/28/2022 11:15:00 PM 1.07 33.926 0.135 7.14 4.09 14.05
12/28/2022 11:30:00 PM 1.05 33.89 0.135 7.14 4.15 14.06
12/28/2022 11:45:00 PM 1.03 33.854 0.135 7.14 3.53 14.07
12/29/2022 12:00:00 AM 1.01 33.818 0.135 7.14 3.82 14.08
12/29/2022 12:15:00 AM 0.99 33.782 0.135 7.14 3.98 14.08
12/29/2022 12:30:00 AM 0.97 33.746 0.135 7.13 4.01 14.08
12/29/2022 12:45:00 AM 0.96 33.728 0.135 7.13 3.9 14.1
12/29/2022 1:00:00 AM 0.94 33.692 0.135 7.14 4.02 14.1
12/29/2022 1:15:00 AM 0.92 33.656 0.135 7.14 4.14 14.11
12/29/2022 1:30:00 AM 0.91 33.638 0.135 7.13 3.64 14.11
12/29/2022 1:45:00 AM 0.88 33.584 0.135 7.13 3.71 14.12
12/29/2022 2:00:00 AM 0.87 33.566 0.135 7.09 3.94 14.13
12/29/2022 2:15:00 AM 0.85 33.53 0.135 7.14 3.74 14.13
12/29/2022 2:30:00 AM 0.83 33.494 0.135 7.13 3.92 14.14
12/29/2022 2:45:00 AM 0.81 33.458 0.135 7.13 4.03 14.15
12/29/2022 3:00:00 AM 0.8 33.44 0.135 7.13 3.73 14.15
12/29/2022 3:15:00 AM 0.78 33.404 0.135 7.13 3.78 14.16
12/29/2022 3:30:00 AM 0.77 33.386 0.135 7.13 3.63 14.17
12/29/2022 3:45:00 AM 0.75 33.35 0.136 7.13 3.75 14.18
12/29/2022 4:00:00 AM 0.73 33.314 0.136 7.13 3.86 14.18
12/29/2022 4:15:00 AM 0.71 33.278 0.136 7.13 3.54 14.19
12/29/2022 4:30:00 AM 0.7 33.26 0.136 7.13 3.69 14.2
12/29/2022 4:45:00 AM 0.68 33.224 0.136 7.13 3.73 14.21
12/29/2022 5:00:00 AM 0.66 33.188 0.136 7.13 3.78 14.21
12/29/2022 5:15:00 AM 0.64 33.152 0.136 7.13 3.83 14.22
12/29/2022 5:30:00 AM 0.62 33.116 0.136 7.12 3.79 14.23
12/29/2022 5:45:00 AM 0.6 33.08 0.136 7.05 4.04 14.24
12/29/2022 6:00:00 AM 0.58 33.044 0.136 7.13 3.76 14.25
12/29/2022 6:15:00 AM 0.56 33.008 0.136 7.12 3.82 14.26
12/29/2022 6:30:00 AM 0.54 32.972 0.136 7.12 3.46 14.27
12/29/2022 6:45:00 AM 0.52 32.936 0.136 7.12 3.72 14.28
12/29/2022 7:00:00 AM 0.5 32.9 0.136 7.13 3.9 14.29
12/29/2022 7:15:00 AM 0.49 32.882 0.136 7.12 3.5 14.29
12/29/2022 7:30:00 AM 0.47 32.846 0.136 7.12 3.74 14.3
12/29/2022 7:45:00 AM 0.45 32.81 0.136 7.12 3.82 14.31
12/29/2022 8:00:00 AM 0.44 32.792 0.136 7.13 3.5 14.32
12/29/2022 8:15:00 AM 0.43 32.774 0.136 7.12 3.45 14.32
12/29/2022 8:30:00 AM 0.42 32.756 0.136 7.13 3.33 14.34
12/29/2022 8:45:00 AM 0.41 32.738 0.137 7.13 3.53 14.35
12/29/2022 9:00:00 AM 0.42 32.756 0.137 7.13 3.58 14.36
12/29/2022 9:15:00 AM 0.43 32.774 0.137 7.13 3.27 14.37
12/29/2022 9:30:00 AM 0.46 32.828 0.137 7.13 3.39 14.37
12/29/2022 9:45:00 AM 0.51 32.918 0.137 7.13 3.51 14.37
12/29/2022 10:00:00 AM 0.58 33.044 0.137 7.14 3.65 14.36
12/29/2022 10:15:00 AM 0.65 33.17 0.137 7.13 3.52 14.35
12/29/2022 10:30:00 AM 0.73 33.314 0.137 7.14 3.54 14.33
12/29/2022 10:45:00 AM 0.82 33.476 0.137 7.14 3.28 14.32
12/29/2022 11:00:00 AM 0.91 33.638 0.137 7.14 3.35 14.3
12/29/2022 11:15:00 AM 1.02 33.836 0.137 7.14 3.57 14.27
12/29/2022 11:30:00 AM 1.13 34.034 0.137 7.15 3.3 14.25
12/29/2022 11:45:00 AM 1.24 34.232 0.137 7.15 3.31 14.21
12/29/2022 12:00:00 PM 1.36 34.448 0.137 7.15 3.41 14.17
12/29/2022 12:15:00 PM 1.49 34.682 0.137 7.1 3.26 14.13
12/29/2022 12:30:00 PM 1.63 34.934 0.136 7.16 3.23 14.08
12/29/2022 12:45:00 PM 1.77 35.186 0.136 7.17 3.5 14.04
12/29/2022 1:00:00 PM 1.91 35.438 0.136 7.16 3.37 13.98
12/29/2022 1:15:00 PM 2.05 35.69 0.136 7.2 3.49 13.92
12/29/2022 1:30:00 PM 2.18 35.924 0.136 7.19 3.26 13.87
12/29/2022 1:45:00 PM 2.29 36.122 0.136 7.19 3.15 13.82
12/29/2022 2:00:00 PM 2.39 36.302 0.136 7.2 3.34 13.78
12/29/2022 2:15:00 PM 2.46 36.428 0.136 7.21 3.26 13.74
12/29/2022 2:30:00 PM 2.52 36.536 0.136 7.21 3.34 13.69
12/29/2022 2:45:00 PM 2.53 36.554 0.136 7.21 3.22 13.68
12/29/2022 3:00:00 PM 2.53 36.554 0.136 7.21 3.73 13.65
12/29/2022 3:15:00 PM 2.53 36.554 0.136 7.21 3.68 13.65
12/29/2022 3:30:00 PM 2.5 36.5 0.136 7.21 3.92 13.63
12/29/2022 3:45:00 PM 2.46 36.428 0.136 7.18 4.26 13.64
12/29/2022 4:00:00 PM 2.39 36.302 0.136 7.21 4.92 13.64
12/29/2022 4:15:00 PM 2.32 36.176 0.136 7.17 4.71 13.62
12/29/2022 4:30:00 PM 2.31 36.158 0.136 7.21 5.13 13.63
12/29/2022 4:45:00 PM 2.26 36.068 0.136 7.21 5.2 13.64
12/29/2022 5:00:00 PM 2.21 35.978 0.136 7.21 5.5 13.64
12/29/2022 5:15:00 PM 2.17 35.906 0.136 7.2 6.71 13.65
12/29/2022 5:30:00 PM 2.13 35.834 0.135 7.2 5.78 13.66
12/29/2022 5:45:00 PM 2.08 35.744 0.135 7.19 5.82 13.67
12/29/2022 6:00:00 PM 2.04 35.672 0.135 7.19 7.32 13.68
12/29/2022 6:15:00 PM 2 35.6 0.135 7.19 7.6 13.69
12/29/2022 6:30:00 PM 1.96 35.528 0.135 7.14 6.68 13.71
12/29/2022 6:45:00 PM 1.93 35.474 0.135 7.19 6.62 13.72
12/29/2022 7:00:00 PM 1.91 35.438 0.135 7.18 7.78 13.74
12/29/2022 7:15:00 PM 1.88 35.384 0.135 7.18 6.54 13.75
12/29/2022 7:30:00 PM 1.85 35.33 0.135 7.18 6.99 13.76
12/29/2022 7:45:00 PM 1.82 35.276 0.135 7.08 8.1 13.77
12/29/2022 8:00:00 PM 1.8 35.24 0.135 7.13 8.85 13.79
12/29/2022 8:15:00 PM 1.77 35.186 0.134 7.17 8.9 13.8
12/29/2022 8:30:00 PM 1.76 35.168 0.134 7.17 9.53 13.81
12/29/2022 8:45:00 PM 1.77 35.186 0.134 7.16 9.8 13.82
12/29/2022 9:00:00 PM 1.77 35.186 0.134 7.16 9.92 13.83
12/29/2022 9:15:00 PM 1.77 35.186 0.134 7.16 10.13 13.83
12/29/2022 9:30:00 PM 1.77 35.186 0.134 7.07 9.06 13.84
12/29/2022 9:45:00 PM 1.77 35.186 0.134 7.16 9.39 13.85
12/29/2022 10:00:00 PM 1.77 35.186 0.134 7.16 9.56 13.85
12/29/2022 10:15:00 PM 1.77 35.186 0.134 7.16 9.5 13.85
12/29/2022 10:30:00 PM 1.76 35.168 0.134 7.16 9.76 13.86
12/29/2022 10:45:00 PM 1.76 35.168 0.134 7.15 8.07 13.86
12/29/2022 11:00:00 PM 1.77 35.186 0.134 7.16 8.28 13.86
12/29/2022 11:15:00 PM 1.77 35.186 0.134 7.15 8.15 13.85
12/29/2022 11:30:00 PM 1.78 35.204 0.134 7.15 7.16 13.86
12/29/2022 11:45:00 PM 1.79 35.222 0.134 7.15 6.94 13.85
12/30/2022 12:00:00 AM 1.8 35.24 0.134 7.15 7.36 13.85
12/30/2022 12:15:00 AM 1.81 35.258 0.134 7.15 6.4 13.84
12/30/2022 12:30:00 AM 1.83 35.294 0.134 7.15 6.52 13.83
12/30/2022 12:45:00 AM 1.85 35.33 0.134 7.15 6.19 13.83
12/30/2022 1:00:00 AM 1.86 35.348 0.134 7.15 6.49 13.82
12/30/2022 1:15:00 AM 1.88 35.384 0.134 7.15 7.15 13.82
12/30/2022 1:30:00 AM 1.89 35.402 0.134 7.15 6.54 13.8
12/30/2022 1:45:00 AM 1.91 35.438 0.134 7.15 7.54 13.79
12/30/2022 2:00:00 AM 1.92 35.456 0.134 7.15 6.44 13.79
12/30/2022 2:15:00 AM 1.93 35.474 0.134 7.15 6.42 13.78
12/30/2022 2:30:00 AM 1.94 35.492 0.133 7.15 6.68 13.78
12/30/2022 2:45:00 AM 1.94 35.492 0.133 7.15 6.76 13.78
12/30/2022 3:00:00 AM 1.93 35.474 0.133 7.16 7.04 13.78
12/30/2022 3:15:00 AM 1.9 35.42 0.133 7.16 6.53 13.78
12/30/2022 3:30:00 AM 1.88 35.384 0.133 7.15 6.69 13.79
12/30/2022 3:45:00 AM 1.85 35.33 0.133 7.15 7.65 13.8
12/30/2022 4:00:00 AM 1.83 35.294 0.133 7.15 6.48 13.81
12/30/2022 4:15:00 AM 1.81 35.258 0.133 7.15 7.73 13.82
12/30/2022 4:30:00 AM 1.78 35.204 0.133 7.15 7.05 13.82
12/30/2022 4:45:00 AM 1.77 35.186 0.132 7.15 8 13.83
12/30/2022 5:00:00 AM 1.77 35.186 0.132 7.15 8.2 13.84
12/30/2022 5:15:00 AM 1.76 35.168 0.132 7.15 7.7 13.85
12/30/2022 5:30:00 AM 1.74 35.132 0.132 7.07 7.77 13.86
12/30/2022 5:45:00 AM 1.72 35.096 0.132 7.16 8 13.87
12/30/2022 6:00:00 AM 1.69 35.042 0.131 7.15 8.19 13.88
12/30/2022 6:15:00 AM 1.67 35.006 0.131 7.15 8.25 13.89
12/30/2022 6:30:00 AM 1.67 35.006 0.131 7.15 8.04 13.9
12/30/2022 6:45:00 AM 1.66 34.988 0.131 7.15 7.86 13.9
12/30/2022 7:00:00 AM 1.65 34.97 0.13 7.15 7.52 13.91
12/30/2022 7:15:00 AM 1.64 34.952 0.13 7.15 8.26 13.92
12/30/2022 7:30:00 AM 1.63 34.934 0.13 7.15 8.16 13.92
12/30/2022 7:45:00 AM 1.63 34.934 0.13 7.15 8.04 13.93
12/30/2022 8:00:00 AM 1.63 34.934 0.13 7.15 8.97 13.93
12/30/2022 8:15:00 AM 1.63 34.934 0.129 7.15 8.16 13.94
12/30/2022 8:30:00 AM 1.63 34.934 0.129 7.15 8.78 13.95
12/30/2022 8:45:00 AM 1.65 34.97 0.129 7.15 8.48 13.96
12/30/2022 9:00:00 AM 1.67 35.006 0.129 7.15 8.38 13.96
12/30/2022 9:15:00 AM 1.69 35.042 0.129 7.15 8.32 13.97
12/30/2022 9:30:00 AM 1.73 35.114 0.129 7.15 8.75 13.97
12/30/2022 9:45:00 AM 1.79 35.222 0.129 7.15 8.42 13.96
12/30/2022 10:00:00 AM 1.83 35.294 0.128 7.15 8.58 13.96
12/30/2022 10:15:00 AM 1.86 35.348 0.128 7.16 8.85 13.95
12/30/2022 10:30:00 AM 1.9 35.42 0.128 7.16 8.83 13.94
12/30/2022 10:45:00 AM 1.93 35.474 0.128 7.11 9.03 13.93
12/30/2022 11:00:00 AM 1.96 35.528 0.127 7.17 9.27 13.92
12/30/2022 11:15:00 AM 2 35.6 0.127 7.16 9.39 13.91
12/30/2022 11:30:00 AM 2.03 35.654 0.127 7.17 9.19 13.9
12/30/2022 11:45:00 AM 2.05 35.69 0.126 7.17 9.72 13.89
12/30/2022 12:00:00 PM 2.06 35.708 0.126 7.17 8.86 13.88
12/30/2022 12:15:00 PM 2.07 35.726 0.126 7.17 9.88 13.87
12/30/2022 12:30:00 PM 2.08 35.744 0.125 7.17 9.3 13.87
12/30/2022 12:45:00 PM 2.07 35.726 0.125 7.17 10.33 13.87
12/30/2022 1:00:00 PM 2.06 35.708 0.124 7.18 11.89 13.86
12/30/2022 1:15:00 PM 2.09 35.762 0.124 7.11 12.05 13.86
12/30/2022 1:30:00 PM 2.13 35.834 0.123 7.18 13.31 13.86
12/30/2022 1:45:00 PM 2.15 35.87 0.123 7.18 14.82 13.86
12/30/2022 2:00:00 PM 2.23 36.014 0.122 7.19 15.14 13.84
12/30/2022 2:15:00 PM 2.27 36.086 0.121 7.2 18.55 13.84
12/30/2022 2:30:00 PM 2.24 36.032 0.12 7.2 19.31 13.83
12/30/2022 2:45:00 PM 2.17 35.906 0.12 7.2 22.6 13.83
12/30/2022 3:00:00 PM 2.07 35.726 0.119 7.2 41.95 13.84
12/30/2022 3:15:00 PM 1.95 35.51 0.118 7.2 25.5 13.87
12/30/2022 3:30:00 PM 1.82 35.276 0.117 7.19 35.5 13.91
12/30/2022 3:45:00 PM 1.7 35.06 0.117 7.18 36.07 13.93
12/30/2022 4:00:00 PM 1.59 34.862 0.116 7.17 40.03 13.98
12/30/2022 4:15:00 PM 1.47 34.646 0.115 7.15 42.55 14.01
12/30/2022 4:30:00 PM 1.38 34.484 0.114 7.14 40.11 14.04
12/30/2022 4:45:00 PM 1.28 34.304 0.113 7.06 49.21 14.08
12/30/2022 5:00:00 PM 1.21 34.178 0.113 7.14 52.2 14.12
12/30/2022 5:15:00 PM 1.15 34.07 0.112 7.14 50.47 14.14
12/30/2022 5:30:00 PM 1.1 33.98 0.111 7.14 54.66 14.17
12/30/2022 5:45:00 PM 1.06 33.908 0.11 7.12 54.09 14.19
12/30/2022 6:00:00 PM 1.03 33.854 0.109 7.13 53.1 14.2
12/30/2022 6:15:00 PM 1.01 33.818 0.108 7.13 51.27 14.23
12/30/2022 6:30:00 PM 1 33.8 0.107 7.04 50.76 14.24
12/30/2022 6:45:00 PM 0.99 33.782 0.106 7.12 54.82 14.25
12/30/2022 7:00:00 PM 0.98 33.764 0.106 7.06 52.37 14.26
12/30/2022 7:15:00 PM 0.99 33.782 0.105 7.11 57.4 14.26
12/30/2022 7:30:00 PM 0.99 33.782 0.105 7.11 51.33 14.27
12/30/2022 7:45:00 PM 1 33.8 0.104 7.11 35.88 14.27
12/30/2022 8:00:00 PM 1.01 33.818 0.104 7.04 47.46 14.27
12/30/2022 8:15:00 PM 1.02 33.836 0.104 7.12 47.36 14.27
12/30/2022 8:30:00 PM 1.04 33.872 0.103 7.11 50.27 14.27
12/30/2022 8:45:00 PM 1.04 33.872 0.103 7.11 51.74 14.26
12/30/2022 9:00:00 PM 1.05 33.89 0.103 7.1 54.85 14.26
12/30/2022 9:15:00 PM 1.06 33.908 0.102 7.1 43.48 14.27
12/30/2022 9:30:00 PM 1.07 33.926 0.102 7.1 25.25 14.26
12/30/2022 9:45:00 PM 1.07 33.926 0.102 7.09 42.3 14.26
12/30/2022 10:00:00 PM 1.07 33.926 0.102 7.1 39.16 14.26
12/30/2022 10:15:00 PM 1.07 33.926 0.101 7.09 40.24 14.25
12/30/2022 10:30:00 PM 1.07 33.926 0.101 7.1 37.58 14.25
12/30/2022 10:45:00 PM 1.07 33.926 0.101 7.1 38.23 14.26
12/30/2022 11:00:00 PM 1.08 33.944 0.101 7.1 33.13 14.26
12/30/2022 11:15:00 PM 1.09 33.962 0.101 7.09 31.27 14.25
12/30/2022 11:30:00 PM 1.09 33.962 0.101 7.1 35.51 14.25
12/30/2022 11:45:00 PM 1.09 33.962 0.1 7.1 33.5 14.26
12/31/2022 12:00:00 AM 1.08 33.944 0.1 7.1 32.53 14.26
12/31/2022 12:15:00 AM 1.08 33.944 0.1 7.1 66.01 14.26
12/31/2022 12:30:00 AM 1.07 33.926 0.1 7.1 28.36 14.26
12/31/2022 12:45:00 AM 1.06 33.908 0.1 7.09 27.19 14.26
12/31/2022 1:00:00 AM 1.05 33.89 0.1 7.09 31.96 14.26
12/31/2022 1:15:00 AM 1.04 33.872 0.1 7.09 26.98 14.26
12/31/2022 1:30:00 AM 1.03 33.854 0.1 7.08 30.2 14.26
12/31/2022 1:45:00 AM 1.03 33.854 0.099 7.08 30.13 14.26
12/31/2022 2:00:00 AM 1.03 33.854 0.099 7.08 30.14 14.26
12/31/2022 2:15:00 AM 1.03 33.854 0.099 7.08 22.53 14.26
12/31/2022 2:30:00 AM 1.03 33.854 0.099 7.08 25.73 14.25
12/31/2022 2:45:00 AM 1.04 33.872 0.099 7.08 15.31 14.25
12/31/2022 3:00:00 AM 1.05 33.89 0.099 7.09 28.94 14.24
12/31/2022 3:15:00 AM 1.06 33.908 0.099 7.09 24.16 14.24
12/31/2022 3:30:00 AM 1.07 33.926 0.099 7.09 25.77 14.23
12/31/2022 3:45:00 AM 1.08 33.944 0.099 7.09 25.44 14.23
12/31/2022 4:00:00 AM 1.08 33.944 0.099 7.09 24.95 14.22
12/31/2022 4:15:00 AM 1.08 33.944 0.099 7.09 19.36 14.21
12/31/2022 4:30:00 AM 1.08 33.944 0.099 7.09 23.81 14.22
12/31/2022 4:45:00 AM 1.09 33.962 0.099 7.09 22.28 14.21
12/31/2022 5:00:00 AM 1.11 33.998 0.099 7.08 15.15 14.2
12/31/2022 5:15:00 AM 1.13 34.034 0.099 7.09 26.25 14.19
12/31/2022 5:30:00 AM 1.15 34.07 0.099 7.1 23.73 14.18
12/31/2022 5:45:00 AM 1.18 34.124 0.099 7.08 21.07 14.17
12/31/2022 6:00:00 AM 1.19 34.142 0.099 7.09 18.65 14.17
12/31/2022 6:15:00 AM 1.2 34.16 0.099 7.09 21.19 14.16
12/31/2022 6:30:00 AM 1.2 34.16 0.099 7.09 20.84 14.16
12/31/2022 6:45:00 AM 1.21 34.178 0.099 7.09 20.56 14.15
12/31/2022 7:00:00 AM 1.23 34.214 0.099 7.1 33.18 14.14
12/31/2022 7:15:00 AM 1.26 34.268 0.099 7.1 17.4 14.13
12/31/2022 7:30:00 AM 1.28 34.304 0.099 7.1 15.45 14.12
12/31/2022 7:45:00 AM 1.31 34.358 0.099 7.09 20.1 14.11
12/31/2022 8:00:00 AM 1.33 34.394 0.099 7.09 21.54 14.1
12/31/2022 8:15:00 AM 1.36 34.448 0.099 7.1 28.15 14.09
12/31/2022 8:30:00 AM 1.39 34.502 0.099 7.09 19 14.08
12/31/2022 8:45:00 AM 1.43 34.574 0.099 7.1 20.33 14.06
12/31/2022 9:00:00 AM 1.48 34.664 0.099 7.06 21.34 14.05
12/31/2022 9:15:00 AM 1.53 34.754 0.099 7.1 19.95 14.04
12/31/2022 9:30:00 AM 1.57 34.826 0.099 7.02 19.85 14.02
12/31/2022 9:45:00 AM 1.6 34.88 0.099 7.06 18.45 14.02
12/31/2022 10:00:00 AM 1.64 34.952 0.099 7.11 19.64 14
12/31/2022 10:15:00 AM 1.68 35.024 0.098 7.1 18.12 13.99
12/31/2022 10:30:00 AM 1.72 35.096 0.098 7.11 20.68 13.98
12/31/2022 10:45:00 AM 1.78 35.204 0.098 7.11 32.39 13.96
12/31/2022 11:00:00 AM 1.84 35.312 0.098 7.12 20.33 13.95
12/31/2022 11:15:00 AM 1.9 35.42 0.098 7.12 20.65 13.93
12/31/2022 11:30:00 AM 1.94 35.492 0.098 7.12 19.21 13.91
12/31/2022 11:45:00 AM 2 35.6 0.098 7.12 20.31 13.89
12/31/2022 12:00:00 PM 2.04 35.672 0.098 7.13 22.94 13.88
12/31/2022 12:15:00 PM 2.08 35.744 0.098 7.13 21.99 13.86
12/31/2022 12:30:00 PM 2.13 35.834 0.097 7.14 25.04 13.84
12/31/2022 12:45:00 PM 2.16 35.888 0.097 7.14 22.02 13.83
12/31/2022 1:00:00 PM 2.18 35.924 0.097 7.14 24.01 13.82
12/31/2022 1:15:00 PM 2.2 35.96 0.097 7.15 23.31 13.81
12/31/2022 1:30:00 PM 2.22 35.996 0.097 7.15 25.38 13.8
12/31/2022 1:45:00 PM 2.23 36.014 0.097 7.14 29.35 13.79
12/31/2022 2:00:00 PM 2.26 36.068 0.096 7.15 29.2 13.78
12/31/2022 2:15:00 PM 2.28 36.104 0.096 7.15 28.84 13.77
12/31/2022 2:30:00 PM 2.28 36.104 0.096 7.15 24.81 13.76
12/31/2022 2:45:00 PM 2.3 36.14 0.096 7.14 36.86 13.74
12/31/2022 3:00:00 PM 2.3 36.14 0.096 7.15 29.13 13.75
12/31/2022 3:15:00 PM 2.3 36.14 0.095 7.14 39.7 13.74
12/31/2022 3:30:00 PM 2.28 36.104 0.095 7.14 38.39 13.72
12/31/2022 3:45:00 PM 2.27 36.086 0.095 7.14 43.48 13.72
12/31/2022 4:00:00 PM 2.25 36.05 0.095 7.14 65.08 13.72
12/31/2022 4:15:00 PM 2.25 36.05 0.094 7.13 45.68 13.71
12/31/2022 4:30:00 PM 2.25 36.05 0.094 7.12 43.07 13.71
12/31/2022 4:45:00 PM 2.25 36.05 0.094 7.13 45.34 13.71
12/31/2022 5:00:00 PM 2.25 36.05 0.094 7.12 91.61 13.7
12/31/2022 5:15:00 PM 2.27 36.086 0.094 7.12 39.05 13.69
12/31/2022 5:30:00 PM 2.29 36.122 0.093 7.12 64.02 13.68
12/31/2022 5:45:00 PM 2.33 36.194 0.093 7.12 46.85 13.66
12/31/2022 6:00:00 PM 2.36 36.248 0.093 7.12 41.39 13.65
12/31/2022 6:15:00 PM 2.38 36.284 0.093 7.11 42.71 13.65
12/31/2022 6:30:00 PM 2.4 36.32 0.093 7.12 71.79 13.63
12/31/2022 6:45:00 PM 2.42 36.356 0.092 7.11 40.66 13.61
12/31/2022 7:00:00 PM 2.42 36.356 0.093 7.11 42.24 13.61
12/31/2022 7:15:00 PM 2.43 36.374 0.093 7.11 41.67 13.61
12/31/2022 7:30:00 PM 2.43 36.374 0.093 7.11 43.48 13.61
12/31/2022 7:45:00 PM 2.42 36.356 0.093 7.1 44.39 13.61
12/31/2022 8:00:00 PM 2.42 36.356 0.093 7.09 42.79 13.61
12/31/2022 8:15:00 PM 2.41 36.338 0.093 7.1 40.91 13.61
12/31/2022 8:30:00 PM 2.41 36.338 0.093 7.1 41.91 13.61
12/31/2022 8:45:00 PM 2.4 36.32 0.093 7.09 47.26 13.6
12/31/2022 9:00:00 PM 2.39 36.302 0.093 7.1 41.74 13.61
12/31/2022 9:15:00 PM 2.38 36.284 0.093 7.09 98.83 13.61
12/31/2022 9:30:00 PM 2.38 36.284 0.093 7.08 44.19 13.62
12/31/2022 9:45:00 PM 2.39 36.302 0.093 7.08 44.07 13.61
12/31/2022 10:00:00 PM 2.4 36.32 0.093 7.08 44.23 13.62
12/31/2022 10:15:00 PM 2.41 36.338 0.093 7.08 43.91 13.6
12/31/2022 10:30:00 PM 2.42 36.356 0.093 7.08 42.56 13.6
12/31/2022 10:45:00 PM 2.43 36.374 0.093 7.08 52.82 13.6
12/31/2022 11:00:00 PM 2.45 36.41 0.093 7.07 42.35 13.59
12/31/2022 11:15:00 PM 2.47 36.446 0.093 7.07 45.71 13.58
12/31/2022 11:30:00 PM 2.49 36.482 0.093 7.08 42.14 13.57
12/31/2022 11:45:00 PM 2.51 36.518 0.093 7.08 44.57 13.56
1/1/2023 12:00:00 AM 2.54 36.572 0.093 7.08 44.27 13.56
1/1/2023 12:15:00 AM 2.55 36.59 0.093 7.08 58.63 13.54
1/1/2023 12:30:00 AM 2.56 36.608 0.093 7.02 38.46 13.54
1/1/2023 12:45:00 AM 2.55 36.59 0.093 7.07 40.16 13.54
1/1/2023 1:00:00 AM 2.54 36.572 0.093 7.08 35.37 13.54
1/1/2023 1:15:00 AM 2.55 36.59 0.094 7.07 37.28 13.54
1/1/2023 1:30:00 AM 2.56 36.608 0.094 7.07 35.2 13.53
1/1/2023 1:45:00 AM 2.55 36.59 0.094 7.07 34.45 13.53
1/1/2023 2:00:00 AM 2.55 36.59 0.094 7.08 36.17 13.53
1/1/2023 2:15:00 AM 2.54 36.572 0.094 7.08 26.79 13.54
1/1/2023 2:30:00 AM 2.52 36.536 0.094 7.07 34.79 13.54
1/1/2023 2:45:00 AM 2.51 36.518 0.094 7.07 37.01 13.54
1/1/2023 3:00:00 AM 2.5 36.5 0.094 7.06 27.33 13.54
1/1/2023 3:15:00 AM 2.49 36.482 0.094 7.07 29.96 13.56
1/1/2023 3:30:00 AM 2.49 36.482 0.094 7.07 30.7 13.55
1/1/2023 3:45:00 AM 2.48 36.464 0.094 7.06 30.13 13.56
1/1/2023 4:00:00 AM 2.47 36.446 0.094 7.08 29.07 13.57
1/1/2023 4:15:00 AM 2.48 36.464 0.094 7.07 30.72 13.56
1/1/2023 4:30:00 AM 2.48 36.464 0.095 6.99 29.2 13.57
1/1/2023 4:45:00 AM 2.5 36.5 0.095 7.07 28.17 13.57
1/1/2023 5:00:00 AM 2.52 36.536 0.095 7.08 26.51 13.58
1/1/2023 5:15:00 AM 2.53 36.554 0.095 7.07 26.19 13.57
1/1/2023 5:30:00 AM 2.54 36.572 0.095 7.07 27.37 13.57
1/1/2023 5:45:00 AM 2.54 36.572 0.095 7.08 27.18 13.56
1/1/2023 6:00:00 AM 2.55 36.59 0.095 7.07 25.87 13.56
1/1/2023 6:15:00 AM 2.56 36.608 0.095 7.07 23.2 13.56
1/1/2023 6:30:00 AM 2.56 36.608 0.095 7.08 24.59 13.56
1/1/2023 6:45:00 AM 2.56 36.608 0.095 7.07 24.6 13.56
1/1/2023 7:00:00 AM 2.56 36.608 0.095 7.08 22.24 13.57
1/1/2023 7:15:00 AM 2.56 36.608 0.095 7.08 21.36 13.57
1/1/2023 7:30:00 AM 2.56 36.608 0.096 7.07 22.25 13.56
1/1/2023 7:45:00 AM 2.55 36.59 0.096 7.08 22.95 13.57
1/1/2023 8:00:00 AM 2.56 36.608 0.096 7.07 23.18 13.58
1/1/2023 8:15:00 AM 2.57 36.626 0.096 7.08 19.7 13.57
1/1/2023 8:30:00 AM 2.59 36.662 0.096 7.08 19.96 13.57
1/1/2023 8:45:00 AM 2.61 36.698 0.096 7.08 23.16 13.58
1/1/2023 9:00:00 AM 2.64 36.752 0.096 7.08 20.05 13.57
1/1/2023 9:15:00 AM 2.67 36.806 0.096 7.08 20.45 13.57
1/1/2023 9:30:00 AM 2.7 36.86 0.096 7.09 14.75 13.58
1/1/2023 9:45:00 AM 2.75 36.95 0.097 7.09 18.05 13.57
1/1/2023 10:00:00 AM 2.79 37.022 0.097 7 20.76 13.57
1/1/2023 10:15:00 AM 2.83 37.094 0.097 7.1 17.97 13.56
1/1/2023 10:30:00 AM 2.89 37.202 0.097 7.1 18.74 13.55
1/1/2023 10:45:00 AM 2.9 37.22 0.097 7.11 18.68 13.54
1/1/2023 11:00:00 AM 2.96 37.328 0.097 7.11 12.3 13.54
1/1/2023 11:15:00 AM 3.05 37.49 0.097 7.11 14.86 13.52
1/1/2023 11:30:00 AM 3.09 37.562 0.097 7.11 14.78 13.51
1/1/2023 11:45:00 AM 3.16 37.688 0.097 7.02 18.04 13.48
1/1/2023 12:00:00 PM 3.25 37.85 0.098 7.07 16.88 13.46
1/1/2023 12:15:00 PM 3.32 37.976 0.098 7.12 16.87 13.44
1/1/2023 12:30:00 PM 3.4 38.12 0.098 7.13 16.11 13.41
1/1/2023 12:45:00 PM 3.46 38.228 0.098 7.13 12.56 13.38
1/1/2023 1:00:00 PM 3.53 38.354 0.098 7.14 16.84 13.35
1/1/2023 1:15:00 PM 3.59 38.462 0.098 7.14 17.32 13.32
1/1/2023 1:30:00 PM 3.62 38.516 0.098 7.14 16.52 13.3
1/1/2023 1:45:00 PM 3.65 38.57 0.098 7.14 16.57 13.28
1/1/2023 2:00:00 PM 3.68 38.624 0.098 7.14 15.22 13.28
1/1/2023 2:15:00 PM 3.7 38.66 0.099 7.14 16.39 13.26
1/1/2023 2:30:00 PM 3.7 38.66 0.099 7.14 16.8 13.25
1/1/2023 2:45:00 PM 3.72 38.696 0.099 7.14 17.6 13.24
1/1/2023 3:00:00 PM 3.74 38.732 0.099 7.14 26.84 13.23
1/1/2023 3:15:00 PM 3.75 38.75 0.099 7.14 18.63 13.22
1/1/2023 3:30:00 PM 3.75 38.75 0.099 7.14 20.45 13.21
1/1/2023 3:45:00 PM 3.77 38.786 0.099 7.14 18.51 13.21
1/1/2023 4:00:00 PM 3.74 38.732 0.099 7.14 17.86 13.2
1/1/2023 4:15:00 PM 3.73 38.714 0.099 7.14 17.24 13.19
1/1/2023 4:30:00 PM 3.69 38.642 0.099 7.13 12.25 13.19
1/1/2023 4:45:00 PM 3.65 38.57 0.099 7.13 18.29 13.2
1/1/2023 5:00:00 PM 3.62 38.516 0.099 7.09 17.67 13.19
1/1/2023 5:15:00 PM 3.6 38.48 0.099 7.12 16.88 13.19
1/1/2023 5:30:00 PM 3.58 38.444 0.1 7.12 16.38 13.2
1/1/2023 5:45:00 PM 3.56 38.408 0.1 7.12 16.42 13.2
1/1/2023 6:00:00 PM 3.55 38.39 0.1 7.11 16.81 13.2
1/1/2023 6:15:00 PM 3.54 38.372 0.1 7.11 38.38 13.2
1/1/2023 6:30:00 PM 3.53 38.354 0.1 7.11 12.73 13.2
1/1/2023 6:45:00 PM 3.52 38.336 0.1 7.11 17.04 13.21
1/1/2023 7:00:00 PM 3.51 38.318 0.1 7.11 15.09 13.21
1/1/2023 7:15:00 PM 3.5 38.3 0.1 7.1 14.99 13.21
1/1/2023 7:30:00 PM 3.49 38.282 0.1 7.1 17.77 13.21
1/1/2023 7:45:00 PM 3.48 38.264 0.1 7.1 17.39 13.22
1/1/2023 8:00:00 PM 3.46 38.228 0.1 7.09 13.14 13.23
1/1/2023 8:15:00 PM 3.44 38.192 0.1 7.06 16.56 13.23
1/1/2023 8:30:00 PM 3.43 38.174 0.1 7.09 16.44 13.24
1/1/2023 8:45:00 PM 3.41 38.138 0.1 7.08 16.75 13.24
1/1/2023 9:00:00 PM 3.4 38.12 0.101 7.08 13.39 13.25
1/1/2023 9:15:00 PM 3.38 38.084 0.101 7.09 17.58 13.25
1/1/2023 9:30:00 PM 3.37 38.066 0.101 7.07 13.49 13.26
1/1/2023 9:45:00 PM 3.36 38.048 0.101 7.01 16.99 13.26
1/1/2023 10:00:00 PM 3.36 38.048 0.101 7.05 17.31 13.26
1/1/2023 10:15:00 PM 3.35 38.03 0.101 7.08 16.44 13.26
1/1/2023 10:30:00 PM 3.34 38.012 0.101 7.08 14.98 13.26
1/1/2023 10:45:00 PM 3.33 37.994 0.101 7.08 17.16 13.26
1/1/2023 11:00:00 PM 3.32 37.976 0.101 7.08 16.64 13.27
1/1/2023 11:15:00 PM 3.31 37.958 0.101 7.08 18.47 13.28
1/1/2023 11:30:00 PM 3.29 37.922 0.102 7.07 17.63 13.28
1/1/2023 11:45:00 PM 3.28 37.904 0.102 7.07 16.72 13.28
1/2/2023 12:00:00 AM 3.27 37.886 0.102 7.08 16.15 13.28
1/2/2023 12:15:00 AM 3.26 37.868 0.102 7.08 15.91 13.29
1/2/2023 12:30:00 AM 3.25 37.85 0.102 7.08 20.65 13.3
1/2/2023 12:45:00 AM 3.23 37.814 0.102 7.07 14.75 13.3
1/2/2023 1:00:00 AM 3.21 37.778 0.102 7.07 16.18 13.31
1/2/2023 1:15:00 AM 3.19 37.742 0.102 7.07 14.56 13.31
1/2/2023 1:30:00 AM 3.18 37.724 0.102 7.07 15.42 13.32
1/2/2023 1:45:00 AM 3.17 37.706 0.102 7.07 15.55 13.33
1/2/2023 2:00:00 AM 3.15 37.67 0.102 7.07 14.39 13.33
1/2/2023 2:15:00 AM 3.14 37.652 0.103 7.07 14.52 13.34
1/2/2023 2:30:00 AM 3.11 37.598 0.103 7.07 14.85 13.35
1/2/2023 2:45:00 AM 3.09 37.562 0.103 7.07 14.06 13.35
1/2/2023 3:00:00 AM 3.09 37.562 0.103 7.07 14.87 13.36
1/2/2023 3:15:00 AM 3.08 37.544 0.103 7.07 13.38 13.37
1/2/2023 3:30:00 AM 3.08 37.544 0.103 7.07 13.15 13.37
1/2/2023 3:45:00 AM 3.08 37.544 0.103 7.07 13.78 13.37
1/2/2023 4:00:00 AM 3.08 37.544 0.103 7.07 13.57 13.37
1/2/2023 4:15:00 AM 3.09 37.562 0.103 7.07 13.96 13.37
1/2/2023 4:30:00 AM 3.09 37.562 0.103 7.07 13.55 13.37
1/2/2023 4:45:00 AM 3.09 37.562 0.103 7.07 12.91 13.38
1/2/2023 5:00:00 AM 3.08 37.544 0.103 7.07 13.46 13.37
1/2/2023 5:15:00 AM 3.08 37.544 0.103 7.08 12.95 13.37
1/2/2023 5:30:00 AM 3.08 37.544 0.104 7.07 12.8 13.38
1/2/2023 5:45:00 AM 3.08 37.544 0.104 7.08 13.74 13.38
1/2/2023 6:00:00 AM 3.08 37.544 0.104 7.08 13.39 13.38
1/2/2023 6:15:00 AM 3.08 37.544 0.104 7.07 12.7 13.38
1/2/2023 6:30:00 AM 3.08 37.544 0.104 7.08 11.92 13.38
1/2/2023 6:45:00 AM 3.08 37.544 0.104 7.07 12.51 13.38
1/2/2023 7:00:00 AM 3.08 37.544 0.104 7.07 12.43 13.38
1/2/2023 7:15:00 AM 3.07 37.526 0.104 7.07 12.16 13.38
1/2/2023 7:30:00 AM 3.06 37.508 0.104 7.07 11.61 13.39
1/2/2023 7:45:00 AM 3.05 37.49 0.104 7.07 11.71 13.39
1/2/2023 8:00:00 AM 3.04 37.472 0.104 7.07 11.17 13.39
1/2/2023 8:15:00 AM 3.05 37.49 0.104 7.08 11.19 13.4
1/2/2023 8:30:00 AM 3.06 37.508 0.104 7.08 11.47 13.41
1/2/2023 8:45:00 AM 3.09 37.562 0.104 7.08 11.15 13.41
1/2/2023 9:00:00 AM 3.11 37.598 0.105 7.09 10.92 13.42
1/2/2023 9:15:00 AM 3.16 37.688 0.105 7.08 10.97 13.42
1/2/2023 9:30:00 AM 3.2 37.76 0.105 7.09 10.1 13.41
1/2/2023 9:45:00 AM 3.26 37.868 0.105 7.09 11.67 13.41
1/2/2023 10:00:00 AM 3.36 38.048 0.105 7.1 9.97 13.4
1/2/2023 10:15:00 AM 3.46 38.228 0.105 7.1 10.33 13.38
1/2/2023 10:30:00 AM 3.56 38.408 0.105 7.1 10.23 13.36
1/2/2023 10:45:00 AM 3.62 38.516 0.105 7.1 10.03 13.35
1/2/2023 11:00:00 AM 3.7 38.66 0.105 7.11 9.67 13.32
1/2/2023 11:15:00 AM 3.79 38.822 0.105 7.12 10.04 13.3
1/2/2023 11:30:00 AM 3.9 39.02 0.105 7.13 9.59 13.26
1/2/2023 11:45:00 AM 4.03 39.254 0.105 7.14 9.78 13.22
1/2/2023 12:00:00 PM 4.14 39.452 0.105 7.14 10.35 13.19
1/2/2023 12:15:00 PM 4.29 39.722 0.105 7.14 9.88 13.16
1/2/2023 12:30:00 PM 4.43 39.974 0.105 7.15 9.74 13.12
1/2/2023 12:45:00 PM 4.59 40.262 0.105 7.16 10.15 13.06
1/2/2023 1:00:00 PM 4.72 40.496 0.105 7.17 10.24 13.03
1/2/2023 1:15:00 PM 4.87 40.766 0.105 7.17 9.76 12.99
1/2/2023 1:30:00 PM 4.97 40.946 0.105 7.17 10.53 12.94
1/2/2023 1:45:00 PM 5.04 41.072 0.105 7.17 10.65 12.91
1/2/2023 2:00:00 PM 5.04 41.072 0.105 7.17 10.22 12.89
1/2/2023 2:15:00 PM 5 41 0.105 7.18 11.12 12.89
1/2/2023 2:30:00 PM 4.99 40.982 0.105 7.17 10.3 12.87
1/2/2023 2:45:00 PM 5.01 41.018 0.105 7.18 11.22 12.86
1/2/2023 3:00:00 PM 5.01 41.018 0.105 7.18 10.74 12.84
1/2/2023 3:15:00 PM 5 41 0.106 7.18 11.28 12.83
1/2/2023 3:30:00 PM 4.96 40.928 0.106 7.18 11.4 12.82
1/2/2023 3:45:00 PM 4.91 40.838 0.106 7.18 10.7 12.82
1/2/2023 4:00:00 PM 4.86 40.748 0.106 7.17 12.07 12.83
1/2/2023 4:15:00 PM 4.79 40.622 0.106 7.17 12.57 12.82
1/2/2023 4:30:00 PM 4.74 40.532 0.106 7.17 12.47 12.82
1/2/2023 4:45:00 PM 4.67 40.406 0.106 7.15 12.81 12.83
1/2/2023 5:00:00 PM 4.61 40.298 0.106 7.16 13.06 12.84
1/2/2023 5:15:00 PM 4.55 40.19 0.106 7.15 11.99 12.85
1/2/2023 5:30:00 PM 4.47 40.046 0.106 7.15 11.92 12.88
1/2/2023 5:45:00 PM 4.41 39.938 0.106 7.14 13.02 12.9
1/2/2023 6:00:00 PM 4.34 39.812 0.106 7.14 12.59 12.91
1/2/2023 6:15:00 PM 4.28 39.704 0.106 7.14 12.48 12.92
1/2/2023 6:30:00 PM 4.24 39.632 0.106 7.13 11.95 12.94
1/2/2023 6:45:00 PM 4.19 39.542 0.106 7.13 12.63 12.95
1/2/2023 7:00:00 PM 4.14 39.452 0.106 7.12 12.43 12.96
1/2/2023 7:15:00 PM 4.1 39.38 0.106 7.03 14.03 12.97
1/2/2023 7:30:00 PM 4.06 39.308 0.106 7.11 12.13 12.98
1/2/2023 7:45:00 PM 4.02 39.236 0.106 7.11 13.24 13
1/2/2023 8:00:00 PM 3.98 39.164 0.106 7.1 12.48 13.01
1/2/2023 8:15:00 PM 3.94 39.092 0.106 7.1 12.42 13.02
1/2/2023 8:30:00 PM 3.89 39.002 0.106 7.1 12.18 13.03
1/2/2023 8:45:00 PM 3.85 38.93 0.106 7.1 12.57 13.05
1/2/2023 9:00:00 PM 3.8 38.84 0.106 7.05 12.27 13.07
1/2/2023 9:15:00 PM 3.76 38.768 0.106 7.1 12.39 13.08
1/2/2023 9:30:00 PM 3.71 38.678 0.107 7.05 12.42 13.11
1/2/2023 9:45:00 PM 3.66 38.588 0.107 7.09 12.45 13.12
1/2/2023 10:00:00 PM 3.62 38.516 0.107 7.08 11.79 13.14
1/2/2023 10:15:00 PM 3.58 38.444 0.107 7.08 11.29 13.15
1/2/2023 10:30:00 PM 3.53 38.354 0.107 7.08 10.82 13.16
1/2/2023 10:45:00 PM 3.49 38.282 0.107 7.08 11.7 13.18
1/2/2023 11:00:00 PM 3.45 38.21 0.107 7.08 11.51 13.2
1/2/2023 11:15:00 PM 3.41 38.138 0.107 7.07 11.05 13.21
1/2/2023 11:30:00 PM 3.36 38.048 0.107 7.08 11.46 13.23
1/2/2023 11:45:00 PM 3.32 37.976 0.107 7.07 11.04 13.23
1/3/2023 12:00:00 AM 3.28 37.904 0.108 7 11.07 13.25
1/3/2023 12:15:00 AM 3.24 37.832 0.108 7.08 11.02 13.27
1/3/2023 12:30:00 AM 3.22 37.796 0.108 7.07 10.79 13.28
1/3/2023 12:45:00 AM 3.22 37.796 0.108 7.07 10.99 13.29
1/3/2023 1:00:00 AM 3.22 37.796 0.108 7.07 10.83 13.3
1/3/2023 1:15:00 AM 3.22 37.796 0.108 7.07 10.39 13.3
1/3/2023 1:30:00 AM 3.22 37.796 0.108 7.07 10.21 13.3
1/3/2023 1:45:00 AM 3.22 37.796 0.108 7.08 9.91 13.31
1/3/2023 2:00:00 AM 3.22 37.796 0.108 7.07 9.93 13.3
1/3/2023 2:15:00 AM 3.22 37.796 0.108 7.08 9.16 13.3
1/3/2023 2:30:00 AM 3.23 37.814 0.108 7.09 9.94 13.3
1/3/2023 2:45:00 AM 3.23 37.814 0.108 7.08 9.18 13.3
1/3/2023 3:00:00 AM 3.24 37.832 0.109 7.09 9.38 13.29
1/3/2023 3:15:00 AM 3.25 37.85 0.109 7.09 8.9 13.3
1/3/2023 3:30:00 AM 3.25 37.85 0.109 7.09 8.64 13.29
1/3/2023 3:45:00 AM 3.26 37.868 0.109 7.09 8.87 13.29
1/3/2023 4:00:00 AM 3.27 37.886 0.109 7.09 9.15 13.28
1/3/2023 4:15:00 AM 3.28 37.904 0.109 7.1 8.65 13.28
1/3/2023 4:30:00 AM 3.29 37.922 0.109 7.09 9 13.27
1/3/2023 4:45:00 AM 3.3 37.94 0.109 7.1 8.74 13.27
1/3/2023 5:00:00 AM 3.31 37.958 0.109 7.1 8.44 13.26
1/3/2023 5:15:00 AM 3.32 37.976 0.109 7.1 9.05 13.25
1/3/2023 5:30:00 AM 3.33 37.994 0.109 7.1 8.76 13.25
1/3/2023 5:45:00 AM 3.35 38.03 0.109 7.11 8.31 13.24
1/3/2023 6:00:00 AM 3.36 38.048 0.109 7.11 8.55 13.23
1/3/2023 6:15:00 AM 3.36 38.048 0.11 7.11 8.13 13.23
1/3/2023 6:30:00 AM 3.37 38.066 0.11 7.11 8.69 13.22
1/3/2023 6:45:00 AM 3.38 38.084 0.11 7.11 8.41 13.21
1/3/2023 7:00:00 AM 3.39 38.102 0.11 7.11 8.18 13.21
1/3/2023 7:15:00 AM 3.39 38.102 0.11 7.11 7.97 13.2
1/3/2023 7:30:00 AM 3.4 38.12 0.11 7.12 7.95 13.2
1/3/2023 7:45:00 AM 3.41 38.138 0.11 7.11 7.69 13.19
1/3/2023 8:00:00 AM 3.42 38.156 0.11 7.12 8.05 13.19
1/3/2023 8:15:00 AM 3.44 38.192 0.11 7.12 7.97 13.18
1/3/2023 8:30:00 AM 3.46 38.228 0.11 7.12 7.92 13.18
1/3/2023 8:45:00 AM 3.47 38.246 0.11 7.12 8.27 13.18
1/3/2023 9:00:00 AM 3.48 38.264 0.11 7.12 8.15 13.18
1/3/2023 9:15:00 AM 3.5 38.3 0.109 7.12 8.26 13.18
1/3/2023 9:30:00 AM 3.51 38.318 0.109 7.12 7.43 13.18
1/3/2023 9:45:00 AM 3.53 38.354 0.109 7.12 7.46 13.17
1/3/2023 10:00:00 AM 3.56 38.408 0.109 7.11 7.99 13.17
1/3/2023 10:15:00 AM 3.58 38.444 0.109 7.13 7.57 13.17
1/3/2023 10:30:00 AM 3.6 38.48 0.109 7.13 7.26 13.16
1/3/2023 10:45:00 AM 3.62 38.516 0.108 7.13 7.72 13.16
1/3/2023 11:00:00 AM 3.64 38.552 0.108 7.13 8.77 13.15
1/3/2023 11:15:00 AM 3.67 38.606 0.108 7.13 10 13.15
1/3/2023 11:30:00 AM 3.7 38.66 0.108 7.13 11.68 13.14
1/3/2023 11:45:00 AM 3.73 38.714 0.108 7.14 14.05 13.14
1/3/2023 12:00:00 PM 3.76 38.768 0.108 7.14 15.7 13.13
1/3/2023 12:15:00 PM 3.78 38.804 0.108 7.15 22.6 13.13
1/3/2023 12:30:00 PM 3.78 38.804 0.108 7.15 32.58 13.15
1/3/2023 12:45:00 PM 3.74 38.732 0.108 7.14 56.7 13.17
1/3/2023 1:00:00 PM 3.66 38.588 0.108 7.09 108.16 13.19
1/3/2023 1:15:00 PM 3.56 38.408 0.107 7.14 151.9 13.22
1/3/2023 1:30:00 PM 3.44 38.192 0.108 7.13 179.93 13.28
1/3/2023 1:45:00 PM 3.36 38.048 0.107 7.13 229.74 13.31
1/3/2023 2:00:00 PM 3.36 38.048 0.105 7.11 258.21 13.32
1/3/2023 2:15:00 PM 3.44 38.192 0.102 7.04 251.17 13.31
1/3/2023 2:30:00 PM 3.55 38.39 0.099 7.11 258.33 13.27
1/3/2023 2:45:00 PM 3.68 38.624 0.097 7.08 237.96 13.23
1/3/2023 3:00:00 PM 3.81 38.858 0.096 7.08 219.77 13.17
1/3/2023 3:15:00 PM 3.92 39.056 0.095 7.07 211.24 13.12
1/3/2023 3:30:00 PM 4.01 39.218 0.094 7.08 194.64 13.08
1/3/2023 3:45:00 PM 4.09 39.362 0.093 7.08 180.81 13.05
1/3/2023 4:00:00 PM 4.15 39.47 0.092 7.07 161.75 13.02
1/3/2023 4:15:00 PM 4.21 39.578 0.092 7.06 152.28 13
1/3/2023 4:30:00 PM 4.27 39.686 0.091 7.06 142.51 12.98
1/3/2023 4:45:00 PM 4.31 39.758 0.091 7.05 131.2 12.95
1/3/2023 5:00:00 PM 4.35 39.83 0.09 7.05 118.17 12.93
1/3/2023 5:15:00 PM 4.38 39.884 0.09 7.05 110.83 12.92
1/3/2023 5:30:00 PM 4.4 39.92 0.09 7.05 106.22 12.9
1/3/2023 5:45:00 PM 4.42 39.956 0.089 7.05 99.14 12.89
1/3/2023 6:00:00 PM 4.45 40.01 0.089 7.04 97.09 12.88
1/3/2023 6:15:00 PM 4.47 40.046 0.089 7.04 92.99 12.86
1/3/2023 6:30:00 PM 4.49 40.082 0.089 7.04 84.83 12.85
1/3/2023 6:45:00 PM 4.51 40.118 0.089 7.03 83.03 12.84
1/3/2023 7:00:00 PM 4.53 40.154 0.089 7.03 77.83 12.84
1/3/2023 7:15:00 PM 4.54 40.172 0.089 7.03 70.84 12.82
1/3/2023 7:30:00 PM 4.55 40.19 0.089 7.03 72.27 12.82
1/3/2023 7:45:00 PM 4.56 40.208 0.089 7.03 62.67 12.81
1/3/2023 8:00:00 PM 4.58 40.244 0.089 7.02 60.35 12.8
1/3/2023 8:15:00 PM 4.59 40.262 0.089 7.03 63.47 12.79
1/3/2023 8:30:00 PM 4.59 40.262 0.09 7.03 54.14 12.79
1/3/2023 8:45:00 PM 4.59 40.262 0.09 7.02 56.18 12.78
1/3/2023 9:00:00 PM 4.6 40.28 0.09 7.02 51.56 12.78
1/3/2023 9:15:00 PM 4.59 40.262 0.09 7.02 34.73 12.78
1/3/2023 9:30:00 PM 4.6 40.28 0.091 7.03 49.92 12.77
1/3/2023 9:45:00 PM 4.6 40.28 0.091 6.96 46.4 12.77
1/3/2023 10:00:00 PM 4.61 40.298 0.091 6.97 43.42 12.76
1/3/2023 10:15:00 PM 4.62 40.316 0.091 7.02 43.19 12.75
1/3/2023 10:30:00 PM 4.65 40.37 0.092 7.03 40.57 12.74
1/3/2023 10:45:00 PM 4.67 40.406 0.092 7.01 43.95 12.73
1/3/2023 11:00:00 PM 4.69 40.442 0.092 7.02 39.89 12.72
1/3/2023 11:15:00 PM 4.71 40.478 0.092 7.03 39.31 12.72
1/3/2023 11:30:00 PM 4.74 40.532 0.093 6.95 36.95 12.7
1/3/2023 11:45:00 PM 4.77 40.586 0.093 7.04 35.6 12.69
1/4/2023 12:00:00 AM 4.8 40.64 0.093 7.04 35.83 12.68
1/4/2023 12:15:00 AM 4.83 40.694 0.093 7.04 41.59 12.67
1/4/2023 12:30:00 AM 4.86 40.748 0.093 7.05 31.97 12.66
1/4/2023 12:45:00 AM 4.88 40.784 0.094 7.05 34.75 12.66
1/4/2023 1:00:00 AM 4.91 40.838 0.094 7.05 31.55 12.65
1/4/2023 1:15:00 AM 4.94 40.892 0.094 7.05 30.3 12.64
1/4/2023 1:30:00 AM 4.95 40.91 0.094 7.05 30.05 12.63
1/4/2023 1:45:00 AM 4.97 40.946 0.095 7.05 29.62 12.62
1/4/2023 2:00:00 AM 4.99 40.982 0.095 7.05 26.99 12.63
1/4/2023 2:15:00 AM 5.01 41.018 0.095 7.07 28.53 12.62
1/4/2023 2:30:00 AM 5.02 41.036 0.095 7.07 24.76 12.6
1/4/2023 2:45:00 AM 5.04 41.072 0.095 7.07 25.94 12.6
1/4/2023 3:00:00 AM 5.05 41.09 0.095 7.07 26.23 12.6
1/4/2023 3:15:00 AM 5.04 41.072 0.096 7.07 25.73 12.6
1/4/2023 3:30:00 AM 5.03 41.054 0.096 7.08 24.43 12.59
1/4/2023 3:45:00 AM 5.01 41.018 0.096 7.07 25.34 12.59
1/4/2023 4:00:00 AM 5 41 0.096 7.07 24.31 12.6
1/4/2023 4:15:00 AM 4.99 40.982 0.096 7.07 23.87 12.59
1/4/2023 4:30:00 AM 4.99 40.982 0.097 7.07 23.48 12.6
1/4/2023 4:45:00 AM 5 41 0.097 7.07 16.79 12.6
1/4/2023 5:00:00 AM 5 41 0.097 7.07 22.7 12.6
1/4/2023 5:15:00 AM 5 41 0.097 7.07 22.23 12.6
1/4/2023 5:30:00 AM 4.98 40.964 0.097 7.07 22.69 12.6
1/4/2023 5:45:00 AM 4.97 40.946 0.098 7.07 23.03 12.61
1/4/2023 6:00:00 AM 4.96 40.928 0.098 7.08 22.01 12.61
1/4/2023 6:15:00 AM 4.97 40.946 0.098 7.07 21.47 12.61
1/4/2023 6:30:00 AM 4.98 40.964 0.098 7.06 17.63 12.61
1/4/2023 6:45:00 AM 4.98 40.964 0.098 7.07 21.28 12.61
1/4/2023 7:00:00 AM 4.97 40.946 0.098 7.07 19.41 12.62
1/4/2023 7:15:00 AM 4.97 40.946 0.098 7.07 21.2 12.61
1/4/2023 7:30:00 AM 4.98 40.964 0.099 7.06 20.58 12.61
1/4/2023 7:45:00 AM 4.99 40.982 0.099 7.07 19.91 12.6
1/4/2023 8:00:00 AM 5.01 41.018 0.099 7.07 17.55 12.61
1/4/2023 8:15:00 AM 5.03 41.054 0.099 7.07 17.72 12.61
1/4/2023 8:30:00 AM 5.05 41.09 0.099 7.07 18.01 12.61
1/4/2023 8:45:00 AM 5.08 41.144 0.099 7.07 16.66 12.61
1/4/2023 9:00:00 AM 5.12 41.216 0.099 7.06 17.51 12.62
1/4/2023 9:15:00 AM 5.16 41.288 0.099 7.07 17.34 12.61
1/4/2023 9:30:00 AM 5.2 41.36 0.1 7.08 23.89 12.61
1/4/2023 9:45:00 AM 5.24 41.432 0.1 7.08 17.36 12.6
1/4/2023 10:00:00 AM 5.3 41.54 0.1 7.07 16.91 12.59
1/4/2023 10:15:00 AM 5.37 41.666 0.1 7.05 15.9 12.58
1/4/2023 10:30:00 AM 5.43 41.774 0.1 7.08 17.38 12.57
1/4/2023 10:45:00 AM 5.51 41.918 0.1 7.09 16.51 12.55
1/4/2023 11:00:00 AM 5.59 42.062 0.1 7.08 15.06 12.54
1/4/2023 11:15:00 AM 5.67 42.206 0.1 7.11 15.16 12.53
1/4/2023 11:30:00 AM 5.73 42.314 0.1 7.11 14.98 12.51
1/4/2023 11:45:00 AM 5.8 42.44 0.101 7.03 15 12.49
1/4/2023 12:00:00 PM 5.85 42.53 0.101 7.12 14.47 12.46
1/4/2023 12:15:00 PM 5.9 42.62 0.101 7.12 14.46 12.44
1/4/2023 12:30:00 PM 5.96 42.728 0.101 7.12 14.59 12.42
1/4/2023 12:45:00 PM 6.01 42.818 0.101 7.12 14.03 12.4
1/4/2023 1:00:00 PM 6.06 42.908 0.101 7.12 16.07 12.38
1/4/2023 1:15:00 PM 6.11 42.998 0.101 7.12 14.44 12.37
1/4/2023 1:30:00 PM 6.17 43.106 0.101 7.12 13.8 12.35
1/4/2023 1:45:00 PM 6.23 43.214 0.101 7.13 14.24 12.33
1/4/2023 2:00:00 PM 6.26 43.268 0.101 7.14 14.56 12.3
1/4/2023 2:15:00 PM 6.28 43.304 0.101 7.15 13.42 12.28
1/4/2023 2:30:00 PM 6.3 43.34 0.102 7.14 14.06 12.27
1/4/2023 2:45:00 PM 6.31 43.358 0.102 7.15 13.61 12.25
1/4/2023 3:00:00 PM 6.31 43.358 0.102 7.14 12.99 12.24
1/4/2023 3:15:00 PM 6.31 43.358 0.102 7.13 14.13 12.23
1/4/2023 3:30:00 PM 6.3 43.34 0.102 7.14 13.46 12.22
1/4/2023 3:45:00 PM 6.3 43.34 0.102 7.13 12.47 12.21
1/4/2023 4:00:00 PM 6.3 43.34 0.102 7.13 13.73 12.2
1/4/2023 4:15:00 PM 6.29 43.322 0.102 7.12 13.41 12.19
1/4/2023 4:30:00 PM 6.29 43.322 0.102 7.12 13.67 12.19
1/4/2023 4:45:00 PM 6.29 43.322 0.102 7.12 12.73 12.18
1/4/2023 5:00:00 PM 6.28 43.304 0.102 7.12 12.67 12.18
1/4/2023 5:15:00 PM 6.27 43.286 0.102 7.12 13.12 12.17
1/4/2023 5:30:00 PM 6.26 43.268 0.102 7.1 12.54 12.17
1/4/2023 5:45:00 PM 6.25 43.25 0.102 7.1 12.59 12.16
1/4/2023 6:00:00 PM 6.24 43.232 0.102 7.11 13.97 12.16
1/4/2023 6:15:00 PM 6.23 43.214 0.102 7.09 13.95 12.16
1/4/2023 6:30:00 PM 6.23 43.214 0.102 7.1 14.91 12.16
1/4/2023 6:45:00 PM 6.23 43.214 0.103 7.1 13.6 12.16
1/4/2023 7:00:00 PM 6.23 43.214 0.103 7.08 16.86 12.15
1/4/2023 7:15:00 PM 6.22 43.196 0.103 7.1 13.79 12.16
1/4/2023 7:30:00 PM 6.22 43.196 0.103 7.09 14.11 12.16
1/4/2023 7:45:00 PM 6.22 43.196 0.103 7.1 15.46 12.15
1/4/2023 8:00:00 PM 6.22 43.196 0.103 7.1 17.17 12.16
1/4/2023 8:15:00 PM 6.22 43.196 0.103 7.1 16.94 12.16
1/4/2023 8:30:00 PM 6.2 43.16 0.103 7.1 15.7 12.16
1/4/2023 8:45:00 PM 6.19 43.142 0.103 7.11 16.14 12.16
1/4/2023 9:00:00 PM 6.2 43.16 0.103 7.1 15.3 12.17
1/4/2023 9:15:00 PM 6.2 43.16 0.103 7.11 14.68 12.17
1/4/2023 9:30:00 PM 6.2 43.16 0.103 7.12 14.16 12.16
1/4/2023 9:45:00 PM 6.21 43.178 0.103 7.11 13.71 12.16
1/4/2023 10:00:00 PM 6.22 43.196 0.103 7.1 14.19 12.16
1/4/2023 10:15:00 PM 6.22 43.196 0.103 7.11 14.38 12.16
1/4/2023 10:30:00 PM 6.23 43.214 0.103 7.11 13.89 12.15
1/4/2023 10:45:00 PM 6.24 43.232 0.103 7.12 14.01 12.15
1/4/2023 11:00:00 PM 6.25 43.25 0.103 7.12 13.28 12.15
1/4/2023 11:15:00 PM 6.26 43.268 0.103 7.11 13.31 12.15
1/4/2023 11:30:00 PM 6.27 43.286 0.103 7.11 13.24 12.15
1/4/2023 11:45:00 PM 6.28 43.304 0.103 7.11 13.39 12.14
1/5/2023 12:00:00 AM 6.29 43.322 0.103 7.11 12.91 12.13
1/5/2023 12:15:00 AM 6.31 43.358 0.103 7.12 13.26 12.13
1/5/2023 12:30:00 AM 6.31 43.358 0.103 7.11 13.51 12.13
1/5/2023 12:45:00 AM 6.31 43.358 0.104 7.11 13.09 12.13
1/5/2023 1:00:00 AM 6.3 43.34 0.104 7.11 12.74 12.13
1/5/2023 1:15:00 AM 6.3 43.34 0.104 7.11 13.1 12.13
1/5/2023 1:30:00 AM 6.33 43.394 0.104 7.12 12.76 12.13
1/5/2023 1:45:00 AM 6.35 43.43 0.104 7.11 12.84 12.13
1/5/2023 2:00:00 AM 6.33 43.394 0.104 7.12 11.9 12.13
1/5/2023 2:15:00 AM 6.3 43.34 0.104 7.01 11.74 12.14
1/5/2023 2:30:00 AM 6.25 43.25 0.104 7.12 13.02 12.15
1/5/2023 2:45:00 AM 6.2 43.16 0.104 7.11 12.09 12.16
1/5/2023 3:00:00 AM 6.15 43.07 0.104 7.11 12.51 12.18
1/5/2023 3:15:00 AM 6.1 42.98 0.104 7.11 12.18 12.19
1/5/2023 3:30:00 AM 6.05 42.89 0.104 7.11 11.87 12.2
1/5/2023 3:45:00 AM 6 42.8 0.104 7.11 12.77 12.22
1/5/2023 4:00:00 AM 5.94 42.692 0.104 7.11 11.73 12.24
1/5/2023 4:15:00 AM 5.89 42.602 0.104 7.11 11.45 12.26
1/5/2023 4:30:00 AM 5.85 42.53 0.104 7.11 11.48 12.27
1/5/2023 4:45:00 AM 5.81 42.458 0.104 7.1 11.43 12.29
1/5/2023 5:00:00 AM 5.77 42.386 0.104 7.11 10.88 12.31
1/5/2023 5:15:00 AM 5.73 42.314 0.104 7.1 11.76 12.33
1/5/2023 5:30:00 AM 5.69 42.242 0.104 7.1 10.72 12.34
1/5/2023 5:45:00 AM 5.64 42.152 0.104 7.1 10.43 12.36
1/5/2023 6:00:00 AM 5.59 42.062 0.105 7.1 10.7 12.38
1/5/2023 6:15:00 AM 5.54 41.972 0.104 7.1 10.8 12.39
1/5/2023 6:30:00 AM 5.48 41.864 0.105 7.09 10.81 12.41
1/5/2023 6:45:00 AM 5.43 41.774 0.105 7.09 10.23 12.42
1/5/2023 7:00:00 AM 5.38 41.684 0.105 7.08 10.52 12.44
1/5/2023 7:15:00 AM 5.34 41.612 0.105 7.08 10.18 12.46
1/5/2023 7:30:00 AM 5.3 41.54 0.105 7.08 10.63 12.47
1/5/2023 7:45:00 AM 5.26 41.468 0.105 7.07 10.03 12.48
1/5/2023 8:00:00 AM 5.22 41.396 0.105 7.07 10.72 12.5
1/5/2023 8:15:00 AM 5.18 41.324 0.105 7.07 10.23 12.53
1/5/2023 8:30:00 AM 5.16 41.288 0.105 7.08 10.49 12.55
1/5/2023 8:45:00 AM 5.16 41.288 0.105 7.08 10.16 12.56
1/5/2023 9:00:00 AM 5.16 41.288 0.105 7.09 10.16 12.58
1/5/2023 9:15:00 AM 5.18 41.324 0.105 7.09 9.94 12.59
1/5/2023 9:30:00 AM 5.21 41.378 0.105 7.09 9.35 12.61
1/5/2023 9:45:00 AM 5.24 41.432 0.105 7.09 8.75 12.61
1/5/2023 10:00:00 AM 5.29 41.522 0.105 7.1 9.27 12.62
1/5/2023 10:15:00 AM 5.36 41.648 0.105 7.09 8.85 12.62
1/5/2023 10:30:00 AM 5.42 41.756 0.105 7.1 9.03 12.61
1/5/2023 10:45:00 AM 5.49 41.882 0.105 7.11 9.08 12.6
1/5/2023 11:00:00 AM 5.54 41.972 0.105 7.12 8.92 12.6
1/5/2023 11:15:00 AM 5.6 42.08 0.105 7.12 8.57 12.59
1/5/2023 11:30:00 AM 5.7 42.26 0.106 7.12 8.9 12.57
1/5/2023 11:45:00 AM 5.8 42.44 0.106 7.12 9.02 12.54
1/5/2023 12:00:00 PM 5.91 42.638 0.106 7.13 8.49 12.5
1/5/2023 12:15:00 PM 6.03 42.854 0.106 7.14 8.53 12.47
1/5/2023 12:30:00 PM 6.14 43.052 0.106 7.14 8.77 12.44
1/5/2023 12:45:00 PM 6.23 43.214 0.106 7.15 9.09 12.42
1/5/2023 1:00:00 PM 6.32 43.376 0.106 7.15 8.57 12.39
1/5/2023 1:15:00 PM 6.4 43.52 0.106 7.16 8.4 12.36
1/5/2023 1:30:00 PM 6.46 43.628 0.106 7.16 8.41 12.33
1/5/2023 1:45:00 PM 6.52 43.736 0.106 7.16 8.46 12.3
1/5/2023 2:00:00 PM 6.56 43.808 0.106 7.17 9 12.28
1/5/2023 2:15:00 PM 6.58 43.844 0.106 7.17 8.28 12.26
1/5/2023 2:30:00 PM 6.57 43.826 0.106 7.17 8.04 12.25
1/5/2023 2:45:00 PM 6.55 43.79 0.106 7.17 8.42 12.25
1/5/2023 3:00:00 PM 6.53 43.754 0.106 7.17 8.11 12.24
1/5/2023 3:15:00 PM 6.47 43.646 0.106 7.17 7.75 12.25
1/5/2023 3:30:00 PM 6.43 43.574 0.106 7.17 7.56 12.25
1/5/2023 3:45:00 PM 6.35 43.43 0.106 7.16 7.62 12.26
1/5/2023 4:00:00 PM 6.28 43.304 0.106 7.17 7.55 12.26
1/5/2023 4:15:00 PM 6.22 43.196 0.106 7.17 7.64 12.26
1/5/2023 4:30:00 PM 6.16 43.088 0.106 7.16 7.89 12.26
1/5/2023 4:45:00 PM 6.1 42.98 0.107 7.16 7.43 12.26
1/5/2023 5:00:00 PM 6.04 42.872 0.107 7.12 7.32 12.27
1/5/2023 5:15:00 PM 5.98 42.764 0.107 7.15 7.32 12.28
1/5/2023 5:30:00 PM 5.92 42.656 0.107 7.14 7.57 12.28
1/5/2023 5:45:00 PM 5.86 42.548 0.107 7.13 7.31 12.3
1/5/2023 6:00:00 PM 5.81 42.458 0.107 7.13 7.3 12.31
1/5/2023 6:15:00 PM 5.76 42.368 0.107 7.13 7.22 12.33
1/5/2023 6:30:00 PM 5.72 42.296 0.107 7.12 7.52 12.34
1/5/2023 6:45:00 PM 5.69 42.242 0.107 7.12 7.59 12.35
1/5/2023 7:00:00 PM 5.66 42.188 0.107 7.12 7.2 12.36
1/5/2023 7:15:00 PM 5.63 42.134 0.107 7.11 7.7 12.37
1/5/2023 7:30:00 PM 5.61 42.098 0.107 7.11 7.49 12.38
1/5/2023 7:45:00 PM 5.58 42.044 0.107 7.11 6.82 12.39
1/5/2023 8:00:00 PM 5.55 41.99 0.107 7.11 7.33 12.4
1/5/2023 8:15:00 PM 5.49 41.882 0.107 7.11 7.43 12.41
1/5/2023 8:30:00 PM 5.44 41.792 0.108 7.1 7.21 12.42
1/5/2023 8:45:00 PM 5.4 41.72 0.108 7.1 7.64 12.43
1/5/2023 9:00:00 PM 5.36 41.648 0.108 7.1 7 12.45
1/5/2023 9:15:00 PM 5.32 41.576 0.108 7.09 7.3 12.46
1/5/2023 9:30:00 PM 5.29 41.522 0.108 7.09 7.48 12.47
1/5/2023 9:45:00 PM 5.25 41.45 0.108 7.09 6.86 12.48
1/5/2023 10:00:00 PM 5.22 41.396 0.108 7.09 7.07 12.49
1/5/2023 10:15:00 PM 5.19 41.342 0.108 7.09 7.25 12.51
1/5/2023 10:30:00 PM 5.16 41.288 0.108 7.08 7.44 12.52
1/5/2023 10:45:00 PM 5.12 41.216 0.108 7.09 7.08 12.53
1/5/2023 11:00:00 PM 5.09 41.162 0.108 7.08 7.09 12.55
1/5/2023 11:15:00 PM 5.04 41.072 0.108 7.08 7.37 12.56
1/5/2023 11:30:00 PM 4.99 40.982 0.108 7.08 7.07 12.58
1/5/2023 11:45:00 PM 4.93 40.874 0.109 7.08 7.2 12.59
1/6/2023 12:00:00 AM 4.88 40.784 0.109 7.08 7.1 12.61
1/6/2023 12:15:00 AM 4.84 40.712 0.109 7.08 7.2 12.62
1/6/2023 12:30:00 AM 4.81 40.658 0.109 7.08 6.86 12.63
1/6/2023 12:45:00 AM 4.78 40.604 0.109 7.07 6.64 12.64
1/6/2023 1:00:00 AM 4.74 40.532 0.109 7.08 7.07 12.66
1/6/2023 1:15:00 AM 4.71 40.478 0.109 7.07 6.95 12.67
1/6/2023 1:30:00 AM 4.68 40.424 0.109 7.07 6.64 12.68
1/6/2023 1:45:00 AM 4.65 40.37 0.109 7.07 7.71 12.69
1/6/2023 2:00:00 AM 4.62 40.316 0.109 7.07 7.18 12.7
1/6/2023 2:15:00 AM 4.6 40.28 0.109 7.07 6.86 12.71
1/6/2023 2:30:00 AM 4.57 40.226 0.109 7.07 6.82 12.71
1/6/2023 2:45:00 AM 4.55 40.19 0.109 7.07 6.72 12.73
1/6/2023 3:00:00 AM 4.52 40.136 0.109 7.08 6.46 12.73
1/6/2023 3:15:00 AM 4.5 40.1 0.109 7.07 6.85 12.74
1/6/2023 3:30:00 AM 4.48 40.064 0.109 7.07 6.87 12.75
1/6/2023 3:45:00 AM 4.46 40.028 0.109 7.07 6.5 12.76
1/6/2023 4:00:00 AM 4.44 39.992 0.11 7.07 6.61 12.77
1/6/2023 4:15:00 AM 4.42 39.956 0.11 7.07 6.76 12.78
1/6/2023 4:30:00 AM 4.4 39.92 0.11 7.07 7.08 12.78
1/6/2023 4:45:00 AM 4.38 39.884 0.11 7.08 6.29 12.79
1/6/2023 5:00:00 AM 4.37 39.866 0.11 7.08 6.42 12.79
1/6/2023 5:15:00 AM 4.35 39.83 0.11 7.08 5.94 12.8
1/6/2023 5:30:00 AM 4.33 39.794 0.11 7.08 5.84 12.81
1/6/2023 5:45:00 AM 4.32 39.776 0.11 7.08 6.04 12.81
1/6/2023 6:00:00 AM 4.29 39.722 0.11 7.08 6.15 12.81
1/6/2023 6:15:00 AM 4.27 39.686 0.11 7.08 6.04 12.82
1/6/2023 6:30:00 AM 4.24 39.632 0.11 7.07 6.08 12.82
1/6/2023 6:45:00 AM 4.2 39.56 0.11 7.06 5.8 12.83
1/6/2023 7:00:00 AM 4.17 39.506 0.11 7.07 6.47 12.84
1/6/2023 7:15:00 AM 4.16 39.488 0.11 7.07 6.04 12.85
1/6/2023 7:30:00 AM 4.15 39.47 0.11 7.07 5.88 12.86
1/6/2023 7:45:00 AM 4.12 39.416 0.11 7.08 5.85 12.87
1/6/2023 8:00:00 AM 4.1 39.38 0.11 7.07 5.98 12.88
1/6/2023 8:15:00 AM 4.1 39.38 0.11 7.08 5.54 12.89
1/6/2023 8:30:00 AM 4.1 39.38 0.11 7.08 5.69 12.91
1/6/2023 8:45:00 AM 4.11 39.398 0.11 7.04 5.83 12.92
1/6/2023 9:00:00 AM 4.13 39.434 0.11 7.09 5.46 12.93
1/6/2023 9:15:00 AM 4.17 39.506 0.11 7.1 6.25 12.94
1/6/2023 9:30:00 AM 4.21 39.578 0.11 7.1 5.63 12.95
1/6/2023 9:45:00 AM 4.24 39.632 0.11 7.1 5.62 12.95
1/6/2023 10:00:00 AM 4.27 39.686 0.11 7.11 5.67 12.96
1/6/2023 10:15:00 AM 4.29 39.722 0.11 7.11 5.9 12.95
1/6/2023 10:30:00 AM 4.32 39.776 0.11 7.12 5.63 12.95
1/6/2023 10:45:00 AM 4.34 39.812 0.11 7.12 5.55 12.95
1/6/2023 11:00:00 AM 4.35 39.83 0.11 7.12 5.54 12.95
1/6/2023 11:15:00 AM 4.37 39.866 0.11 7.13 5.95 12.94
1/6/2023 11:30:00 AM 4.39 39.902 0.11 7.13 5.37 12.94
1/6/2023 11:45:00 AM 4.41 39.938 0.11 7.14 5.63 12.94
1/6/2023 12:00:00 PM 4.45 40.01 0.11 7.14 6.01 12.94
1/6/2023 12:15:00 PM 4.48 40.064 0.11 7.15 5.3 12.93
1/6/2023 12:30:00 PM 4.52 40.136 0.11 7.15 5.4 12.92
1/6/2023 12:45:00 PM 4.55 40.19 0.11 7.15 5.63 12.91
1/6/2023 1:00:00 PM 4.58 40.244 0.11 7.16 5.86 12.91
1/6/2023 1:15:00 PM 4.63 40.334 0.11 7.16 6.08 12.9
1/6/2023 1:30:00 PM 4.66 40.388 0.11 7.16 5.87 12.89
1/6/2023 1:45:00 PM 4.69 40.442 0.11 7.17 5.92 12.88
1/6/2023 2:00:00 PM 4.71 40.478 0.11 7.16 6.03 12.88
1/6/2023 2:15:00 PM 4.7 40.46 0.11 7.16 5.78 12.87
1/6/2023 2:30:00 PM 4.72 40.496 0.11 7.17 6.1 12.87
1/6/2023 2:45:00 PM 4.75 40.55 0.11 7.08 6.25 12.86
1/6/2023 3:00:00 PM 4.76 40.568 0.11 7.17 6.61 12.85
1/6/2023 3:15:00 PM 4.77 40.586 0.11 7.18 7.25 12.85
1/6/2023 3:30:00 PM 4.76 40.568 0.11 7.18 7.21 12.85
1/6/2023 3:45:00 PM 4.75 40.55 0.11 7.17 8.03 12.85
1/6/2023 4:00:00 PM 4.73 40.514 0.11 7.17 7.71 12.84
1/6/2023 4:15:00 PM 4.7 40.46 0.11 7.16 8.33 12.83
1/6/2023 4:30:00 PM 4.68 40.424 0.11 7.17 8.1 12.83
1/6/2023 4:45:00 PM 4.65 40.37 0.109 7.17 7.92 12.83
1/6/2023 5:00:00 PM 4.62 40.316 0.109 7.16 8.39 12.83
1/6/2023 5:15:00 PM 4.59 40.262 0.109 7.16 8.15 12.83
1/6/2023 5:30:00 PM 4.56 40.208 0.109 7.16 8.72 12.83
1/6/2023 5:45:00 PM 4.54 40.172 0.109 7.15 8.3 12.84
1/6/2023 6:00:00 PM 4.51 40.118 0.109 7.14 7.76 12.85
1/6/2023 6:15:00 PM 4.49 40.082 0.109 7.15 7.87 12.85
1/6/2023 6:30:00 PM 4.47 40.046 0.109 7.14 8.02 12.86
1/6/2023 6:45:00 PM 4.45 40.01 0.109 7.14 7.51 12.86
1/6/2023 7:00:00 PM 4.43 39.974 0.109 7.13 7.39 12.87
1/6/2023 7:15:00 PM 4.41 39.938 0.109 7.02 7.27 12.87
1/6/2023 7:30:00 PM 4.4 39.92 0.109 7.13 7.06 12.88
1/6/2023 7:45:00 PM 4.38 39.884 0.109 7.13 8.48 12.89
1/6/2023 8:00:00 PM 4.36 39.848 0.109 7.13 7.34 12.9
1/6/2023 8:15:00 PM 4.34 39.812 0.109 7.13 7.82 12.91
1/6/2023 8:30:00 PM 4.31 39.758 0.109 7.13 7.35 12.91
1/6/2023 8:45:00 PM 4.29 39.722 0.109 7.12 7.7 12.92
1/6/2023 9:00:00 PM 4.27 39.686 0.109 7.12 7.49 12.93
1/6/2023 9:15:00 PM 4.26 39.668 0.109 7.12 7.17 12.93
1/6/2023 9:30:00 PM 4.24 39.632 0.109 7.11 7.17 12.94
1/6/2023 9:45:00 PM 4.22 39.596 0.109 7.11 7.44 12.95
1/6/2023 10:00:00 PM 4.21 39.578 0.109 7.11 7.17 12.95
1/6/2023 10:15:00 PM 4.19 39.542 0.109 7.11 7.16 12.96
1/6/2023 10:30:00 PM 4.18 39.524 0.109 7.11 7.05 12.96
1/6/2023 10:45:00 PM 4.17 39.506 0.109 7.11 7.02 12.96
1/6/2023 11:00:00 PM 4.16 39.488 0.109 7.11 7.07 12.96
1/6/2023 11:15:00 PM 4.14 39.452 0.109 7.11 6.99 12.97
1/6/2023 11:30:00 PM 4.13 39.434 0.109 7.11 6.62 12.97
1/6/2023 11:45:00 PM 4.12 39.416 0.109 7.1 6.49 12.98
1/7/2023 12:00:00 AM 4.11 39.398 0.109 7.11 6.61 12.98
1/7/2023 12:15:00 AM 4.09 39.362 0.109 7.11 6.67 12.99
1/7/2023 12:30:00 AM 4.08 39.344 0.11 7.1 6.43 12.99
1/7/2023 12:45:00 AM 4.06 39.308 0.11 7.1 6.14 12.99
1/7/2023 1:00:00 AM 4.05 39.29 0.11 7.11 6.3 13
1/7/2023 1:15:00 AM 4.03 39.254 0.11 7.11 6.3 13
1/7/2023 1:30:00 AM 4.02 39.236 0.11 7.11 6.21 13
1/7/2023 1:45:00 AM 4.01 39.218 0.11 7.11 5.87 13.01
1/7/2023 2:00:00 AM 3.99 39.182 0.11 7.11 6.28 13.02
1/7/2023 2:15:00 AM 3.98 39.164 0.11 7.1 5.86 13.02
1/7/2023 2:30:00 AM 3.96 39.128 0.11 7.11 5.87 13.02
1/7/2023 2:45:00 AM 3.95 39.11 0.11 7.11 5.96 13.03
1/7/2023 3:00:00 AM 3.93 39.074 0.11 7.1 6.26 13.03
1/7/2023 3:15:00 AM 3.92 39.056 0.11 7.11 5.58 13.04
1/7/2023 3:30:00 AM 3.91 39.038 0.11 7.11 5.73 13.04
1/7/2023 3:45:00 AM 3.89 39.002 0.11 7.1 5.66 13.05
1/7/2023 4:00:00 AM 3.88 38.984 0.111 7.11 5.96 13.05
1/7/2023 4:15:00 AM 3.87 38.966 0.111 7.1 5.61 13.05
1/7/2023 4:30:00 AM 3.85 38.93 0.111 7.1 5.46 13.06
1/7/2023 4:45:00 AM 3.84 38.912 0.111 7.1 5.33 13.07
1/7/2023 5:00:00 AM 3.83 38.894 0.111 7.11 5.32 13.07
1/7/2023 5:15:00 AM 3.81 38.858 0.111 7.1 5.24 13.08
1/7/2023 5:30:00 AM 3.8 38.84 0.111 7.1 5.34 13.08
1/7/2023 5:45:00 AM 3.79 38.822 0.111 7.11 5.12 13.09
1/7/2023 6:00:00 AM 3.78 38.804 0.111 7.1 5.35 13.1
1/7/2023 6:15:00 AM 3.77 38.786 0.111 7.11 5.18 13.1
1/7/2023 6:30:00 AM 3.76 38.768 0.111 7.11 5.43 13.1
1/7/2023 6:45:00 AM 3.75 38.75 0.111 7.11 5.08 13.11
1/7/2023 7:00:00 AM 3.74 38.732 0.111 7.11 5.22 13.1
1/7/2023 7:15:00 AM 3.74 38.732 0.111 7.11 5.05 13.11
1/7/2023 7:30:00 AM 3.73 38.714 0.111 7.11 5.07 13.11
1/7/2023 7:45:00 AM 3.73 38.714 0.111 7.11 5.3 13.11
1/7/2023 8:00:00 AM 3.72 38.696 0.111 7.11 5.14 13.12
1/7/2023 8:15:00 AM 3.73 38.714 0.111 7.11 5.12 13.13
1/7/2023 8:30:00 AM 3.73 38.714 0.112 7.11 4.76 13.14
1/7/2023 8:45:00 AM 3.74 38.732 0.112 7.12 5.18 13.15
1/7/2023 9:00:00 AM 3.76 38.768 0.112 7.12 4.68 13.16
1/7/2023 9:15:00 AM 3.78 38.804 0.112 7.13 4.62 13.16
1/7/2023 9:30:00 AM 3.8 38.84 0.112 7.13 4.66 13.17
1/7/2023 9:45:00 AM 3.84 38.912 0.112 7.13 4.89 13.18
1/7/2023 10:00:00 AM 3.87 38.966 0.112 7.14 4.94 13.18
1/7/2023 10:15:00 AM 3.92 39.056 0.112 7.14 4.9 13.19
1/7/2023 10:30:00 AM 3.98 39.164 0.112 7.14 4.83 13.18
1/7/2023 10:45:00 AM 4.04 39.272 0.112 7.15 4.54 13.17
1/7/2023 11:00:00 AM 4.1 39.38 0.112 7.16 4.6 13.16
1/7/2023 11:15:00 AM 4.14 39.452 0.112 7.16 4.7 13.15
1/7/2023 11:30:00 AM 4.15 39.47 0.112 7.16 4.84 13.14
1/7/2023 11:45:00 AM 4.17 39.506 0.112 7.14 4.65 13.13
1/7/2023 12:00:00 PM 4.21 39.578 0.112 7.16 4.64 13.12
1/7/2023 12:15:00 PM 4.28 39.704 0.113 7.17 4.75 13.11
1/7/2023 12:30:00 PM 4.32 39.776 0.113 7.17 4.74 13.1
1/7/2023 12:45:00 PM 4.35 39.83 0.113 7.17 4.26 13.09
1/7/2023 1:00:00 PM 4.37 39.866 0.113 7.18 4.54 13.09
1/7/2023 1:15:00 PM 4.4 39.92 0.113 7.18 4.36 13.07
1/7/2023 1:30:00 PM 4.43 39.974 0.113 7.18 4.69 13.06
1/7/2023 1:45:00 PM 4.46 40.028 0.113 7.18 4.51 13.06
1/7/2023 2:00:00 PM 4.48 40.064 0.113 7.18 4.64 13.05
1/7/2023 2:15:00 PM 4.53 40.154 0.113 7.18 4.54 13.03
1/7/2023 2:30:00 PM 4.55 40.19 0.113 7.18 4.76 13.02
1/7/2023 2:45:00 PM 4.55 40.19 0.113 7.18 4.52 13.01
1/7/2023 3:00:00 PM 4.52 40.136 0.113 7.18 4.47 13
1/7/2023 3:15:00 PM 4.5 40.1 0.113 7.18 4.53 13
1/7/2023 3:30:00 PM 4.48 40.064 0.113 7.18 4.39 12.99
1/7/2023 3:45:00 PM 4.45 40.01 0.113 7.11 4.57 12.98
1/7/2023 4:00:00 PM 4.43 39.974 0.113 7.18 4.44 12.97
1/7/2023 4:15:00 PM 4.4 39.92 0.113 7.17 4.29 12.97
1/7/2023 4:30:00 PM 4.38 39.884 0.113 7.17 4.24 12.96
1/7/2023 4:45:00 PM 4.36 39.848 0.113 7.17 4.57 12.96
1/7/2023 5:00:00 PM 4.34 39.812 0.113 7.17 4.58 12.96
1/7/2023 5:15:00 PM 4.31 39.758 0.113 7.16 4.45 12.96
1/7/2023 5:30:00 PM 4.28 39.704 0.113 7.16 4.34 12.96
1/7/2023 5:45:00 PM 4.25 39.65 0.114 7.16 4.65 12.97
1/7/2023 6:00:00 PM 4.22 39.596 0.114 7.15 4.39 12.98
1/7/2023 6:15:00 PM 4.19 39.542 0.114 7.15 4.05 12.98
1/7/2023 6:30:00 PM 4.16 39.488 0.114 7.15 4.45 12.99
1/7/2023 6:45:00 PM 4.14 39.452 0.114 7.15 4.35 13
1/7/2023 7:00:00 PM 4.11 39.398 0.114 7.14 4.54 13
1/7/2023 7:15:00 PM 4.09 39.362 0.114 7.14 4.29 13.01
1/7/2023 7:30:00 PM 4.06 39.308 0.114 7.14 4.36 13.02
1/7/2023 7:45:00 PM 4.04 39.272 0.114 7.14 4.5 13.03
1/7/2023 8:00:00 PM 4.02 39.236 0.114 7.13 4.45 13.04
1/7/2023 8:15:00 PM 3.99 39.182 0.114 7.13 4.23 13.05
1/7/2023 8:30:00 PM 3.96 39.128 0.114 7.13 4.49 13.06
1/7/2023 8:45:00 PM 3.94 39.092 0.114 7.13 4.55 13.07
1/7/2023 9:00:00 PM 3.91 39.038 0.114 7.13 4.33 13.07
1/7/2023 9:15:00 PM 3.89 39.002 0.114 7.13 4.22 13.08
1/7/2023 9:30:00 PM 3.87 38.966 0.114 7.12 4.12 13.09
1/7/2023 9:45:00 PM 3.86 38.948 0.114 7.13 4.21 13.09
1/7/2023 10:00:00 PM 3.84 38.912 0.114 7.13 4.47 13.11
1/7/2023 10:15:00 PM 3.81 38.858 0.114 7.12 4.33 13.11
1/7/2023 10:30:00 PM 3.78 38.804 0.114 7.12 4.3 13.13
1/7/2023 10:45:00 PM 3.76 38.768 0.115 7.12 4.25 13.13
1/7/2023 11:00:00 PM 3.74 38.732 0.115 7.12 4.08 13.14
1/7/2023 11:15:00 PM 3.71 38.678 0.115 7.12 4.4 13.15
1/7/2023 11:30:00 PM 3.68 38.624 0.115 7.12 3.93 13.16
1/7/2023 11:45:00 PM 3.64 38.552 0.115 7.11 4.18 13.17
1/8/2023 12:00:00 AM 3.6 38.48 0.115 7.12 4.25 13.18
1/8/2023 12:15:00 AM 3.57 38.426 0.115 7.11 4.15 13.19
1/8/2023 12:30:00 AM 3.53 38.354 0.115 7.11 4.33 13.2
1/8/2023 12:45:00 AM 3.49 38.282 0.115 7.11 4.27 13.21
1/8/2023 1:00:00 AM 3.45 38.21 0.115 7.11 4.56 13.23
1/8/2023 1:15:00 AM 3.41 38.138 0.115 7.11 4.38 13.24
1/8/2023 1:30:00 AM 3.38 38.084 0.115 7.11 4.15 13.25
1/8/2023 1:45:00 AM 3.33 37.994 0.115 7.11 4.18 13.26
1/8/2023 2:00:00 AM 3.28 37.904 0.115 7.09 4.3 13.28
1/8/2023 2:15:00 AM 3.23 37.814 0.115 7.11 4.25 13.3
1/8/2023 2:30:00 AM 3.19 37.742 0.116 7.1 3.92 13.32
1/8/2023 2:45:00 AM 3.14 37.652 0.116 7.1 4.08 13.33
1/8/2023 3:00:00 AM 3.1 37.58 0.116 7.1 4.04 13.35
1/8/2023 3:15:00 AM 3.05 37.49 0.116 7.1 4.07 13.37
1/8/2023 3:30:00 AM 3.01 37.418 0.116 7.09 4.35 13.38
1/8/2023 3:45:00 AM 2.96 37.328 0.116 7.09 4.1 13.4
1/8/2023 4:00:00 AM 2.93 37.274 0.116 7.1 3.96 13.41
1/8/2023 4:15:00 AM 2.9 37.22 0.116 7.06 4.03 13.43
1/8/2023 4:30:00 AM 2.87 37.166 0.116 7.1 4.09 13.44
1/8/2023 4:45:00 AM 2.84 37.112 0.116 7.1 4.07 13.45
1/8/2023 5:00:00 AM 2.83 37.094 0.116 7.1 3.75 13.46
1/8/2023 5:15:00 AM 2.81 37.058 0.116 7.1 4.04 13.48
1/8/2023 5:30:00 AM 2.8 37.04 0.116 7.1 4.11 13.48
1/8/2023 5:45:00 AM 2.78 37.004 0.116 7.1 3.93 13.49
1/8/2023 6:00:00 AM 2.77 36.986 0.116 7.1 4.09 13.49
1/8/2023 6:15:00 AM 2.76 36.968 0.116 7.11 3.88 13.5
1/8/2023 6:30:00 AM 2.75 36.95 0.116 7.11 4.14 13.52
1/8/2023 6:45:00 AM 2.75 36.95 0.116 7.11 3.95 13.51
1/8/2023 7:00:00 AM 2.73 36.914 0.116 7.11 3.94 13.52
1/8/2023 7:15:00 AM 2.72 36.896 0.116 7.11 4.17 13.52
1/8/2023 7:30:00 AM 2.71 36.878 0.116 7.11 4.01 13.54
1/8/2023 7:45:00 AM 2.7 36.86 0.117 7.11 3.79 13.53
1/8/2023 8:00:00 AM 2.69 36.842 0.117 7.11 3.86 13.54
1/8/2023 8:15:00 AM 2.67 36.806 0.117 7.12 4 13.56
1/8/2023 8:30:00 AM 2.67 36.806 0.117 7.12 3.8 13.57
1/8/2023 8:45:00 AM 2.67 36.806 0.117 7.12 3.72 13.6
1/8/2023 9:00:00 AM 2.68 36.824 0.117 7.13 3.8 13.6
1/8/2023 9:15:00 AM 2.7 36.86 0.117 7.13 3.57 13.62
1/8/2023 9:30:00 AM 2.73 36.914 0.117 7.14 3.7 13.62
1/8/2023 9:45:00 AM 2.75 36.95 0.117 7.15 3.75 13.64
1/8/2023 10:00:00 AM 2.79 37.022 0.117 7.15 3.68 13.65
1/8/2023 10:15:00 AM 2.84 37.112 0.117 7.16 3.74 13.64
1/8/2023 10:30:00 AM 2.9 37.22 0.117 7.16 3.52 13.64
1/8/2023 10:45:00 AM 2.96 37.328 0.117 7.17 3.67 13.63
1/8/2023 11:00:00 AM 3.02 37.436 0.117 7.17 3.51 13.63
1/8/2023 11:15:00 AM 3.07 37.526 0.117 7.17 3.42 13.61
1/8/2023 11:30:00 AM 3.14 37.652 0.117 7.17 3.55 13.59
1/8/2023 11:45:00 AM 3.23 37.814 0.117 7.17 3.87 13.57
1/8/2023 12:00:00 PM 3.35 38.03 0.117 7.18 3.79 13.54
1/8/2023 12:15:00 PM 3.45 38.21 0.117 7.18 3.64 13.51
1/8/2023 12:30:00 PM 3.54 38.372 0.117 7.19 3.65 13.49
1/8/2023 12:45:00 PM 3.66 38.588 0.117 7.19 3.62 13.45
1/8/2023 1:00:00 PM 3.78 38.804 0.117 7.19 3.54 13.41
1/8/2023 1:15:00 PM 3.89 39.002 0.117 7.19 3.55 13.36
1/8/2023 1:30:00 PM 3.98 39.164 0.117 7.2 3.52 13.33
1/8/2023 1:45:00 PM 4.04 39.272 0.117 7.2 3.59 13.3
1/8/2023 2:00:00 PM 4.09 39.362 0.117 7.2 3.69 13.26
1/8/2023 2:15:00 PM 4.12 39.416 0.117 7.21 3.53 13.24
1/8/2023 2:30:00 PM 4.13 39.434 0.117 7.2 3.68 13.22
1/8/2023 2:45:00 PM 4.11 39.398 0.117 7.21 4 13.22
1/8/2023 3:00:00 PM 4.08 39.344 0.117 7.21 3.47 13.21
1/8/2023 3:15:00 PM 4.04 39.272 0.117 7.21 3.47 13.21
1/8/2023 3:30:00 PM 3.99 39.182 0.117 7.21 3.28 13.2
1/8/2023 3:45:00 PM 3.93 39.074 0.117 7.21 3.55 13.2
1/8/2023 4:00:00 PM 3.87 38.966 0.117 7.16 3.4 13.2
1/8/2023 4:15:00 PM 3.8 38.84 0.117 7.21 3.59 13.21
1/8/2023 4:30:00 PM 3.74 38.732 0.117 7.2 3.45 13.21
1/8/2023 4:45:00 PM 3.67 38.606 0.117 7.2 3.45 13.21
1/8/2023 5:00:00 PM 3.6 38.48 0.118 7.2 3.59 13.21
1/8/2023 5:15:00 PM 3.54 38.372 0.118 7.19 3.67 13.21
1/8/2023 5:30:00 PM 3.47 38.246 0.118 7.18 3.76 13.21
1/8/2023 5:45:00 PM 3.4 38.12 0.118 7.17 3.5 13.22
1/8/2023 6:00:00 PM 3.34 38.012 0.118 7.16 3.85 13.23
1/8/2023 6:15:00 PM 3.27 37.886 0.118 7.16 3.84 13.24
1/8/2023 6:30:00 PM 3.21 37.778 0.118 7.15 3.85 13.26
1/8/2023 6:45:00 PM 3.15 37.67 0.118 7.15 3.81 13.28
1/8/2023 7:00:00 PM 3.09 37.562 0.118 7.14 3.71 13.3
1/8/2023 7:15:00 PM 3.03 37.454 0.118 7.14 3.86 13.31
1/8/2023 7:30:00 PM 2.97 37.346 0.118 7.13 3.59 13.33
1/8/2023 7:45:00 PM 2.92 37.256 0.118 7.13 3.3 13.35
1/8/2023 8:00:00 PM 2.87 37.166 0.118 7.12 3.43 13.36
1/8/2023 8:15:00 PM 2.82 37.076 0.118 7.13 3.23 13.38
1/8/2023 8:30:00 PM 2.77 36.986 0.118 7.12 3.57 13.4
1/8/2023 8:45:00 PM 2.71 36.878 0.118 7.12 3.58 13.42
1/8/2023 9:00:00 PM 2.66 36.788 0.118 7.12 3.34 13.43
1/8/2023 9:15:00 PM 2.61 36.698 0.118 7.11 3.67 13.45
1/8/2023 9:30:00 PM 2.57 36.626 0.118 7.11 3.34 13.46
1/8/2023 9:45:00 PM 2.54 36.572 0.119 7.11 3.47 13.48
1/8/2023 10:00:00 PM 2.51 36.518 0.119 7.11 3.53 13.5
1/8/2023 10:15:00 PM 2.49 36.482 0.119 7.11 3.42 13.5
1/8/2023 10:30:00 PM 2.45 36.41 0.119 7.11 3.45 13.51
1/8/2023 10:45:00 PM 2.41 36.338 0.119 7.11 3.36 13.52
1/8/2023 11:00:00 PM 2.37 36.266 0.119 7.11 3.64 13.54
1/8/2023 11:15:00 PM 2.33 36.194 0.119 7.11 3.58 13.54
1/8/2023 11:30:00 PM 2.3 36.14 0.119 7.11 3.56 13.55
1/8/2023 11:45:00 PM 2.28 36.104 0.119 7.11 3.38 13.56
1/9/2023 12:00:00 AM 2.27 36.086 0.119 7.11 3.28 13.56
1/9/2023 12:15:00 AM 2.26 36.068 0.119 7.11 3.72 13.56
1/9/2023 12:30:00 AM 2.25 36.05 0.119 7.11 3.65 13.57
1/9/2023 12:45:00 AM 2.24 36.032 0.119 7.12 3.49 13.57
1/9/2023 1:00:00 AM 2.23 36.014 0.119 7.12 3.36 13.57
1/9/2023 1:15:00 AM 2.2 35.96 0.119 7.12 3.63 13.58
1/9/2023 1:30:00 AM 2.17 35.906 0.119 7.11 3.85 13.59
1/9/2023 1:45:00 AM 2.15 35.87 0.12 7.12 3.76 13.59
1/9/2023 2:00:00 AM 2.14 35.852 0.12 7.12 3.26 13.6
1/9/2023 2:15:00 AM 2.13 35.834 0.12 7.12 3.57 13.6
1/9/2023 2:30:00 AM 2.13 35.834 0.12 7.12 3.61 13.61
1/9/2023 2:45:00 AM 2.13 35.834 0.12 7.12 3.39 13.61
1/9/2023 3:00:00 AM 2.12 35.816 0.12 7.12 3.45 13.61
1/9/2023 3:15:00 AM 2.11 35.798 0.12 7.13 3.39 13.62
1/9/2023 3:30:00 AM 2.11 35.798 0.12 7.13 3.47 13.62
1/9/2023 3:45:00 AM 2.1 35.78 0.12 7.13 3.56 13.62
1/9/2023 4:00:00 AM 2.09 35.762 0.12 7.13 3.57 13.63
1/9/2023 4:15:00 AM 2.09 35.762 0.12 7.13 3.25 13.62
1/9/2023 4:30:00 AM 2.08 35.744 0.12 7.13 3.51 13.62
1/9/2023 4:45:00 AM 2.08 35.744 0.12 7.13 3.53 13.63
1/9/2023 5:00:00 AM 2.05 35.69 0.12 7.13 3.41 13.63
1/9/2023 5:15:00 AM 2.02 35.636 0.12 7.13 3.22 13.64
1/9/2023 5:30:00 AM 1.99 35.582 0.12 7.13 3.26 13.64
1/9/2023 5:45:00 AM 1.97 35.546 0.12 7.13 3.19 13.65
1/9/2023 6:00:00 AM 1.97 35.546 0.12 7.13 3.18 13.66
1/9/2023 6:15:00 AM 1.97 35.546 0.12 7.13 3.35 13.66
1/9/2023 6:30:00 AM 1.97 35.546 0.12 7.13 3.23 13.66
1/9/2023 6:45:00 AM 1.97 35.546 0.12 7.13 3.11 13.66
1/9/2023 7:00:00 AM 1.97 35.546 0.12 7.13 3.35 13.67
1/9/2023 7:15:00 AM 1.97 35.546 0.12 7.14 3.23 13.67
1/9/2023 7:30:00 AM 1.98 35.564 0.121 7.14 3.28 13.67
1/9/2023 7:45:00 AM 1.98 35.564 0.121 7.13 3.21 13.67
1/9/2023 8:00:00 AM 1.98 35.564 0.121 7.14 3.3 13.67
1/9/2023 8:15:00 AM 1.99 35.582 0.121 7.14 3.01 13.68
1/9/2023 8:30:00 AM 2.01 35.618 0.121 7.14 3.28 13.69
1/9/2023 8:45:00 AM 2.02 35.636 0.121 7.14 3.36 13.7
1/9/2023 9:00:00 AM 2.04 35.672 0.121 7.15 3.16 13.7
1/9/2023 9:15:00 AM 2.06 35.708 0.121 7.15 3.21 13.71
1/9/2023 9:30:00 AM 2.09 35.762 0.121 7.15 3.14 13.72
1/9/2023 9:45:00 AM 2.11 35.798 0.121 7.16 3.06 13.72
1/9/2023 10:00:00 AM 2.14 35.852 0.121 7.16 3.07 13.72
1/9/2023 10:15:00 AM 2.17 35.906 0.121 7.16 2.97 13.73
1/9/2023 10:30:00 AM 2.21 35.978 0.121 7.18 3.07 13.73
1/9/2023 10:45:00 AM 2.26 36.068 0.121 7.18 2.92 13.74
1/9/2023 11:00:00 AM 2.31 36.158 0.121 7.18 3.07 13.72
1/9/2023 11:15:00 AM 2.37 36.266 0.121 7.19 2.87 13.73
1/9/2023 11:30:00 AM 2.43 36.374 0.121 7.19 2.96 13.71
1/9/2023 11:45:00 AM 2.5 36.5 0.121 7.2 2.92 13.71
1/9/2023 12:00:00 PM 2.59 36.662 0.121 7.2 3.13 13.69
1/9/2023 12:15:00 PM 2.65 36.77 0.121 7.2 2.9 13.66
1/9/2023 12:30:00 PM 2.73 36.914 0.121 7.2 2.92 13.63
1/9/2023 12:45:00 PM 2.89 37.202 0.121 7.21 3.03 13.61
1/9/2023 1:00:00 PM 3.03 37.454 0.121 7.21 3.07 13.57
1/9/2023 1:15:00 PM 3.16 37.688 0.121 7.21 2.99 13.52
1/9/2023 1:30:00 PM 3.28 37.904 0.121 7.21 3.15 13.47
1/9/2023 1:45:00 PM 3.38 38.084 0.12 7.22 2.91 13.44
1/9/2023 2:00:00 PM 3.45 38.21 0.121 7.22 2.83 13.4
1/9/2023 2:15:00 PM 3.52 38.336 0.12 7.22 2.88 13.36
1/9/2023 2:30:00 PM 3.58 38.444 0.121 7.23 3.12 13.32
1/9/2023 2:45:00 PM 3.63 38.534 0.121 7.21 3.19 13.29
1/9/2023 3:00:00 PM 3.65 38.57 0.121 7.23 2.9 13.27
1/9/2023 3:15:00 PM 3.65 38.57 0.121 7.23 2.99 13.26
1/9/2023 3:30:00 PM 3.62 38.516 0.121 7.23 3.24 13.25
1/9/2023 3:45:00 PM 3.57 38.426 0.121 7.23 2.98 13.24
1/9/2023 4:00:00 PM 3.51 38.318 0.121 7.23 3.3 13.24
1/9/2023 4:15:00 PM 3.44 38.192 0.121 7.23 3.13 13.25
1/9/2023 4:30:00 PM 3.37 38.066 0.121 7.22 3.06 13.25
1/9/2023 4:45:00 PM 3.3 37.94 0.121 7.22 2.86 13.26
1/9/2023 5:00:00 PM 3.22 37.796 0.121 7.21 3.12 13.26
1/9/2023 5:15:00 PM 3.15 37.67 0.121 7.21 3.68 13.27
1/9/2023 5:30:00 PM 3.07 37.526 0.121 7.2 3.54 13.28
1/9/2023 5:45:00 PM 3.01 37.418 0.121 7.19 3.2 13.29
1/9/2023 6:00:00 PM 2.94 37.292 0.121 7.18 3.37 13.29
1/9/2023 6:15:00 PM 2.88 37.184 0.121 7.18 3.29 13.31
1/9/2023 6:30:00 PM 2.82 37.076 0.121 7.17 3.3 13.32
1/9/2023 6:45:00 PM 2.76 36.968 0.121 7.17 3.39 13.34
1/9/2023 7:00:00 PM 2.71 36.878 0.121 7.16 3.47 13.35
1/9/2023 7:15:00 PM 2.67 36.806 0.121 7.16 3.29 13.37
1/9/2023 7:30:00 PM 2.63 36.734 0.121 7.16 3.29 13.38
1/9/2023 7:45:00 PM 2.59 36.662 0.121 7.16 3.34 13.39
1/9/2023 8:00:00 PM 2.57 36.626 0.121 7.15 3.42 13.4
1/9/2023 8:15:00 PM 2.54 36.572 0.121 7.15 3.43 13.42
1/9/2023 8:30:00 PM 2.51 36.518 0.121 7.15 3.75 13.44
1/9/2023 8:45:00 PM 2.49 36.482 0.121 7.15 3.19 13.44
1/9/2023 9:00:00 PM 2.47 36.446 0.121 7.15 3.11 13.46
1/9/2023 9:15:00 PM 2.46 36.428 0.121 7.14 3.14 13.46
1/9/2023 9:30:00 PM 2.44 36.392 0.121 7.14 2.96 13.47
1/9/2023 9:45:00 PM 2.44 36.392 0.121 7.14 3.14 13.47
1/9/2023 10:00:00 PM 2.44 36.392 0.121 7.14 3.14 13.49
1/9/2023 10:15:00 PM 2.44 36.392 0.122 7.15 3.27 13.49
1/9/2023 10:30:00 PM 2.44 36.392 0.122 7.15 3.23 13.48
1/9/2023 10:45:00 PM 2.45 36.41 0.122 7.15 3.06 13.49
1/9/2023 11:00:00 PM 2.45 36.41 0.122 7.15 3.29 13.48
1/9/2023 11:15:00 PM 2.45 36.41 0.123 7.15 3.23 13.49
1/9/2023 11:30:00 PM 2.46 36.428 0.123 7.15 3.12 13.48
1/9/2023 11:45:00 PM 2.47 36.446 0.123 7.15 3.02 13.48
1/10/2023 12:00:00 AM 2.47 36.446 0.123 7.16 3.14 13.47
1/10/2023 12:15:00 AM 2.48 36.464 0.123 7.16 3.01 13.47
1/10/2023 12:30:00 AM 2.48 36.464 0.123 7.16 2.81 13.47
1/10/2023 12:45:00 AM 2.49 36.482 0.123 7.16 3.1 13.46
1/10/2023 1:00:00 AM 2.5 36.5 0.123 7.16 3.32 13.46
1/10/2023 1:15:00 AM 2.5 36.5 0.123 7.14 2.9 13.47
1/10/2023 1:30:00 AM 2.5 36.5 0.123 7.16 3.02 13.46
1/10/2023 1:45:00 AM 2.5 36.5 0.123 7.16 3 13.47
1/10/2023 2:00:00 AM 2.51 36.518 0.123 7.16 3.25 13.47
1/10/2023 2:15:00 AM 2.51 36.518 0.123 7.16 3.06 13.46
1/10/2023 2:30:00 AM 2.52 36.536 0.123 7.16 3.16 13.46
1/10/2023 2:45:00 AM 2.52 36.536 0.123 7.16 2.98 13.46
1/10/2023 3:00:00 AM 2.52 36.536 0.123 7.16 3.31 13.46
1/10/2023 3:15:00 AM 2.52 36.536 0.123 7.16 2.97 13.45
1/10/2023 3:30:00 AM 2.52 36.536 0.123 7.16 3.1 13.45
1/10/2023 3:45:00 AM 2.53 36.554 0.123 7.16 3.05 13.46
1/10/2023 4:00:00 AM 2.53 36.554 0.123 7.16 3.33 13.46
1/10/2023 4:15:00 AM 2.54 36.572 0.123 7.16 3.07 13.45
1/10/2023 4:30:00 AM 2.55 36.59 0.123 7.16 3.03 13.44
1/10/2023 4:45:00 AM 2.56 36.608 0.123 7.16 3.26 13.45
1/10/2023 5:00:00 AM 2.56 36.608 0.123 7.16 3.21 13.45
1/10/2023 5:15:00 AM 2.57 36.626 0.123 7.16 2.93 13.44
1/10/2023 5:30:00 AM 2.57 36.626 0.123 7.16 2.83 13.44
1/10/2023 5:45:00 AM 2.58 36.644 0.123 7.16 2.79 13.45
1/10/2023 6:00:00 AM 2.58 36.644 0.123 7.16 2.85 13.43
1/10/2023 6:15:00 AM 2.59 36.662 0.123 7.16 2.92 13.44
1/10/2023 6:30:00 AM 2.59 36.662 0.123 7.16 3.15 13.44
1/10/2023 6:45:00 AM 2.6 36.68 0.123 7.16 2.89 13.44
1/10/2023 7:00:00 AM 2.6 36.68 0.123 7.16 3.13 13.44
1/10/2023 7:15:00 AM 2.6 36.68 0.123 7.16 3.81 13.43
1/10/2023 7:30:00 AM 2.6 36.68 0.123 7.16 2.84 13.43
1/10/2023 7:45:00 AM 2.6 36.68 0.123 7.16 2.99 13.44
1/10/2023 8:00:00 AM 2.6 36.68 0.123 7.16 2.92 13.44
1/10/2023 8:15:00 AM 2.6 36.68 0.123 7.16 3 13.45
1/10/2023 8:30:00 AM 2.6 36.68 0.123 7.17 2.89 13.46
1/10/2023 8:45:00 AM 2.6 36.68 0.123 7.17 3.03 13.46
1/10/2023 9:00:00 AM 2.61 36.698 0.123 7.17 2.97 13.47
1/10/2023 9:15:00 AM 2.61 36.698 0.123 7.17 2.97 13.48
1/10/2023 9:30:00 AM 2.62 36.716 0.123 7.17 2.85 13.49
1/10/2023 9:45:00 AM 2.64 36.752 0.123 7.17 2.76 13.5
1/10/2023 10:00:00 AM 2.67 36.806 0.123 7.18 2.71 13.51
1/10/2023 10:15:00 AM 2.7 36.86 0.123 7.18 2.92 13.52
1/10/2023 10:30:00 AM 2.74 36.932 0.123 7.18 2.77 13.52
1/10/2023 10:45:00 AM 2.78 37.004 0.123 7.19 2.84 13.53
1/10/2023 11:00:00 AM 2.82 37.076 0.123 7.19 2.9 13.53
1/10/2023 11:15:00 AM 2.84 37.112 0.123 7.19 2.57 13.52
1/10/2023 11:30:00 AM 2.87 37.166 0.123 7.19 2.71 13.52
1/10/2023 11:45:00 AM 2.9 37.22 0.123 7.2 2.67 13.51
1/10/2023 12:00:00 PM 2.92 37.256 0.123 7.2 2.6 13.5
1/10/2023 12:15:00 PM 2.93 37.274 0.123 7.2 2.62 13.49
1/10/2023 12:30:00 PM 2.94 37.292 0.123 7.2 2.63 13.48
1/10/2023 12:45:00 PM 2.95 37.31 0.123 7.2 2.64 13.48
1/10/2023 1:00:00 PM 2.96 37.328 0.123 7.2 2.71 13.47
1/10/2023 1:15:00 PM 2.96 37.328 0.123 7.2 2.79 13.46
1/10/2023 1:30:00 PM 2.96 37.328 0.123 7.2 2.74 13.45
1/10/2023 1:45:00 PM 2.97 37.346 0.123 7.19 3.04 13.46
1/10/2023 2:00:00 PM 2.98 37.364 0.123 7.2 2.91 13.44
1/10/2023 2:15:00 PM 2.98 37.364 0.123 7.2 2.97 13.44
1/10/2023 2:30:00 PM 2.99 37.382 0.123 7.2 3.22 13.44
1/10/2023 2:45:00 PM 2.99 37.382 0.123 7.2 3.23 13.44
1/10/2023 3:00:00 PM 2.99 37.382 0.123 7.2 3.74 13.44
1/10/2023 3:15:00 PM 2.99 37.382 0.123 7.2 3.48 13.43
1/10/2023 3:30:00 PM 3 37.4 0.123 7.2 3.21 13.43
1/10/2023 3:45:00 PM 3 37.4 0.123 7.2 3.06 13.43
1/10/2023 4:00:00 PM 3 37.4 0.123 7.2 2.7 13.42
1/10/2023 4:15:00 PM 3 37.4 0.123 7.2 2.81 13.41
1/10/2023 4:30:00 PM 2.99 37.382 0.123 7.2 2.88 13.4
1/10/2023 4:45:00 PM 2.98 37.364 0.123 7.19 3.67 13.38
1/10/2023 5:00:00 PM 2.97 37.346 0.123 7.19 3.66 13.37
1/10/2023 5:15:00 PM 2.96 37.328 0.123 7.18 3.27 13.37
1/10/2023 5:30:00 PM 2.95 37.31 0.123 7.18 3.11 13.36
1/10/2023 5:45:00 PM 2.94 37.292 0.123 7.18 3.47 13.35
1/10/2023 6:00:00 PM 2.93 37.274 0.123 7.18 3.31 13.35
1/10/2023 6:15:00 PM 2.93 37.274 0.123 7.17 3.33 13.34
1/10/2023 6:30:00 PM 2.92 37.256 0.123 7.18 3.22 13.34
1/10/2023 6:45:00 PM 2.91 37.238 0.123 7.17 3.08 13.34
1/10/2023 7:00:00 PM 2.91 37.238 0.124 7.17 2.99 13.34
1/10/2023 7:15:00 PM 2.9 37.22 0.124 7.17 2.94 13.35
1/10/2023 7:30:00 PM 2.89 37.202 0.124 7.17 3.11 13.35
1/10/2023 7:45:00 PM 2.89 37.202 0.124 7.17 3.04 13.35
1/10/2023 8:00:00 PM 2.88 37.184 0.124 7.17 2.93 13.35
1/10/2023 8:15:00 PM 2.87 37.166 0.124 7.17 2.87 13.35
1/10/2023 8:30:00 PM 2.86 37.148 0.124 7.17 3.03 13.35
1/10/2023 8:45:00 PM 2.85 37.13 0.124 7.17 2.84 13.36
1/10/2023 9:00:00 PM 2.84 37.112 0.124 7.17 2.94 13.36
1/10/2023 9:15:00 PM 2.84 37.112 0.124 7.17 2.81 13.36
1/10/2023 9:30:00 PM 2.83 37.094 0.124 7.16 2.76 13.36
1/10/2023 9:45:00 PM 2.82 37.076 0.124 7.16 2.75 13.37
1/10/2023 10:00:00 PM 2.82 37.076 0.124 7.16 2.56 13.37
1/10/2023 10:15:00 PM 2.81 37.058 0.124 7.16 2.71 13.38
1/10/2023 10:30:00 PM 2.8 37.04 0.124 7.16 2.75 13.37
1/10/2023 10:45:00 PM 2.8 37.04 0.124 7.16 2.77 13.38
1/10/2023 11:00:00 PM 2.79 37.022 0.124 7.17 2.71 13.38
1/10/2023 11:15:00 PM 2.78 37.004 0.124 7.16 2.89 13.39
1/10/2023 11:30:00 PM 2.78 37.004 0.124 7.16 2.71 13.4
1/10/2023 11:45:00 PM 2.77 36.986 0.124 7.16 2.81 13.39
1/11/2023 12:00:00 AM 2.76 36.968 0.124 7.16 2.74 13.4
1/11/2023 12:15:00 AM 2.76 36.968 0.124 7.14 2.63 13.39
1/11/2023 12:30:00 AM 2.75 36.95 0.125 7.17 2.89 13.39
1/11/2023 12:45:00 AM 2.74 36.932 0.124 7.17 2.73 13.4
1/11/2023 1:00:00 AM 2.74 36.932 0.125 7.16 2.65 13.4
1/11/2023 1:15:00 AM 2.73 36.914 0.125 7.16 2.65 13.41
1/11/2023 1:30:00 AM 2.72 36.896 0.125 7.16 2.76 13.4
1/11/2023 1:45:00 AM 2.72 36.896 0.125 7.16 2.64 13.41
1/11/2023 2:00:00 AM 2.72 36.896 0.125 7.16 2.62 13.41
1/11/2023 2:15:00 AM 2.71 36.878 0.125 7.16 2.62 13.41
1/11/2023 2:30:00 AM 2.7 36.86 0.125 7.16 2.8 13.41
1/11/2023 2:45:00 AM 2.7 36.86 0.125 7.16 2.63 13.42
1/11/2023 3:00:00 AM 2.69 36.842 0.125 7.16 2.96 13.43
1/11/2023 3:15:00 AM 2.69 36.842 0.125 7.16 2.8 13.43
1/11/2023 3:30:00 AM 2.69 36.842 0.125 7.16 2.6 13.43
1/11/2023 3:45:00 AM 2.68 36.824 0.125 7.16 2.77 13.43
1/11/2023 4:00:00 AM 2.67 36.806 0.125 7.16 2.74 13.43
1/11/2023 4:15:00 AM 2.67 36.806 0.125 7.16 2.89 13.43
1/11/2023 4:30:00 AM 2.66 36.788 0.125 7.16 2.85 13.44
1/11/2023 4:45:00 AM 2.65 36.77 0.125 7.16 2.71 13.44
1/11/2023 5:00:00 AM 2.65 36.77 0.125 7.16 2.34 13.44
1/11/2023 5:15:00 AM 2.64 36.752 0.125 7.16 2.6 13.44
1/11/2023 5:30:00 AM 2.63 36.734 0.126 7.16 2.51 13.44
1/11/2023 5:45:00 AM 2.62 36.716 0.126 7.16 2.66 13.45
1/11/2023 6:00:00 AM 2.61 36.698 0.126 7.16 2.37 13.45
1/11/2023 6:15:00 AM 2.6 36.68 0.126 7.16 2.57 13.46
1/11/2023 6:30:00 AM 2.6 36.68 0.126 7.16 2.85 13.46
1/11/2023 6:45:00 AM 2.59 36.662 0.126 7.16 2.42 13.47
1/11/2023 7:00:00 AM 2.59 36.662 0.126 7.16 2.59 13.46
1/11/2023 7:15:00 AM 2.58 36.644 0.126 7.16 2.64 13.48
1/11/2023 7:30:00 AM 2.58 36.644 0.126 7.16 2.64 13.47
1/11/2023 7:45:00 AM 2.58 36.644 0.126 7.16 2.48 13.47
1/11/2023 8:00:00 AM 2.57 36.626 0.126 7.16 2.4 13.48
1/11/2023 8:15:00 AM 2.58 36.644 0.126 7.15 2.52 13.5
1/11/2023 8:30:00 AM 2.59 36.662 0.126 7.17 2.48 13.52
1/11/2023 8:45:00 AM 2.6 36.68 0.126 7.17 2.48 13.54
1/11/2023 9:00:00 AM 2.62 36.716 0.126 7.17 2.57 13.57
1/11/2023 9:15:00 AM 2.66 36.788 0.126 7.17 2.66 13.57
1/11/2023 9:30:00 AM 2.7 36.86 0.126 7.18 2.39 13.58
1/11/2023 9:45:00 AM 2.75 36.95 0.126 7.18 2.57 13.6
1/11/2023 10:00:00 AM 2.81 37.058 0.126 7.18 2.52 13.6
1/11/2023 10:15:00 AM 2.87 37.166 0.126 7.18 2.48 13.58
1/11/2023 10:30:00 AM 2.93 37.274 0.126 7.14 2.4 13.58
1/11/2023 10:45:00 AM 3.01 37.418 0.126 7.2 2.57 13.57
1/11/2023 11:00:00 AM 3.09 37.562 0.126 7.2 2.58 13.55
1/11/2023 11:15:00 AM 3.16 37.688 0.126 7.2 2.63 13.53
1/11/2023 11:30:00 AM 3.22 37.796 0.126 7.21 2.31 13.51
1/11/2023 11:45:00 AM 3.3 37.94 0.126 7.21 2.44 13.49
1/11/2023 12:00:00 PM 3.38 38.084 0.126 7.21 2.49 13.47
1/11/2023 12:15:00 PM 3.47 38.246 0.126 7.21 2.39 13.44
1/11/2023 12:30:00 PM 3.55 38.39 0.126 7.22 2.6 13.41
1/11/2023 12:45:00 PM 3.63 38.534 0.126 7.22 2.59 13.39
1/11/2023 1:00:00 PM 3.7 38.66 0.126 7.22 2.41 13.36
1/11/2023 1:15:00 PM 3.78 38.804 0.126 7.22 2.63 13.33
1/11/2023 1:30:00 PM 3.85 38.93 0.126 7.23 2.54 13.3
1/11/2023 1:45:00 PM 3.92 39.056 0.126 7.23 2.36 13.27
1/11/2023 2:00:00 PM 3.97 39.146 0.126 7.23 2.45 13.24
1/11/2023 2:15:00 PM 4.01 39.218 0.126 7.23 2.49 13.21
1/11/2023 2:30:00 PM 4.05 39.29 0.126 7.24 2.63 13.2
1/11/2023 2:45:00 PM 4.07 39.326 0.126 7.24 2.66 13.18
1/11/2023 3:00:00 PM 4.08 39.344 0.126 7.24 2.5 13.17
1/11/2023 3:15:00 PM 4.07 39.326 0.126 7.24 2.36 13.16
1/11/2023 3:30:00 PM 4.05 39.29 0.126 7.24 2.49 13.15
1/11/2023 3:45:00 PM 4.03 39.254 0.126 7.24 2.42 13.15
1/11/2023 4:00:00 PM 4 39.2 0.127 7.24 2.54 13.15
1/11/2023 4:15:00 PM 3.96 39.128 0.127 7.23 2.47 13.14
1/11/2023 4:30:00 PM 3.92 39.056 0.127 7.23 2.27 13.12
1/11/2023 4:45:00 PM 3.89 39.002 0.127 7.23 2.51 13.11
1/11/2023 5:00:00 PM 3.86 38.948 0.127 7.22 2.55 13.09
1/11/2023 5:15:00 PM 3.82 38.876 0.127 7.22 2.32 13.08
1/11/2023 5:30:00 PM 3.79 38.822 0.127 7.21 2.33 13.07
1/11/2023 5:45:00 PM 3.76 38.768 0.127 7.21 2.64 13.07
1/11/2023 6:00:00 PM 3.74 38.732 0.127 7.2 2.42 13.06
1/11/2023 6:15:00 PM 3.71 38.678 0.127 7.2 2.75 13.07
1/11/2023 6:30:00 PM 3.67 38.606 0.127 7.2 2.75 13.06
1/11/2023 6:45:00 PM 3.62 38.516 0.127 7.2 2.79 13.07
1/11/2023 7:00:00 PM 3.57 38.426 0.127 7.19 2.76 13.08
1/11/2023 7:15:00 PM 3.53 38.354 0.127 7.19 2.62 13.09
1/11/2023 7:30:00 PM 3.51 38.318 0.127 7.18 2.6 13.1
1/11/2023 7:45:00 PM 3.48 38.264 0.127 7.18 2.77 13.11
1/11/2023 8:00:00 PM 3.44 38.192 0.127 7.17 3.07 13.12
1/11/2023 8:15:00 PM 3.41 38.138 0.127 7.17 2.75 13.13
1/11/2023 8:30:00 PM 3.38 38.084 0.127 7.17 2.76 13.13
1/11/2023 8:45:00 PM 3.37 38.066 0.127 7.17 2.63 13.14
1/11/2023 9:00:00 PM 3.35 38.03 0.127 7.17 2.71 13.14
1/11/2023 9:15:00 PM 3.34 38.012 0.127 7.17 2.98 13.16
1/11/2023 9:30:00 PM 3.32 37.976 0.128 7.16 2.85 13.16
1/11/2023 9:45:00 PM 3.31 37.958 0.128 7.16 2.81 13.17
1/11/2023 10:00:00 PM 3.29 37.922 0.128 7.16 2.97 13.17
1/11/2023 10:15:00 PM 3.27 37.886 0.128 7.16 3.04 13.18
1/11/2023 10:30:00 PM 3.23 37.814 0.128 7.16 3.04 13.19
1/11/2023 10:45:00 PM 3.18 37.724 0.128 7.16 3.05 13.21
1/11/2023 11:00:00 PM 3.14 37.652 0.128 7.16 2.72 13.22
1/11/2023 11:15:00 PM 3.09 37.562 0.128 7.16 2.78 13.23
1/11/2023 11:30:00 PM 3.08 37.544 0.128 7.16 2.71 13.24
1/11/2023 11:45:00 PM 3.07 37.526 0.128 7.15 2.8 13.25
1/12/2023 12:00:00 AM 3.06 37.508 0.128 7.15 2.72 13.25
1/12/2023 12:15:00 AM 3.06 37.508 0.128 7.16 2.66 13.26
1/12/2023 12:30:00 AM 3.06 37.508 0.128 7.16 2.79 13.26
1/12/2023 12:45:00 AM 3.06 37.508 0.128 7.15 2.8 13.26
1/12/2023 1:00:00 AM 3.05 37.49 0.128 7.16 2.77 13.26
1/12/2023 1:15:00 AM 3.05 37.49 0.128 7.16 2.6 13.26
1/12/2023 1:30:00 AM 3.05 37.49 0.128 7.16 2.67 13.26
1/12/2023 1:45:00 AM 3.04 37.472 0.128 7.16 2.46 13.27
1/12/2023 2:00:00 AM 3.04 37.472 0.128 7.16 2.58 13.27
1/12/2023 2:15:00 AM 3.04 37.472 0.128 7.16 2.48 13.26
1/12/2023 2:30:00 AM 3.04 37.472 0.128 7.16 2.6 13.27
1/12/2023 2:45:00 AM 3.03 37.454 0.129 7.16 2.53 13.27
1/12/2023 3:00:00 AM 3.03 37.454 0.129 7.16 2.31 13.27
1/12/2023 3:15:00 AM 3.03 37.454 0.129 7.17 2.44 13.27
1/12/2023 3:30:00 AM 3.03 37.454 0.129 7.16 2.55 13.27
1/12/2023 3:45:00 AM 3.03 37.454 0.129 7.17 2.89 13.26
1/12/2023 4:00:00 AM 3.03 37.454 0.129 7.17 2.58 13.26
1/12/2023 4:15:00 AM 3.03 37.454 0.129 7.17 2.53 13.26
1/12/2023 4:30:00 AM 3.02 37.436 0.129 7.17 2.47 13.26
1/12/2023 4:45:00 AM 3.03 37.454 0.129 7.17 2.47 13.26
1/12/2023 5:00:00 AM 3.02 37.436 0.129 7.17 2.29 13.26
1/12/2023 5:15:00 AM 3.02 37.436 0.129 7.17 2.2 13.26
1/12/2023 5:30:00 AM 3.01 37.418 0.129 7.17 2.28 13.26
1/12/2023 5:45:00 AM 3.01 37.418 0.129 7.17 2.32 13.25
1/12/2023 6:00:00 AM 3.01 37.418 0.129 7.17 2.5 13.26
1/12/2023 6:15:00 AM 3 37.4 0.129 7.17 2.35 13.26
1/12/2023 6:30:00 AM 3 37.4 0.129 7.17 2.46 13.26
1/12/2023 6:45:00 AM 2.99 37.382 0.129 7.17 2.4 13.26
1/12/2023 7:00:00 AM 2.99 37.382 0.129 7.17 2.24 13.26
1/12/2023 7:15:00 AM 2.98 37.364 0.129 7.17 2.23 13.27
1/12/2023 7:30:00 AM 2.97 37.346 0.129 7.17 2.59 13.27
1/12/2023 7:45:00 AM 2.97 37.346 0.129 7.17 2.43 13.27
1/12/2023 8:00:00 AM 2.97 37.346 0.129 7.17 2.35 13.27
1/12/2023 8:15:00 AM 2.97 37.346 0.129 7.17 2.32 13.27
1/12/2023 8:30:00 AM 2.98 37.364 0.129 7.17 2.39 13.29
1/12/2023 8:45:00 AM 2.99 37.382 0.129 7.17 2.39 13.3
1/12/2023 9:00:00 AM 3 37.4 0.129 7.18 2.38 13.3
1/12/2023 9:15:00 AM 3.01 37.418 0.129 7.18 2.35 13.32
1/12/2023 9:30:00 AM 3.04 37.472 0.129 7.18 2.31 13.34
1/12/2023 9:45:00 AM 3.06 37.508 0.129 7.18 2.35 13.36
1/12/2023 10:00:00 AM 3.1 37.58 0.129 7.19 2.39 13.37
1/12/2023 10:15:00 AM 3.14 37.652 0.129 7.19 2.3 13.38
1/12/2023 10:30:00 AM 3.18 37.724 0.129 7.2 2.33 13.38
1/12/2023 10:45:00 AM 3.22 37.796 0.129 7.2 2.32 13.38
1/12/2023 11:00:00 AM 3.26 37.868 0.129 7.21 2.42 13.36
1/12/2023 11:15:00 AM 3.29 37.922 0.129 7.21 2.23 13.35
1/12/2023 11:30:00 AM 3.32 37.976 0.129 7.22 2.24 13.34
1/12/2023 11:45:00 AM 3.37 38.066 0.129 7.22 2.4 13.33
1/12/2023 12:00:00 PM 3.4 38.12 0.129 7.22 2.17 13.32
1/12/2023 12:15:00 PM 3.43 38.174 0.129 7.22 2.19 13.31
1/12/2023 12:30:00 PM 3.47 38.246 0.129 7.22 2.99 13.29
1/12/2023 12:45:00 PM 3.5 38.3 0.129 7.23 2.25 13.28
1/12/2023 1:00:00 PM 3.53 38.354 0.129 7.23 2.25 13.26
1/12/2023 1:15:00 PM 3.55 38.39 0.128 7.22 2.29 13.25
1/12/2023 1:30:00 PM 3.58 38.444 0.128 7.23 2.39 13.23
1/12/2023 1:45:00 PM 3.61 38.498 0.128 7.23 2.19 13.22
1/12/2023 2:00:00 PM 3.63 38.534 0.128 7.21 2.45 13.21
1/12/2023 2:15:00 PM 3.66 38.588 0.128 7.23 2.43 13.2
1/12/2023 2:30:00 PM 3.7 38.66 0.128 7.23 2.27 13.19
1/12/2023 2:45:00 PM 3.73 38.714 0.128 7.23 2.32 13.17
1/12/2023 3:00:00 PM 3.75 38.75 0.128 7.23 2.39 13.15
1/12/2023 3:15:00 PM 3.77 38.786 0.128 7.23 2.33 13.13
1/12/2023 3:30:00 PM 3.79 38.822 0.128 7.21 2.3 13.11
1/12/2023 3:45:00 PM 3.81 38.858 0.128 7.23 2.38 13.09
1/12/2023 4:00:00 PM 3.81 38.858 0.128 7.23 2.51 13.07
1/12/2023 4:15:00 PM 3.82 38.876 0.128 7.22 2.3 13.05
1/12/2023 4:30:00 PM 3.82 38.876 0.128 7.22 2.67 13.02
1/12/2023 4:45:00 PM 3.83 38.894 0.127 7.22 2.61 13
1/12/2023 5:00:00 PM 3.83 38.894 0.127 7.21 2.72 12.98
1/12/2023 5:15:00 PM 3.84 38.912 0.127 7.21 2.68 12.96
1/12/2023 5:30:00 PM 3.84 38.912 0.127 7.21 2.87 12.94
1/12/2023 5:45:00 PM 3.85 38.93 0.127 7.21 2.82 12.92
1/12/2023 6:00:00 PM 3.85 38.93 0.126 7.21 2.8 12.91
1/12/2023 6:15:00 PM 3.86 38.948 0.126 7.21 2.74 12.9
1/12/2023 6:30:00 PM 3.87 38.966 0.126 7.2 2.93 12.9
1/12/2023 6:45:00 PM 3.88 38.984 0.126 7.2 2.96 12.88
1/12/2023 7:00:00 PM 3.89 39.002 0.126 7.2 2.8 12.87
1/12/2023 7:15:00 PM 3.9 39.02 0.126 7.2 3.11 12.86
1/12/2023 7:30:00 PM 3.91 39.038 0.126 7.2 3.13 12.86
1/12/2023 7:45:00 PM 3.93 39.074 0.126 7.2 3.22 12.85
1/12/2023 8:00:00 PM 3.94 39.092 0.126 7.2 3.21 12.83
1/12/2023 8:15:00 PM 3.95 39.11 0.126 7.2 3.49 12.83
1/12/2023 8:30:00 PM 3.97 39.146 0.125 7.2 3.86 12.83
1/12/2023 8:45:00 PM 3.98 39.164 0.125 7.2 4.49 12.82
1/12/2023 9:00:00 PM 3.99 39.182 0.125 7.2 5.44 12.81
1/12/2023 9:15:00 PM 4 39.2 0.125 7.2 6.03 12.81
1/12/2023 9:30:00 PM 4.01 39.218 0.125 7.2 6.04 12.81
1/12/2023 9:45:00 PM 4.01 39.218 0.125 7.2 6.2 12.81
1/12/2023 10:00:00 PM 4.02 39.236 0.125 7.21 6.33 12.81
1/12/2023 10:15:00 PM 4.03 39.254 0.125 7.21 6.5 12.8
1/12/2023 10:30:00 PM 4.05 39.29 0.125 7.21 7.18 12.81
1/12/2023 10:45:00 PM 4.07 39.326 0.125 7.21 8.56 12.8
1/12/2023 11:00:00 PM 4.09 39.362 0.125 7.22 9.92 12.8
1/12/2023 11:15:00 PM 4.11 39.398 0.125 7.22 10.74 12.79
1/12/2023 11:30:00 PM 4.12 39.416 0.125 7.22 12.37 12.79
1/12/2023 11:45:00 PM 4.13 39.434 0.125 7.23 12.12 12.79
1/13/2023 12:00:00 AM 4.13 39.434 0.125 7.22 12.23 12.79
1/13/2023 12:15:00 AM 4.14 39.452 0.124 7.23 12.41 12.78
1/13/2023 12:30:00 AM 4.14 39.452 0.124 7.23 13.06 12.78
1/13/2023 12:45:00 AM 4.15 39.47 0.124 7.23 13.44 12.77
1/13/2023 1:00:00 AM 4.17 39.506 0.124 7.23 12.04 12.77
1/13/2023 1:15:00 AM 4.18 39.524 0.124 7.23 11.41 12.76
1/13/2023 1:30:00 AM 4.19 39.542 0.124 7.22 11.02 12.75
1/13/2023 1:45:00 AM 4.2 39.56 0.123 7.22 11.85 12.75
1/13/2023 2:00:00 AM 4.21 39.578 0.123 7.22 10.95 12.74
1/13/2023 2:15:00 AM 4.22 39.596 0.123 7.22 11 12.74
1/13/2023 2:30:00 AM 4.23 39.614 0.123 7.21 10.49 12.73
1/13/2023 2:45:00 AM 4.23 39.614 0.122 7.21 10.79 12.72
1/13/2023 3:00:00 AM 4.24 39.632 0.122 7.21 10.4 12.72
1/13/2023 3:15:00 AM 4.25 39.65 0.122 7.21 10.66 12.72
1/13/2023 3:30:00 AM 4.26 39.668 0.122 7.2 10.63 12.71
1/13/2023 3:45:00 AM 4.27 39.686 0.122 7.21 10.93 12.71
1/13/2023 4:00:00 AM 4.28 39.704 0.123 7.2 11.01 12.7
1/13/2023 4:15:00 AM 4.29 39.722 0.123 7.2 11.26 12.7
1/13/2023 4:30:00 AM 4.3 39.74 0.123 7.2 12.46 12.7
1/13/2023 4:45:00 AM 4.31 39.758 0.123 7.2 13.2 12.7
1/13/2023 5:00:00 AM 4.32 39.776 0.123 7.21 15.1 12.7
1/13/2023 5:15:00 AM 4.33 39.794 0.123 7.22 16.22 12.71
1/13/2023 5:30:00 AM 4.34 39.812 0.123 7.22 18.58 12.72
1/13/2023 5:45:00 AM 4.36 39.848 0.122 7.22 29.73 12.72
1/13/2023 6:00:00 AM 4.36 39.848 0.122 7.23 22.51 12.72
1/13/2023 6:15:00 AM 4.36 39.848 0.122 7.24 35.65 12.74
1/13/2023 6:30:00 AM 4.35 39.83 0.122 7.24 30.34 12.75
1/13/2023 6:45:00 AM 4.33 39.794 0.122 7.25 35.88 12.76
1/13/2023 7:00:00 AM 4.32 39.776 0.121 7.25 44.56 12.78
1/13/2023 7:15:00 AM 4.3 39.74 0.121 7.25 52.39 12.8
1/13/2023 7:30:00 AM 4.28 39.704 0.12 7.26 57.1 12.81
1/13/2023 7:45:00 AM 4.27 39.686 0.118 7.24 64.11 12.82
1/13/2023 8:00:00 AM 4.25 39.65 0.116 7.25 67.08 12.84
1/13/2023 8:15:00 AM 4.23 39.614 0.114 7.25 68.77 12.86
1/13/2023 8:30:00 AM 4.21 39.578 0.112 7.24 64.64 12.88
1/13/2023 8:45:00 AM 4.18 39.524 0.111 7.24 62.16 12.9
1/13/2023 9:00:00 AM 4.16 39.488 0.109 7.23 63.57 12.92
1/13/2023 9:15:00 AM 4.13 39.434 0.108 7.22 60.42 12.93
1/13/2023 9:30:00 AM 4.11 39.398 0.107 7.2 52.82 12.95
1/13/2023 9:45:00 AM 4.09 39.362 0.107 7.2 46.18 12.96
1/13/2023 10:00:00 AM 4.07 39.326 0.106 7.2 46.46 12.97
1/13/2023 10:15:00 AM 4.06 39.308 0.105 7.19 46.84 13
1/13/2023 10:30:00 AM 4.05 39.29 0.105 7.19 41.14 13.01
1/13/2023 10:45:00 AM 4.03 39.254 0.104 7.18 40.38 13.02
1/13/2023 11:00:00 AM 4.02 39.236 0.104 7.18 36.24 13.03
1/13/2023 11:15:00 AM 4.03 39.254 0.103 7.18 31.6 13.04
1/13/2023 11:30:00 AM 4.02 39.236 0.103 7.16 30.09 13.04
1/13/2023 11:45:00 AM 4 39.2 0.103 7.17 32.86 13.05
1/13/2023 12:00:00 PM 4.02 39.236 0.102 7.17 32.28 13.06
1/13/2023 12:15:00 PM 4.01 39.218 0.102 7.16 30.27 13.07
1/13/2023 12:30:00 PM 4 39.2 0.101 7.17 30.42 13.07
1/13/2023 12:45:00 PM 3.97 39.146 0.101 7.16 23.02 13.07
1/13/2023 1:00:00 PM 3.95 39.11 0.101 7.16 30.32 13.08
1/13/2023 1:15:00 PM 3.92 39.056 0.1 7.16 26.18 13.08
1/13/2023 1:30:00 PM 3.9 39.02 0.1 7.15 23.74 13.09
1/13/2023 1:45:00 PM 3.88 38.984 0.1 7.15 22.5 13.1
1/13/2023 2:00:00 PM 3.84 38.912 0.1 7.15 21.98 13.11
1/13/2023 2:15:00 PM 3.8 38.84 0.1 7.15 20.41 13.12
1/13/2023 2:30:00 PM 3.78 38.804 0.1 7.15 16.52 13.13
1/13/2023 2:45:00 PM 3.75 38.75 0.1 7.15 18.98 13.14
1/13/2023 3:00:00 PM 3.72 38.696 0.1 7.14 20.29 13.15
1/13/2023 3:15:00 PM 3.69 38.642 0.1 7.15 16.19 13.17
1/13/2023 3:30:00 PM 3.65 38.57 0.1 7.13 15.81 13.17
1/13/2023 3:45:00 PM 3.6 38.48 0.1 7.14 16.07 13.18
1/13/2023 4:00:00 PM 3.56 38.408 0.1 7.13 14.7 13.18
1/13/2023 4:15:00 PM 3.52 38.336 0.1 7.12 14.22 13.19
1/13/2023 4:30:00 PM 3.47 38.246 0.1 7.12 13.83 13.2
1/13/2023 4:45:00 PM 3.43 38.174 0.101 7.11 13.62 13.21
1/13/2023 5:00:00 PM 3.38 38.084 0.101 7.12 13.34 13.22
1/13/2023 5:15:00 PM 3.34 38.012 0.101 7.11 12.99 13.23
1/13/2023 5:30:00 PM 3.28 37.904 0.101 7.1 12.29 13.24
1/13/2023 5:45:00 PM 3.22 37.796 0.101 7.1 11.96 13.26
1/13/2023 6:00:00 PM 3.2 37.76 0.101 7.1 11.63 13.27
1/13/2023 6:15:00 PM 3.17 37.706 0.102 7.1 11.11 13.28
1/13/2023 6:30:00 PM 3.14 37.652 0.102 7.1 11.24 13.29
1/13/2023 6:45:00 PM 3.1 37.58 0.102 7.09 10.67 13.3
1/13/2023 7:00:00 PM 3.06 37.508 0.102 7.09 11.04 13.31
1/13/2023 7:15:00 PM 3.03 37.454 0.102 7.1 10.42 13.33
1/13/2023 7:30:00 PM 3 37.4 0.103 7.1 10.41 13.34
1/13/2023 7:45:00 PM 2.96 37.328 0.103 7.1 10.38 13.35
1/13/2023 8:00:00 PM 2.93 37.274 0.103 7.1 10.25 13.36
1/13/2023 8:15:00 PM 2.89 37.202 0.103 7.1 9.68 13.37
1/13/2023 8:30:00 PM 2.86 37.148 0.103 7.1 9.38 13.38
1/13/2023 8:45:00 PM 2.83 37.094 0.104 7.09 9.48 13.39
1/13/2023 9:00:00 PM 2.8 37.04 0.104 7.1 8.86 13.4
1/13/2023 9:15:00 PM 2.76 36.968 0.104 7.1 9.37 13.42
1/13/2023 9:30:00 PM 2.73 36.914 0.104 7.09 8.66 13.44
1/13/2023 9:45:00 PM 2.7 36.86 0.104 7.09 8.96 13.45
1/13/2023 10:00:00 PM 2.67 36.806 0.104 7.1 8.24 13.46
1/13/2023 10:15:00 PM 2.64 36.752 0.105 7.1 8.18 13.47
1/13/2023 10:30:00 PM 2.6 36.68 0.105 7.1 8.39 13.48
1/13/2023 10:45:00 PM 2.57 36.626 0.105 7.1 7.8 13.49
1/13/2023 11:00:00 PM 2.54 36.572 0.105 7.1 7.91 13.5
1/13/2023 11:15:00 PM 2.5 36.5 0.105 7.1 7.71 13.52
1/13/2023 11:30:00 PM 2.47 36.446 0.105 7.1 7.88 13.53
1/13/2023 11:45:00 PM 2.43 36.374 0.106 7.1 7.65 13.54
1/14/2023 12:00:00 AM 2.39 36.302 0.106 7.09 7.62 13.55
1/14/2023 12:15:00 AM 2.36 36.248 0.106 7.1 7.53 13.56
1/14/2023 12:30:00 AM 2.33 36.194 0.106 7.1 7.55 13.57
1/14/2023 12:45:00 AM 2.28 36.104 0.106 7.1 7.47 13.58
1/14/2023 1:00:00 AM 2.24 36.032 0.106 7.09 7.12 13.6
1/14/2023 1:15:00 AM 2.21 35.978 0.107 7.1 6.73 13.6
1/14/2023 1:30:00 AM 2.18 35.924 0.107 7.1 7.54 13.62
1/14/2023 1:45:00 AM 2.15 35.87 0.107 7.09 7.03 13.63
1/14/2023 2:00:00 AM 2.11 35.798 0.107 7.1 6.89 13.65
1/14/2023 2:15:00 AM 2.08 35.744 0.107 7.09 6.66 13.65
1/14/2023 2:30:00 AM 2.06 35.708 0.107 7.1 6.61 13.67
1/14/2023 2:45:00 AM 2.03 35.654 0.107 7.1 6.1 13.68
1/14/2023 3:00:00 AM 2.01 35.618 0.108 7.1 6.34 13.69
1/14/2023 3:15:00 AM 1.97 35.546 0.108 7.1 6.5 13.71
1/14/2023 3:30:00 AM 1.93 35.474 0.108 7.1 6.47 13.72
1/14/2023 3:45:00 AM 1.9 35.42 0.108 7.1 6.27 13.73
1/14/2023 4:00:00 AM 1.87 35.366 0.108 7.1 6.55 13.75
1/14/2023 4:15:00 AM 1.84 35.312 0.108 7.1 6.12 13.76
1/14/2023 4:30:00 AM 1.81 35.258 0.108 7.1 6.14 13.77
1/14/2023 4:45:00 AM 1.79 35.222 0.109 7.1 6.32 13.79
1/14/2023 5:00:00 AM 1.77 35.186 0.109 7.1 6.08 13.79
1/14/2023 5:15:00 AM 1.75 35.15 0.109 7.1 6.14 13.79
1/14/2023 5:30:00 AM 1.72 35.096 0.109 7.1 5.98 13.81
1/14/2023 5:45:00 AM 1.7 35.06 0.109 7.1 5.42 13.81
1/14/2023 6:00:00 AM 1.67 35.006 0.109 7.1 5.83 13.83
1/14/2023 6:15:00 AM 1.64 34.952 0.109 7.1 5.57 13.84
1/14/2023 6:30:00 AM 1.61 34.898 0.109 7.11 6.14 13.85
1/14/2023 6:45:00 AM 1.58 34.844 0.11 7.1 5.7 13.86
1/14/2023 7:00:00 AM 1.56 34.808 0.11 7.1 5.83 13.87
1/14/2023 7:15:00 AM 1.53 34.754 0.11 7.1 5.18 13.88
1/14/2023 7:30:00 AM 1.5 34.7 0.11 7.1 5.2 13.89
1/14/2023 7:45:00 AM 1.47 34.646 0.11 7.1 5.79 13.91
1/14/2023 8:00:00 AM 1.44 34.592 0.11 7.1 5.17 13.92
1/14/2023 8:15:00 AM 1.42 34.556 0.11 7.1 5.27 13.93
1/14/2023 8:30:00 AM 1.4 34.52 0.11 7.11 5.54 13.96
1/14/2023 8:45:00 AM 1.38 34.484 0.11 7.11 5.04 13.98
1/14/2023 9:00:00 AM 1.37 34.466 0.111 7.12 4.99 14
1/14/2023 9:15:00 AM 1.37 34.466 0.111 7.12 4.96 14.02
1/14/2023 9:30:00 AM 1.36 34.448 0.111 7.12 5.12 14.04
1/14/2023 9:45:00 AM 1.36 34.448 0.111 7.13 5.34 14.06
1/14/2023 10:00:00 AM 1.37 34.466 0.111 7.14 4.94 14.08
1/14/2023 10:15:00 AM 1.38 34.484 0.111 7.14 4.68 14.09
1/14/2023 10:30:00 AM 1.39 34.502 0.111 7.14 4.75 14.1
1/14/2023 10:45:00 AM 1.4 34.52 0.111 7.15 4.72 14.11
1/14/2023 11:00:00 AM 1.43 34.574 0.111 7.15 4.68 14.12
1/14/2023 11:15:00 AM 1.45 34.61 0.111 7.16 4.74 14.12
1/14/2023 11:30:00 AM 1.47 34.646 0.111 7.16 4.87 14.12
1/14/2023 11:45:00 AM 1.48 34.664 0.111 7.17 4.94 14.12
1/14/2023 12:00:00 PM 1.51 34.718 0.112 7.17 4.68 14.12
1/14/2023 12:15:00 PM 1.54 34.772 0.112 7.18 4.84 14.11
1/14/2023 12:30:00 PM 1.57 34.826 0.112 7.18 4.65 14.11
1/14/2023 12:45:00 PM 1.59 34.862 0.112 7.18 4.5 14.11
1/14/2023 1:00:00 PM 1.63 34.934 0.112 7.19 4.48 14.1
1/14/2023 1:15:00 PM 1.66 34.988 0.112 7.19 4.84 14.09
1/14/2023 1:30:00 PM 1.69 35.042 0.112 7.19 4.62 14.09
1/14/2023 1:45:00 PM 1.72 35.096 0.112 7.2 4.27 14.08
1/14/2023 2:00:00 PM 1.76 35.168 0.112 7.2 4.55 14.06
1/14/2023 2:15:00 PM 1.79 35.222 0.112 7.2 4.67 14.06
1/14/2023 2:30:00 PM 1.82 35.276 0.112 7.2 4.57 14.05
1/14/2023 2:45:00 PM 1.87 35.366 0.112 7.2 4.42 14.03
1/14/2023 3:00:00 PM 1.88 35.384 0.112 7.21 4.65 14.02
1/14/2023 3:15:00 PM 1.87 35.366 0.112 7.21 4.49 14.02
1/14/2023 3:30:00 PM 1.84 35.312 0.113 7.2 4.52 14.02
1/14/2023 3:45:00 PM 1.79 35.222 0.113 7.2 4.28 14.04
1/14/2023 4:00:00 PM 1.73 35.114 0.113 7.2 4.53 14.04
1/14/2023 4:15:00 PM 1.67 35.006 0.113 7.18 4.55 14.05
1/14/2023 4:30:00 PM 1.61 34.898 0.113 7.18 4.34 14.05
1/14/2023 4:45:00 PM 1.54 34.772 0.113 7.17 4.63 14.05
1/14/2023 5:00:00 PM 1.49 34.682 0.113 7.18 4.56 14.05
1/14/2023 5:15:00 PM 1.45 34.61 0.113 7.16 4.42 14.04
1/14/2023 5:30:00 PM 1.41 34.538 0.113 7.16 4.38 14.04
1/14/2023 5:45:00 PM 1.36 34.448 0.113 7.15 4.36 14.05
1/14/2023 6:00:00 PM 1.31 34.358 0.114 7.15 4.74 14.06
1/14/2023 6:15:00 PM 1.27 34.286 0.114 7.14 4.41 14.07
1/14/2023 6:30:00 PM 1.22 34.196 0.113 7.14 4.4 14.09
1/14/2023 6:45:00 PM 1.18 34.124 0.113 7.14 4.38 14.11
1/14/2023 7:00:00 PM 1.14 34.052 0.113 7.13 4.31 14.11
1/14/2023 7:15:00 PM 1.11 33.998 0.113 7.13 4.54 14.13
1/14/2023 7:30:00 PM 1.09 33.962 0.113 7.13 4.38 14.13
1/14/2023 7:45:00 PM 1.06 33.908 0.114 7.13 4.4 14.15
1/14/2023 8:00:00 PM 1.04 33.872 0.114 7.12 4.41 14.15
1/14/2023 8:15:00 PM 1.01 33.818 0.114 7.13 4.12 14.16
1/14/2023 8:30:00 PM 0.98 33.764 0.114 7.12 4.14 14.17
1/14/2023 8:45:00 PM 0.95 33.71 0.115 7.12 4.46 14.18
1/14/2023 9:00:00 PM 0.93 33.674 0.115 7.12 4.57 14.19
1/14/2023 9:15:00 PM 0.9 33.62 0.115 7.12 4.46 14.2
1/14/2023 9:30:00 PM 0.89 33.602 0.116 7.12 4.67 14.21
1/14/2023 9:45:00 PM 0.86 33.548 0.116 7.13 4.41 14.21
1/14/2023 10:00:00 PM 0.84 33.512 0.116 7.13 3.88 14.22
1/14/2023 10:15:00 PM 0.82 33.476 0.116 7.12 4.13 14.23
1/14/2023 10:30:00 PM 0.81 33.458 0.116 7.12 4.18 14.24
1/14/2023 10:45:00 PM 0.81 33.458 0.116 7.13 3.92 14.24
1/14/2023 11:00:00 PM 0.79 33.422 0.116 7.13 4.18 14.24
1/14/2023 11:15:00 PM 0.78 33.404 0.116 7.13 3.86 14.24
1/14/2023 11:30:00 PM 0.78 33.404 0.116 7.13 4.41 14.25
1/14/2023 11:45:00 PM 0.77 33.386 0.116 7.13 3.98 14.25
1/15/2023 12:00:00 AM 0.77 33.386 0.116 7.12 3.98 14.25
1/15/2023 12:15:00 AM 0.76 33.368 0.116 7.13 3.87 14.25
1/15/2023 12:30:00 AM 0.75 33.35 0.116 7.13 3.75 14.26
1/15/2023 12:45:00 AM 0.74 33.332 0.116 7.13 4 14.26
1/15/2023 1:00:00 AM 0.73 33.314 0.116 7.13 3.73 14.27
1/15/2023 1:15:00 AM 0.72 33.296 0.116 7.13 4.03 14.28
1/15/2023 1:30:00 AM 0.72 33.296 0.116 7.13 3.79 14.29
1/15/2023 1:45:00 AM 0.71 33.278 0.116 7.13 4.22 14.29
1/15/2023 2:00:00 AM 0.71 33.278 0.116 7.13 3.96 14.29
1/15/2023 2:15:00 AM 0.7 33.26 0.116 7.13 3.91 14.3
1/15/2023 2:30:00 AM 0.69 33.242 0.116 7.13 3.62 14.3
1/15/2023 2:45:00 AM 0.69 33.242 0.116 7.14 4.12 14.3
1/15/2023 3:00:00 AM 0.68 33.224 0.116 7.14 4.19 14.3
1/15/2023 3:15:00 AM 0.67 33.206 0.116 7.14 3.81 14.31
1/15/2023 3:30:00 AM 0.67 33.206 0.116 7.14 3.86 14.31
1/15/2023 3:45:00 AM 0.67 33.206 0.116 7.14 3.81 14.31
1/15/2023 4:00:00 AM 0.66 33.188 0.116 7.14 3.75 14.32
1/15/2023 4:15:00 AM 0.66 33.188 0.117 7.14 3.59 14.32
1/15/2023 4:30:00 AM 0.65 33.17 0.117 7.14 3.85 14.33
1/15/2023 4:45:00 AM 0.65 33.17 0.117 7.13 3.84 14.33
1/15/2023 5:00:00 AM 0.64 33.152 0.117 7.14 3.64 14.33
1/15/2023 5:15:00 AM 0.63 33.134 0.117 7.14 3.85 14.34
1/15/2023 5:30:00 AM 0.61 33.098 0.117 7.14 3.68 14.34
1/15/2023 5:45:00 AM 0.57 33.026 0.117 7.13 4.07 14.35
1/15/2023 6:00:00 AM 0.53 32.954 0.117 7.13 3.39 14.37
1/15/2023 6:15:00 AM 0.51 32.918 0.117 7.13 3.7 14.38
1/15/2023 6:30:00 AM 0.51 32.918 0.117 7.13 3.7 14.38
1/15/2023 6:45:00 AM 0.52 32.936 0.117 7.13 3.85 14.39
1/15/2023 7:00:00 AM 0.51 32.918 0.117 7.14 3.51 14.39
1/15/2023 7:15:00 AM 0.5 32.9 0.117 7.13 3.39 14.39
1/15/2023 7:30:00 AM 0.49 32.882 0.117 7.14 3.61 14.4
1/15/2023 7:45:00 AM 0.48 32.864 0.117 7.13 3.48 14.41
1/15/2023 8:00:00 AM 0.48 32.864 0.117 7.13 3.37 14.43
1/15/2023 8:15:00 AM 0.48 32.864 0.117 7.14 3.56 14.44
1/15/2023 8:30:00 AM 0.49 32.882 0.117 7.14 3.29 14.46
1/15/2023 8:45:00 AM 0.51 32.918 0.117 7.15 3.59 14.48
1/15/2023 9:00:00 AM 0.53 32.954 0.117 7.16 3.57 14.5
1/15/2023 9:15:00 AM 0.55 32.99 0.117 7.16 3.5 14.51
1/15/2023 9:30:00 AM 0.57 33.026 0.117 7.16 3.42 14.52
1/15/2023 9:45:00 AM 0.59 33.062 0.117 7.17 3.22 14.53
1/15/2023 10:00:00 AM 0.63 33.134 0.117 7.17 3.56 14.53
1/15/2023 10:15:00 AM 0.65 33.17 0.117 7.18 3.45 14.54
1/15/2023 10:30:00 AM 0.68 33.224 0.117 7.18 3.45 14.53
1/15/2023 10:45:00 AM 0.71 33.278 0.117 7.18 3.51 14.52
1/15/2023 11:00:00 AM 0.77 33.386 0.117 7.19 3.53 14.51
1/15/2023 11:15:00 AM 0.82 33.476 0.117 7.19 3.12 14.5
1/15/2023 11:30:00 AM 0.91 33.638 0.117 7.18 3.08 14.48
1/15/2023 11:45:00 AM 0.99 33.782 0.117 7.2 3.36 14.46
1/15/2023 12:00:00 PM 1.06 33.908 0.117 7.21 3.16 14.43
1/15/2023 12:15:00 PM 1.13 34.034 0.117 7.21 3.18 14.41
1/15/2023 12:30:00 PM 1.23 34.214 0.117 7.22 3.18 14.37
1/15/2023 12:45:00 PM 1.4 34.52 0.117 7.22 3.23 14.31
1/15/2023 1:00:00 PM 1.58 34.844 0.117 7.23 3.21 14.26
1/15/2023 1:15:00 PM 1.73 35.114 0.117 7.23 3.15 14.23
1/15/2023 1:30:00 PM 1.8 35.24 0.117 7.23 3.47 14.18
1/15/2023 1:45:00 PM 1.87 35.366 0.117 7.23 3.19 14.15
1/15/2023 2:00:00 PM 1.96 35.528 0.117 7.23 3.22 14.12
1/15/2023 2:15:00 PM 2.05 35.69 0.117 7.23 3.31 14.09
1/15/2023 2:30:00 PM 2.02 35.636 0.117 7.24 3.29 14.08
1/15/2023 2:45:00 PM 1.89 35.402 0.118 7.24 3.4 14.09
1/15/2023 3:00:00 PM 1.78 35.204 0.118 7.23 3.34 14.12
1/15/2023 3:15:00 PM 1.73 35.114 0.118 7.23 3.37 14.13
1/15/2023 3:30:00 PM 1.74 35.132 0.118 7.23 3.11 14.12
1/15/2023 3:45:00 PM 1.73 35.114 0.118 7.23 3.35 14.11
1/15/2023 4:00:00 PM 1.7 35.06 0.118 7.23 3.44 14.09
1/15/2023 4:15:00 PM 1.66 34.988 0.118 7.22 3.24 14.09
1/15/2023 4:30:00 PM 1.59 34.862 0.118 7.22 3.32 14.09
1/15/2023 4:45:00 PM 1.52 34.736 0.118 7.21 3.37 14.1
1/15/2023 5:00:00 PM 1.45 34.61 0.118 7.2 3.84 14.1
1/15/2023 5:15:00 PM 1.38 34.484 0.118 7.2 3.75 14.1
1/15/2023 5:30:00 PM 1.32 34.376 0.118 7.18 3.96 14.11
1/15/2023 5:45:00 PM 1.29 34.322 0.118 7.18 3.56 14.11
1/15/2023 6:00:00 PM 1.27 34.286 0.118 7.18 3.72 14.11
1/15/2023 6:15:00 PM 1.24 34.232 0.118 7.17 3.97 14.12
1/15/2023 6:30:00 PM 1.2 34.16 0.118 7.17 3.86 14.13
1/15/2023 6:45:00 PM 1.16 34.088 0.118 7.16 3.81 14.14
1/15/2023 7:00:00 PM 1.11 33.998 0.118 7.16 3.58 14.16
1/15/2023 7:15:00 PM 1.07 33.926 0.119 7.16 3.91 14.17
1/15/2023 7:30:00 PM 1.04 33.872 0.119 7.15 3.86 14.18
1/15/2023 7:45:00 PM 1.03 33.854 0.119 7.15 4.03 14.19
1/15/2023 8:00:00 PM 1.02 33.836 0.119 7.15 4.51 14.19
1/15/2023 8:15:00 PM 0.99 33.782 0.119 7.15 4.07 14.2
1/15/2023 8:30:00 PM 0.97 33.746 0.119 7.15 4.24 14.2
1/15/2023 8:45:00 PM 0.94 33.692 0.119 7.15 3.95 14.22
1/15/2023 9:00:00 PM 0.91 33.638 0.119 7.14 3.82 14.23
1/15/2023 9:15:00 PM 0.88 33.584 0.119 7.14 4.16 14.24
1/15/2023 9:30:00 PM 0.86 33.548 0.119 7.14 4.04 14.25
1/15/2023 9:45:00 PM 0.82 33.476 0.119 7.14 4.09 14.26
1/15/2023 10:00:00 PM 0.8 33.44 0.119 7.14 3.77 14.26
1/15/2023 10:15:00 PM 0.78 33.404 0.119 7.14 4.01 14.27
1/15/2023 10:30:00 PM 0.76 33.368 0.119 7.14 3.72 14.28
1/15/2023 10:45:00 PM 0.75 33.35 0.119 7.14 3.55 14.28
1/15/2023 11:00:00 PM 0.73 33.314 0.12 7.14 3.52 14.28
1/15/2023 11:15:00 PM 0.72 33.296 0.12 7.14 3.49 14.29
1/15/2023 11:30:00 PM 0.7 33.26 0.12 7.13 3.5 14.29
1/15/2023 11:45:00 PM 0.69 33.242 0.12 7.14 3.16 14.29
1/16/2023 12:00:00 AM 0.68 33.224 0.12 7.14 3.61 14.3
1/16/2023 12:15:00 AM 0.66 33.188 0.12 7.14 3.49 14.3
1/16/2023 12:30:00 AM 0.65 33.17 0.12 7.14 3.19 14.3
1/16/2023 12:45:00 AM 0.64 33.152 0.12 7.14 3.5 14.31
1/16/2023 1:00:00 AM 0.64 33.152 0.12 7.14 3.43 14.31
1/16/2023 1:15:00 AM 0.64 33.152 0.12 7.14 3.26 14.3
1/16/2023 1:30:00 AM 0.64 33.152 0.12 7.14 3.35 14.3
1/16/2023 1:45:00 AM 0.64 33.152 0.12 7.15 3.42 14.3
1/16/2023 2:00:00 AM 0.65 33.17 0.12 7.14 3.86 14.29
1/16/2023 2:15:00 AM 0.65 33.17 0.12 7.14 3.52 14.29
1/16/2023 2:30:00 AM 0.64 33.152 0.12 7.15 3.46 14.29
1/16/2023 2:45:00 AM 0.63 33.134 0.12 7.14 3.5 14.29
1/16/2023 3:00:00 AM 0.6 33.08 0.12 7.14 3.74 14.3
1/16/2023 3:15:00 AM 0.57 33.026 0.12 7.14 3.86 14.31
1/16/2023 3:30:00 AM 0.55 32.99 0.121 7.14 3.68 14.32
1/16/2023 3:45:00 AM 0.54 32.972 0.121 7.14 3.6 14.32
1/16/2023 4:00:00 AM 0.52 32.936 0.121 7.14 3.33 14.33
1/16/2023 4:15:00 AM 0.5 32.9 0.121 7.14 3.31 14.33
1/16/2023 4:30:00 AM 0.47 32.846 0.121 7.14 3.44 14.34
1/16/2023 4:45:00 AM 0.43 32.774 0.121 7.13 3.38 14.35
1/16/2023 5:00:00 AM 0.39 32.702 0.121 7.13 3.16 14.37
1/16/2023 5:15:00 AM 0.36 32.648 0.121 7.13 3.32 14.37
1/16/2023 5:30:00 AM 0.32 32.576 0.121 7.13 3.41 14.38
1/16/2023 5:45:00 AM 0.28 32.504 0.121 7.13 3.24 14.39
1/16/2023 6:00:00 AM 0.24 32.432 0.121 7.13 3.25 14.4
1/16/2023 6:15:00 AM 0.21 32.378 0.121 7.13 3.08 14.42
1/16/2023 6:30:00 AM 0.18 32.324 0.122 7.13 3.12 14.44
1/16/2023 6:45:00 AM 0.16 32.288 0.122 7.13 3.19 14.44
1/16/2023 7:00:00 AM 0.14 32.252 0.122 7.13 3.29 14.45
1/16/2023 7:15:00 AM 0.14 32.252 0.122 7.12 3.14 14.46
1/16/2023 7:30:00 AM 0.13 32.234 0.122 7.13 3.27 14.45
1/16/2023 7:45:00 AM 0.14 32.252 0.122 7.13 3.21 14.47
1/16/2023 8:00:00 AM 0.16 32.288 0.122 7.13 3.04 14.48
1/16/2023 8:15:00 AM 0.17 32.306 0.123 7.14 3.19 14.48
1/16/2023 8:30:00 AM 0.19 32.342 0.123 7.14 3.09 14.5
1/16/2023 8:45:00 AM 0.21